Darstellungsparameter: Aktuell verwendete Einstellungen:
Skalierung der Graphiken ... ?
xyx+y,   Skalierungsfaktor:      Skalierung: Modus: x, Faktor: 1
Darstellungszeitraum ... ?
Vom - - bis: - -   Zeitraum: 29.02.2020 - 28.03.2020
Min/Max/Avg-Anzeige ... ?
Zeige MMA aktuell
Zeige MMA Monat
Zeige MMA alles
Zeige --A aktuell
Zeige --A Monat
Zeige --A alles
Keine MMA-Anzeige
MMA:
Minimum Maximum Average (ber die Originaldaten)
MMA-Basis: 23.02.2003 - 29.03.2020
Quicknavigation für Darstellung... ?
Tage:      1T, 2T, 3T, 5T -1T -2T -3T -5T +1T +2T +3T +5T
Wochen: 1W, 2W, 3W -1W -2W -3W +1W +2W +3W
Monate: 1M, 3M, 6M -1M -3M -6M +1M +3M +6M
Jahre:    1J, 3J, 5J, 10J -1J -3J -5J -10J +1J +3J +5J +10J
Nutze für die Darstellung ... ?
Originaldaten oder Mittelwerte auf ...
Stundenbasis Tagesbasis Wochenbasis
Monatsbasis Jahresbasis      Datenbasis: Original-Daten
Darstellen als:
Statistik (Auto) Statistik J:M      Darstellung:
Zur Graphik,    zurück zur Übersicht aller Sensoren.
 
Tabellarische Datenbersicht: ?
 
Sensor: Nr:Datum:Temp:Feuchte:
Aussen-T/F 1 29-02-2020 00:08:18 4.3 C 42 %
2 29-02-2020 00:18:18 4.5 C 42 %
3 29-02-2020 00:28:18 4.7 C 41 %
4 29-02-2020 00:38:18 5.1 C 40 %
5 29-02-2020 00:48:17 5 C 41 %
6 29-02-2020 00:58:17 4.8 C 42 %
7 29-02-2020 01:08:18 5 C 42 %
8 29-02-2020 01:18:18 4.8 C 43 %
9 29-02-2020 01:28:18 4.9 C 45 %
10 29-02-2020 01:38:18 5 C 44 %
11 29-02-2020 01:48:17 5.1 C 45 %
12 29-02-2020 01:58:17 5.1 C 45 %
13 29-02-2020 02:08:18 5.2 C 44 %
14 29-02-2020 02:18:18 5.2 C 45 %
15 29-02-2020 02:28:18 5.3 C 45 %
16 29-02-2020 02:38:18 5.6 C 44 %
17 29-02-2020 02:48:17 5.9 C 43 %
18 29-02-2020 02:58:17 7 C 41 %
19 29-02-2020 03:08:18 7.5 C 40 %
20 29-02-2020 03:18:18 7.8 C 39 %
21 29-02-2020 03:28:18 8.5 C 38 %
22 29-02-2020 03:38:18 8.3 C 38 %
23 29-02-2020 03:48:17 8.8 C 38 %
24 29-02-2020 03:58:17 8.9 C 38 %
25 29-02-2020 04:08:18 9.1 C 37 %
Sensor: Nr:Datum:Temp:Feuchte:
Aussen-T/F 26 29-02-2020 04:18:17 9.4 C 37 %
27 29-02-2020 04:28:18 9.5 C 37 %
28 29-02-2020 04:38:18 9 C 37 %
29 29-02-2020 04:48:17 9.3 C 37 %
30 29-02-2020 04:58:17 9 C 37 %
31 29-02-2020 05:08:18 9.1 C 37 %
32 29-02-2020 05:18:17 9 C 37 %
33 29-02-2020 05:28:17 9.2 C 36 %
34 29-02-2020 05:38:17 8.6 C 37 %
35 29-02-2020 05:48:18 8.8 C 37 %
36 29-02-2020 05:58:18 9.1 C 36 %
37 29-02-2020 06:08:17 8.8 C 37 %
38 29-02-2020 06:18:17 8.4 C 37 %
39 29-02-2020 06:28:17 8.6 C 37 %
40 29-02-2020 06:38:17 8.7 C 37 %
41 29-02-2020 06:48:17 8.6 C 37 %
42 29-02-2020 06:58:17 8.4 C 37 %
43 29-02-2020 07:08:17 8.1 C 37 %
44 29-02-2020 07:18:17 8 C 37 %
45 29-02-2020 07:28:17 8.3 C 37 %
46 29-02-2020 07:38:17 7.8 C 38 %
47 29-02-2020 07:48:17 7.6 C 38 %
48 29-02-2020 07:58:17 7.3 C 39 %
49 29-02-2020 08:08:17 7.6 C 38 %
50 29-02-2020 08:18:17 7.4 C 39 %
Sensor: Nr:Datum:Temp:Feuchte:
Aussen-T/F 51 29-02-2020 08:28:17 7.5 C 39 %
52 29-02-2020 08:38:17 7.4 C 39 %
53 29-02-2020 08:48:17 7.6 C 39 %
54 29-02-2020 08:58:17 8 C 38 %
55 29-02-2020 09:08:17 8.3 C 37 %
56 29-02-2020 09:18:17 8.9 C 36 %
57 29-02-2020 09:28:17 9.2 C 36 %
58 29-02-2020 09:38:17 9.6 C 35 %
59 29-02-2020 09:48:17 10 C 33 %
60 29-02-2020 09:58:17 10 C 32 %
61 29-02-2020 10:08:17 10 C 32 %
62 29-02-2020 10:18:17 9.9 C 33 %
63 29-02-2020 10:28:17 10.1 C 31 %
64 29-02-2020 10:38:18 10.4 C 31 %
65 29-02-2020 10:48:17 10.7 C 31 %
66 29-02-2020 10:58:17 10.7 C 31 %
67 29-02-2020 11:08:18 11.1 C 30 %
68 29-02-2020 11:18:17 12.1 C 30 %
69 29-02-2020 11:28:17 13.9 C 25 %
70 29-02-2020 11:38:17 13.7 C 23 %
71 29-02-2020 11:48:17 13.4 C 24 %
72 29-02-2020 11:58:17 14.3 C 23 %
73 29-02-2020 12:08:17 15.5 C 20 %
74 29-02-2020 12:18:18 15.4 C 20 %
75 29-02-2020 12:28:18 15.1 C 20 %
Sensor: Nr:Datum:Temp:Feuchte:
Aussen-T/F 76 29-02-2020 12:38:17 16.2 C 20 %
77 29-02-2020 12:48:17 15.1 C 20 %
78 29-02-2020 12:58:17 15.4 C 20 %
79 29-02-2020 13:08:17 15.5 C 20 %
80 29-02-2020 13:18:17 15 C 20 %
81 29-02-2020 13:28:17 14.8 C 20 %
82 29-02-2020 13:38:18 15.4 C 20 %
83 29-02-2020 13:48:18 15.6 C 20 %
84 29-02-2020 13:58:18 16.4 C 20 %
85 29-02-2020 14:08:18 15.1 C 20 %
86 29-02-2020 14:18:17 15.1 C 20 %
87 29-02-2020 14:28:17 14.8 C 21 %
88 29-02-2020 14:38:17 13.1 C 26 %
89 29-02-2020 14:48:17 12 C 32 %
90 29-02-2020 14:58:17 10.5 C 38 %
91 29-02-2020 15:08:17 10.4 C 39 %
92 29-02-2020 15:18:17 10.8 C 39 %
93 29-02-2020 15:28:17 10.6 C 40 %
94 29-02-2020 15:38:18 10.4 C 39 %
95 29-02-2020 15:48:17 10.7 C 37 %
96 29-02-2020 15:58:17 11.3 C 35 %
97 29-02-2020 16:08:18 12.6 C 32 %
98 29-02-2020 16:18:17 12 C 32 %
99 29-02-2020 16:28:18 10.7 C 35 %
100 29-02-2020 16:38:18 10.1 C 37 %
Sensor: Nr:Datum:Temp:Feuchte:
Aussen-T/F 101 29-02-2020 16:48:17 9.9 C 37 %
102 29-02-2020 16:58:17 9.5 C 36 %
103 29-02-2020 17:08:18 9 C 35 %
104 29-02-2020 17:18:17 8.9 C 35 %
105 29-02-2020 17:28:18 8.8 C 34 %
106 29-02-2020 17:38:18 8.6 C 34 %
107 29-02-2020 17:48:18 8.6 C 35 %
108 29-02-2020 17:58:18 8.7 C 34 %
109 29-02-2020 18:08:18 8.6 C 35 %
110 29-02-2020 18:18:18 8.2 C 35 %
111 29-02-2020 18:28:18 8.1 C 35 %
112 29-02-2020 18:38:18 8 C 35 %
113 29-02-2020 18:48:17 6.7 C 36 %
114 29-02-2020 18:58:17 5.9 C 36 %
115 29-02-2020 19:08:17 5.9 C 37 %
116 29-02-2020 19:18:18 6 C 36 %
117 29-02-2020 19:28:18 6.3 C 35 %
118 29-02-2020 19:38:18 6.7 C 34 %
119 29-02-2020 19:48:18 6.6 C 34 %
120 29-02-2020 19:58:18 6.7 C 34 %
121 29-02-2020 20:08:18 6.6 C 34 %
122 29-02-2020 20:18:18 6.3 C 34 %
123 29-02-2020 20:28:18 6.3 C 34 %
124 29-02-2020 20:38:18 5.9 C 35 %
125 29-02-2020 20:48:18 5.7 C 35 %
Sensor: Nr:Datum:Temp:Feuchte:
Aussen-T/F 126 29-02-2020 20:58:18 5.3 C 35 %
127 29-02-2020 21:08:18 5.2 C 35 %
128 29-02-2020 21:18:17 5.7 C 34 %
129 29-02-2020 21:28:17 5 C 35 %
130 29-02-2020 21:38:17 5 C 35 %
131 29-02-2020 21:48:17 4.3 C 36 %
132 29-02-2020 21:58:17 3.9 C 38 %
133 29-02-2020 22:08:17 3.7 C 38 %
134 29-02-2020 22:18:18 3.4 C 39 %
135 29-02-2020 22:28:18 3.3 C 40 %
136 29-02-2020 22:38:18 3.3 C 41 %
137 29-02-2020 22:48:17 3.7 C 40 %
138 29-02-2020 22:58:18 4 C 39 %
139 29-02-2020 23:08:18 4.2 C 38 %
140 29-02-2020 23:18:18 4.4 C 38 %
141 29-02-2020 23:28:18 4.5 C 38 %
142 29-02-2020 23:38:18 4.7 C 38 %
143 29-02-2020 23:48:18 5.4 C 36 %
144 29-02-2020 23:58:18 6.3 C 35 %
145 01-03-2020 00:08:18 6.6 C 35 %
146 01-03-2020 00:18:18 6.6 C 35 %
147 01-03-2020 00:28:18 6.3 C 35 %
148 01-03-2020 00:38:18 6.2 C 35 %
149 01-03-2020 00:48:17 6.2 C 35 %
150 01-03-2020 00:58:18 6.2 C 35 %
Sensor: Nr:Datum:Temp:Feuchte:
Aussen-T/F 151 01-03-2020 01:08:17 6.1 C 35 %
152 01-03-2020 01:18:18 6 C 35 %
153 01-03-2020 01:28:18 5.7 C 35 %
154 01-03-2020 01:38:18 5.5 C 36 %
155 01-03-2020 01:48:17 5.8 C 36 %
156 01-03-2020 01:58:17 5.8 C 35 %
157 01-03-2020 02:08:17 5.3 C 36 %
158 01-03-2020 02:18:17 5.8 C 36 %
159 01-03-2020 02:28:17 5.7 C 36 %
160 01-03-2020 02:38:17 5.8 C 36 %
161 01-03-2020 02:48:17 6.2 C 35 %
162 01-03-2020 02:58:17 6.5 C 35 %
163 01-03-2020 03:08:18 6.5 C 35 %
164 01-03-2020 03:18:17 6.6 C 35 %
165 01-03-2020 03:28:17 6.7 C 35 %
166 01-03-2020 03:38:18 6.5 C 35 %
167 01-03-2020 03:48:17 6.4 C 35 %
168 01-03-2020 03:58:17 6.8 C 35 %
169 01-03-2020 04:08:17 6.6 C 35 %
170 01-03-2020 04:18:17 6.9 C 34 %
171 01-03-2020 04:28:17 7 C 33 %
172 01-03-2020 04:38:18 6.9 C 34 %
173 01-03-2020 04:48:17 7.1 C 33 %
174 01-03-2020 04:58:17 7 C 33 %
175 01-03-2020 05:08:17 7.1 C 33 %
Sensor: Nr:Datum:Temp:Feuchte:
Aussen-T/F 176 01-03-2020 05:18:18 6.8 C 34 %
177 01-03-2020 05:28:18 7.2 C 32 %
178 01-03-2020 05:38:18 6.8 C 34 %
179 01-03-2020 05:48:17 6.9 C 34 %
180 01-03-2020 05:58:18 6.6 C 34 %
181 01-03-2020 06:08:18 6.7 C 34 %
182 01-03-2020 06:18:17 6.8 C 34 %
183 01-03-2020 06:28:17 7 C 33 %
184 01-03-2020 06:38:17 7.1 C 33 %
185 01-03-2020 06:48:17 6.4 C 35 %
186 01-03-2020 06:58:17 5.9 C 36 %
187 01-03-2020 07:08:17 5.4 C 38 %
188 01-03-2020 07:18:17 5.4 C 39 %
189 01-03-2020 07:28:18 5.2 C 39 %
190 01-03-2020 07:38:18 5.1 C 41 %
191 01-03-2020 07:48:18 5.2 C 41 %
192 01-03-2020 07:58:18 5.2 C 42 %
193 01-03-2020 08:08:18 5.2 C 42 %
194 01-03-2020 08:18:17 5.3 C 42 %
195 01-03-2020 08:28:17 5 C 40 %
196 01-03-2020 08:38:17 4.7 C 41 %
197 01-03-2020 08:48:17 4 C 41 %
198 01-03-2020 08:58:17 4 C 42 %
199 01-03-2020 09:08:17 4.1 C 42 %
200 01-03-2020 09:18:17 4.3 C 41 %
Sensor: Nr:Datum:Temp:Feuchte:
Aussen-T/F 201 01-03-2020 09:28:17 4.8 C 40 %
202 01-03-2020 09:38:17 4.8 C 41 %
203 01-03-2020 09:48:18 4.7 C 41 %
204 01-03-2020 09:58:18 4.8 C 41 %
205 01-03-2020 10:08:17 5.3 C 40 %
206 01-03-2020 10:18:17 5.7 C 39 %
207 01-03-2020 10:28:17 7.1 C 36 %
208 01-03-2020 10:38:17 7.6 C 36 %
209 01-03-2020 10:48:17 7.8 C 35 %
210 01-03-2020 10:58:17 8 C 34 %
211 01-03-2020 11:08:17 8.1 C 33 %
212 01-03-2020 11:18:17 8.6 C 33 %
213 01-03-2020 11:28:18 10 C 30 %
214 01-03-2020 11:38:18 10.2 C 28 %
215 01-03-2020 11:48:17 8.8 C 29 %
216 01-03-2020 11:58:17 10.2 C 27 %
217 01-03-2020 12:08:17 8.9 C 30 %
218 01-03-2020 12:18:17 9.3 C 28 %
219 01-03-2020 12:28:17 9.7 C 27 %
220 01-03-2020 12:38:18 9.2 C 28 %
221 01-03-2020 12:48:18 11.4 C 26 %
222 01-03-2020 12:58:18 12.3 C 21 %
223 01-03-2020 13:08:18 11.4 C 24 %
224 01-03-2020 13:18:17 10.4 C 25 %
225 01-03-2020 13:28:17 10.4 C 25 %
Sensor: Nr:Datum:Temp:Feuchte:
Aussen-T/F 226 01-03-2020 13:38:17 10.6 C 22 %
227 01-03-2020 13:48:17 10.2 C 22 %
228 01-03-2020 13:58:17 10.8 C 22 %
229 01-03-2020 14:08:18 10.1 C 23 %
230 01-03-2020 14:18:18 9.9 C 25 %
231 01-03-2020 14:28:18 10.9 C 25 %
232 01-03-2020 14:38:18 10.5 C 23 %
233 01-03-2020 14:48:17 10.9 C 25 %
234 01-03-2020 14:58:18 10.1 C 25 %
235 01-03-2020 15:08:18 10.1 C 25 %
236 01-03-2020 15:18:17 12.6 C 20 %
237 01-03-2020 15:28:17 11.9 C 22 %
238 01-03-2020 15:38:18 12 C 20 %
239 01-03-2020 15:48:18 12.8 C 20 %
240 01-03-2020 15:58:18 11.7 C 21 %
241 01-03-2020 16:08:18 10.8 C 25 %
242 01-03-2020 16:18:18 10.5 C 25 %
243 01-03-2020 16:28:18 10.7 C 25 %
244 01-03-2020 16:38:18 10.3 C 30 %
245 01-03-2020 16:48:18 10.2 C 29 %
246 01-03-2020 16:58:18 9.7 C 31 %
247 01-03-2020 17:08:18 8.4 C 35 %
248 01-03-2020 17:18:17 7.8 C 39 %
249 01-03-2020 17:28:17 7.6 C 42 %
250 01-03-2020 17:38:17 7.3 C 43 %
Sensor: Nr:Datum:Temp:Feuchte:
Aussen-T/F 251 01-03-2020 17:48:17 7 C 44 %
252 01-03-2020 17:58:17 6.9 C 45 %
253 01-03-2020 18:08:18 6.8 C 45 %
254 01-03-2020 18:18:18 6.7 C 45 %
255 01-03-2020 18:28:18 6.7 C 45 %
256 01-03-2020 18:38:18 6.7 C 45 %
257 01-03-2020 18:48:18 6.6 C 45 %
258 01-03-2020 18:58:18 6.5 C 45 %
259 01-03-2020 19:08:18 6.5 C 45 %
260 01-03-2020 19:18:17 6.5 C 45 %
261 01-03-2020 19:28:17 6.4 C 45 %
262 01-03-2020 19:38:17 6.3 C 45 %
263 01-03-2020 19:48:17 6.3 C 45 %
264 01-03-2020 19:58:17 6.2 C 45 %
265 01-03-2020 20:08:17 6.3 C 45 %
266 01-03-2020 20:18:17 6.2 C 45 %
267 01-03-2020 20:28:17 6 C 45 %
268 01-03-2020 20:38:17 5.8 C 45 %
269 01-03-2020 20:48:17 5.7 C 45 %
270 01-03-2020 20:58:17 5.6 C 45 %
271 01-03-2020 21:08:17 5.6 C 45 %
272 01-03-2020 21:18:17 5.5 C 45 %
273 01-03-2020 21:28:17 5.4 C 45 %
274 01-03-2020 21:38:17 5.7 C 45 %
275 01-03-2020 21:48:17 5.8 C 45 %
Sensor: Nr:Datum:Temp:Feuchte:
Aussen-T/F 276 01-03-2020 21:58:17 5.9 C 45 %
277 01-03-2020 22:08:17 6 C 45 %
278 01-03-2020 22:18:17 6 C 45 %
279 01-03-2020 22:28:17 6.1 C 45 %
280 01-03-2020 22:38:18 6.2 C 45 %
281 01-03-2020 22:48:17 6.2 C 45 %
282 01-03-2020 22:58:17 6.3 C 45 %
283 01-03-2020 23:08:18 6.4 C 45 %
284 01-03-2020 23:18:18 5.8 C 45 %
285 01-03-2020 23:28:18 4.3 C 40 %
286 01-03-2020 23:38:18 3.1 C 41 %
287 01-03-2020 23:48:18 2.9 C 44 %
288 01-03-2020 23:58:18 3.1 C 44 %
289 02-03-2020 00:08:18 3.3 C 44 %
290 02-03-2020 00:18:17 3.3 C 43 %
291 02-03-2020 00:28:17 3.5 C 43 %
292 02-03-2020 00:38:17 3.5 C 43 %
293 02-03-2020 00:48:17 3.7 C 42 %
294 02-03-2020 00:58:18 3.6 C 42 %
295 02-03-2020 01:08:18 3.7 C 42 %
296 02-03-2020 01:18:17 3.9 C 41 %
297 02-03-2020 01:28:17 3.8 C 42 %
298 02-03-2020 01:38:17 3.8 C 41 %
299 02-03-2020 01:48:18 4 C 40 %
300 02-03-2020 01:58:18 3.5 C 42 %
Sensor: Nr:Datum:Temp:Feuchte:
Aussen-T/F 301 02-03-2020 02:08:18 3.7 C 42 %
302 02-03-2020 02:18:17 3.6 C 42 %
303 02-03-2020 02:28:17 3.5 C 42 %
304 02-03-2020 02:38:17 4 C 40 %
305 02-03-2020 02:48:17 3.8 C 41 %
306 02-03-2020 02:58:18 3.5 C 42 %
307 02-03-2020 03:08:18 3.3 C 43 %
308 02-03-2020 03:18:18 3.4 C 42 %
309 02-03-2020 03:28:18 2.9 C 44 %
310 02-03-2020 03:38:18 2.4 C 45 %
311 02-03-2020 03:48:18 2.9 C 45 %
312 02-03-2020 03:58:18 2.6 C 45 %
313 02-03-2020 04:08:18 2.3 C 45 %
314 02-03-2020 04:18:17 2 C 46 %
315 02-03-2020 04:28:17 2.2 C 46 %
316 02-03-2020 04:38:18 2.3 C 47 %
317 02-03-2020 04:48:18 2.2 C 46 %
318 02-03-2020 04:58:18 1.9 C 48 %
319 02-03-2020 05:08:18 1.7 C 48 %
320 02-03-2020 05:18:17 1.5 C 48 %
321 02-03-2020 05:28:17 1.3 C 48 %
322 02-03-2020 05:38:18 1.4 C 48 %
323 02-03-2020 05:48:18 1.4 C 48 %
324 02-03-2020 05:58:18 1.3 C 48 %
325 02-03-2020 06:08:18 1.1 C 48 %
Sensor: Nr:Datum:Temp:Feuchte:
Aussen-T/F 326 02-03-2020 06:18:18 1.3 C 48 %
327 02-03-2020 06:28:18 1.3 C 48 %
328 02-03-2020 06:38:18 1.4 C 48 %
329 02-03-2020 06:48:17 1.4 C 48 %
330 02-03-2020 06:58:17 1.5 C 48 %
331 02-03-2020 07:08:18 1.5 C 48 %
332 02-03-2020 07:18:18 1.7 C 48 %
333 02-03-2020 07:28:18 1.8 C 48 %
334 02-03-2020 07:38:18 2.1 C 47 %
335 02-03-2020 07:48:18 2.3 C 47 %
336 02-03-2020 07:58:18 2.5 C 47 %
337 02-03-2020 08:08:18 2.5 C 47 %
338 02-03-2020 08:18:17 2.7 C 47 %
339 02-03-2020 08:28:17 3 C 46 %
340 02-03-2020 08:38:18 3.2 C 46 %
341 02-03-2020 08:48:18 3.5 C 46 %
342 02-03-2020 08:58:18 3.8 C 45 %
343 02-03-2020 09:08:17 4.1 C 43 %
344 02-03-2020 09:18:17 4.5 C 42 %
345 02-03-2020 09:28:17 4.9 C 40 %
346 02-03-2020 09:38:17 5.4 C 39 %
347 02-03-2020 09:48:17 5.7 C 39 %
348 02-03-2020 09:58:17 6.1 C 38 %
349 02-03-2020 10:08:17 6.6 C 37 %
350 02-03-2020 10:18:17 6.9 C 36 %
Sensor: Nr:Datum:Temp:Feuchte:
Aussen-T/F 351 02-03-2020 10:28:17 7.4 C 35 %
352 02-03-2020 10:38:18 8.2 C 34 %
353 02-03-2020 10:48:17 8.9 C 34 %
354 02-03-2020 10:58:17 9 C 33 %
355 02-03-2020 11:08:17 9 C 33 %
356 02-03-2020 11:18:17 11.5 C 30 %
357 02-03-2020 11:28:17 13 C 26 %
358 02-03-2020 11:38:17 13.9 C 25 %
359 02-03-2020 11:48:17 11.8 C 27 %
360 02-03-2020 11:58:17 13.6 C 24 %
361 02-03-2020 12:08:17 13.3 C 21 %
362 02-03-2020 12:18:17 13.2 C 21 %
363 02-03-2020 12:28:17 12.3 C 23 %
364 02-03-2020 12:38:18 13 C 23 %
365 02-03-2020 12:48:18 11.8 C 24 %
366 02-03-2020 12:58:18 11.7 C 25 %
367 02-03-2020 13:08:18 12.4 C 23 %
368 02-03-2020 13:18:18 14.7 C 20 %
369 02-03-2020 13:28:18 14.2 C 20 %
370 02-03-2020 13:38:17 15.6 C 20 %
371 02-03-2020 13:48:17 14.1 C 20 %
372 02-03-2020 13:58:17 12.3 C 21 %
373 02-03-2020 14:08:17 11.8 C 23 %
374 02-03-2020 14:18:17 12.1 C 23 %
375 02-03-2020 14:28:17 11.7 C 25 %
Sensor: Nr:Datum:Temp:Feuchte:
Aussen-T/F 376 02-03-2020 14:38:17 11.2 C 25 %
377 02-03-2020 14:48:17 10.9 C 25 %
378 02-03-2020 14:58:17 10.8 C 26 %
379 02-03-2020 15:08:18 10.9 C 26 %
380 02-03-2020 15:18:18 10.9 C 26 %
381 02-03-2020 15:28:18 10.2 C 26 %
382 02-03-2020 15:38:18 9.2 C 30 %
383 02-03-2020 15:48:17 8.7 C 33 %
384 02-03-2020 15:58:18 8.4 C 36 %
385 02-03-2020 16:08:18 8 C 40 %
386 02-03-2020 16:18:18 7.6 C 41 %
387 02-03-2020 16:28:18 7.3 C 42 %
388 02-03-2020 16:38:18 7.2 C 43 %
389 02-03-2020 16:48:17 7.1 C 43 %
390 02-03-2020 16:58:17 7 C 44 %
391 02-03-2020 17:08:17 6.9 C 45 %
392 02-03-2020 17:18:17 6.6 C 45 %
393 02-03-2020 17:28:17 6.6 C 45 %
394 02-03-2020 17:38:18 6.4 C 45 %
395 02-03-2020 17:48:17 6.3 C 45 %
396 02-03-2020 17:58:18 6.3 C 45 %
397 02-03-2020 18:08:18 6.2 C 45 %
398 02-03-2020 18:18:18 6.1 C 45 %
399 02-03-2020 18:28:18 6 C 45 %
400 02-03-2020 18:38:18 5.9 C 46 %
Sensor: Nr:Datum:Temp:Feuchte:
Aussen-T/F 401 02-03-2020 18:48:17 5.9 C 46 %
402 02-03-2020 18:58:18 5.8 C 46 %
403 02-03-2020 19:08:18 5.7 C 46 %
404 02-03-2020 19:18:18 5.7 C 46 %
405 02-03-2020 19:28:18 5.7 C 46 %
406 02-03-2020 19:38:18 5.7 C 46 %
407 02-03-2020 19:48:17 5.7 C 45 %
408 02-03-2020 19:58:18 5.7 C 45 %
409 02-03-2020 20:08:18 5.7 C 45 %
410 02-03-2020 20:18:17 5.7 C 45 %
411 02-03-2020 20:28:18 5.6 C 45 %
412 02-03-2020 20:38:18 5.6 C 45 %
413 02-03-2020 20:48:17 5.6 C 45 %
414 02-03-2020 20:58:17 5.5 C 45 %
415 02-03-2020 21:08:18 5.4 C 45 %
416 02-03-2020 21:18:18 5.4 C 45 %
417 02-03-2020 21:28:18 5.4 C 45 %
418 02-03-2020 21:38:18 5.4 C 45 %
419 02-03-2020 21:48:18 5.4 C 45 %
420 02-03-2020 21:58:18 5.4 C 45 %
421 02-03-2020 22:08:18 5.4 C 45 %
422 02-03-2020 22:18:17 5.4 C 45 %
423 02-03-2020 22:28:17 5.5 C 45 %
424 02-03-2020 22:38:17 5.4 C 45 %
425 02-03-2020 22:48:17 5.5 C 45 %
Sensor: Nr:Datum:Temp:Feuchte:
Aussen-T/F 426 02-03-2020 22:58:17 5.5 C 45 %
427 02-03-2020 23:08:17 5.5 C 45 %
428 02-03-2020 23:18:17 5.2 C 45 %
429 02-03-2020 23:28:17 5.2 C 45 %
430 02-03-2020 23:38:17 5.2 C 45 %
431 02-03-2020 23:48:17 5.3 C 45 %
432 02-03-2020 23:58:17 5.3 C 45 %
433 03-03-2020 00:08:18 5.2 C 45 %
434 03-03-2020 00:18:18 5.1 C 44 %
435 03-03-2020 00:28:18 5 C 44 %
436 03-03-2020 00:38:18 5 C 44 %
437 03-03-2020 00:48:17 4.9 C 45 %
438 03-03-2020 00:58:17 4.9 C 45 %
439 03-03-2020 01:08:17 5.1 C 44 %
440 03-03-2020 01:18:17 5 C 43 %
441 03-03-2020 01:28:17 5 C 43 %
442 03-03-2020 01:38:18 4.6 C 41 %
443 03-03-2020 01:48:17 4.5 C 42 %
444 03-03-2020 01:58:17 4.4 C 43 %
445 03-03-2020 02:08:17 4.4 C 43 %
446 03-03-2020 02:18:17 4.2 C 42 %
447 03-03-2020 02:28:17 4.1 C 41 %
448 03-03-2020 02:38:18 4.1 C 41 %
449 03-03-2020 02:48:18 4.1 C 41 %
450 03-03-2020 02:58:18 3.9 C 42 %
Sensor: Nr:Datum:Temp:Feuchte:
Aussen-T/F 451 03-03-2020 03:08:17 3.8 C 41 %
452 03-03-2020 03:18:17 3.7 C 40 %
453 03-03-2020 03:28:17 3.4 C 41 %
454 03-03-2020 03:38:18 3.5 C 41 %
455 03-03-2020 03:48:18 3 C 42 %
456 03-03-2020 03:58:18 3.1 C 42 %
457 03-03-2020 04:08:17 2.8 C 43 %
458 03-03-2020 04:18:17 3.2 C 41 %
459 03-03-2020 04:28:17 3.2 C 41 %
460 03-03-2020 04:38:18 2.9 C 42 %
461 03-03-2020 04:48:17 2.9 C 43 %
462 03-03-2020 04:58:18 3.2 C 41 %
463 03-03-2020 05:08:18 3.1 C 41 %
464 03-03-2020 05:18:18 2.7 C 43 %
465 03-03-2020 05:28:18 2.3 C 44 %
466 03-03-2020 05:38:17 2.6 C 43 %
467 03-03-2020 05:48:18 2.7 C 42 %
468 03-03-2020 05:58:18 2.4 C 44 %
469 03-03-2020 06:08:17 3 C 42 %
470 03-03-2020 06:18:18 3.1 C 41 %
471 03-03-2020 06:28:18 2.8 C 42 %
472 03-03-2020 06:38:17 2.6 C 43 %
473 03-03-2020 06:48:18 2.7 C 42 %
474 03-03-2020 06:58:18 2.8 C 42 %
475 03-03-2020 07:08:18 2.8 C 42 %
Sensor: Nr:Datum:Temp:Feuchte:
Aussen-T/F 476 03-03-2020 07:18:18 2.6 C 43 %
477 03-03-2020 07:28:18 2.7 C 43 %
478 03-03-2020 07:38:18 2.6 C 43 %
479 03-03-2020 07:48:17 2.5 C 43 %
480 03-03-2020 07:58:17 2.5 C 43 %
481 03-03-2020 08:08:18 2.7 C 43 %
482 03-03-2020 08:18:18 3.3 C 41 %
483 03-03-2020 08:28:18 3.2 C 41 %
484 03-03-2020 08:38:17 3.5 C 40 %
485 03-03-2020 08:48:17 3.6 C 40 %
486 03-03-2020 08:58:18 3.4 C 40 %
487 03-03-2020 09:08:18 3.5 C 40 %
488 03-03-2020 09:18:17 3.2 C 40 %
489 03-03-2020 09:28:17 3.5 C 40 %
490 03-03-2020 09:38:17 3.6 C 40 %
491 03-03-2020 09:48:18 4.1 C 39 %
492 03-03-2020 09:58:18 4.6 C 38 %
493 03-03-2020 10:08:18 5.3 C 36 %
494 03-03-2020 10:18:18 5.1 C 36 %
495 03-03-2020 10:28:18 5.2 C 35 %
496 03-03-2020 10:38:18 5.4 C 35 %
497 03-03-2020 10:48:17 4.9 C 35 %
498 03-03-2020 10:58:18 5 C 35 %
499 03-03-2020 11:08:17 5.2 C 35 %
500 03-03-2020 11:18:17 5.2 C 35 %
Sensor: Nr:Datum:Temp:Feuchte:
Aussen-T/F 501 03-03-2020 11:28:17 5.3 C 35 %
502 03-03-2020 11:38:17 5.1 C 35 %
503 03-03-2020 11:48:17 5.8 C 35 %
504 03-03-2020 11:58:17 5.7 C 35 %
505 03-03-2020 12:08:17 6.1 C 35 %
506 03-03-2020 12:18:17 6.4 C 34 %
507 03-03-2020 12:28:17 6.6 C 34 %
508 03-03-2020 12:38:17 6.5 C 33 %
509 03-03-2020 12:48:17 7.1 C 33 %
510 03-03-2020 12:58:17 6.6 C 33 %
511 03-03-2020 13:08:17 6.6 C 33 %
512 03-03-2020 13:18:17 9.6 C 28 %
513 03-03-2020 13:28:18 9.8 C 27 %
514 03-03-2020 13:38:18 8.9 C 27 %
515 03-03-2020 13:48:17 9.7 C 25 %
516 03-03-2020 13:58:17 6.2 C 31 %
517 03-03-2020 14:08:18 5.8 C 35 %
518 03-03-2020 14:18:18 5.4 C 39 %
519 03-03-2020 14:28:18 5.7 C 38 %
520 03-03-2020 14:38:18 5 C 37 %
521 03-03-2020 14:48:18 4.7 C 39 %
522 03-03-2020 14:58:18 4.7 C 40 %
523 03-03-2020 15:08:18 4.7 C 39 %
524 03-03-2020 15:18:18 6.8 C 36 %
525 03-03-2020 15:28:18 6.9 C 35 %
Sensor: Nr:Datum:Temp:Feuchte:
Aussen-T/F 526 03-03-2020 15:38:18 8.9 C 32 %
527 03-03-2020 15:48:17 8.9 C 30 %
528 03-03-2020 15:58:17 7.4 C 32 %
529 03-03-2020 16:08:18 11.8 C 23 %
530 03-03-2020 16:18:18 9.3 C 25 %
531 03-03-2020 16:28:18 7.4 C 30 %
532 03-03-2020 16:38:18 7.2 C 30 %
533 03-03-2020 16:48:17 7.3 C 31 %
534 03-03-2020 16:58:17 7.6 C 30 %
535 03-03-2020 17:08:17 6.7 C 32 %
536 03-03-2020 17:18:17 6.7 C 33 %
537 03-03-2020 17:28:18 6.5 C 34 %
538 03-03-2020 17:38:18 6.4 C 34 %
539 03-03-2020 17:48:17 6 C 35 %
540 03-03-2020 17:58:18 5.4 C 36 %
541 03-03-2020 18:08:18 4.3 C 38 %
542 03-03-2020 18:18:18 4.4 C 39 %
543 03-03-2020 18:28:18 4 C 39 %
544 03-03-2020 18:38:18 3.7 C 41 %
545 03-03-2020 18:48:17 3.5 C 41 %
546 03-03-2020 18:58:17 3.6 C 41 %
547 03-03-2020 19:08:17 3.6 C 40 %
548 03-03-2020 19:18:17 3.8 C 40 %
549 03-03-2020 19:28:17 3.1 C 41 %
550 03-03-2020 19:38:17 3.2 C 41 %
Sensor: Nr:Datum:Temp:Feuchte:
Aussen-T/F 551 03-03-2020 19:48:17 2.7 C 42 %
552 03-03-2020 19:58:17 2.3 C 42 %
553 03-03-2020 20:08:17 1.7 C 45 %
554 03-03-2020 20:18:17 1.8 C 47 %
555 03-03-2020 20:28:17 1.7 C 47 %
556 03-03-2020 20:38:17 1.3 C 46 %
557 03-03-2020 20:48:17 1.4 C 47 %
558 03-03-2020 20:58:17 1.3 C 47 %
559 03-03-2020 21:08:17 1.2 C 47 %
560 03-03-2020 21:18:17 1.6 C 48 %
561 03-03-2020 21:28:17 2 C 47 %
562 03-03-2020 21:38:17 2.1 C 45 %
563 03-03-2020 21:48:17 2 C 45 %
564 03-03-2020 21:58:17 2.2 C 45 %
565 03-03-2020 22:08:17 1.9 C 46 %
566 03-03-2020 22:18:17 1.5 C 46 %
567 03-03-2020 22:28:17 1.4 C 47 %
568 03-03-2020 22:38:17 1.2 C 47 %
569 03-03-2020 22:48:17 1 C 47 %
570 03-03-2020 22:58:17 1.2 C 48 %
571 03-03-2020 23:08:17 1.7 C 48 %
572 03-03-2020 23:18:18 2.3 C 46 %
573 03-03-2020 23:28:18 2.4 C 44 %
574 03-03-2020 23:38:17 2.6 C 44 %
575 03-03-2020 23:48:17 2.7 C 43 %
Sensor: Nr:Datum:Temp:Feuchte:
Aussen-T/F 576 03-03-2020 23:58:17 2.8 C 43 %
577 04-03-2020 00:08:17 3.1 C 42 %
578 04-03-2020 00:18:18 3 C 41 %
579 04-03-2020 00:28:18 2.9 C 42 %
580 04-03-2020 00:38:18 3.1 C 41 %
581 04-03-2020 00:48:17 2.5 C 42 %
582 04-03-2020 00:58:17 2.3 C 44 %
583 04-03-2020 01:08:17 2.6 C 43 %
584 04-03-2020 01:18:17 2.6 C 42 %
585 04-03-2020 01:28:17 2.4 C 42 %
586 04-03-2020 01:38:17 2.5 C 42 %
587 04-03-2020 01:48:17 2.6 C 42 %
588 04-03-2020 01:58:17 2.6 C 42 %
589 04-03-2020 02:08:17 2.7 C 42 %
590 04-03-2020 02:18:17 2.8 C 42 %
591 04-03-2020 02:28:18 2.7 C 42 %
592 04-03-2020 02:38:18 3.2 C 41 %
593 04-03-2020 02:48:17 3.6 C 40 %
594 04-03-2020 02:58:18 3.4 C 40 %
595 04-03-2020 03:08:17 3.3 C 40 %
596 04-03-2020 03:18:17 3 C 41 %
597 04-03-2020 03:28:17 3.2 C 41 %
598 04-03-2020 03:38:17 2.9 C 42 %
599 04-03-2020 03:48:17 2.6 C 42 %
600 04-03-2020 03:58:18 2.5 C 44 %
Sensor: Nr:Datum:Temp:Feuchte:
Aussen-T/F 601 04-03-2020 04:08:18 3.4 C 41 %
602 04-03-2020 04:18:18 3.4 C 41 %
603 04-03-2020 04:28:18 3.6 C 40 %
604 04-03-2020 04:38:18 3.6 C 40 %
605 04-03-2020 04:48:17 3.7 C 40 %
606 04-03-2020 04:58:18 3.5 C 41 %
607 04-03-2020 05:08:18 3.4 C 41 %
608 04-03-2020 05:18:18 3.2 C 42 %
609 04-03-2020 05:28:18 3.1 C 44 %
610 04-03-2020 05:38:18 3.2 C 44 %
611 04-03-2020 05:48:17 3.2 C 43 %
612 04-03-2020 05:58:18 3.2 C 43 %
613 04-03-2020 06:08:18 3.3 C 43 %
614 04-03-2020 06:18:18 3.3 C 42 %
615 04-03-2020 06:28:18 3.4 C 42 %
616 04-03-2020 06:38:18 3.6 C 42 %
617 04-03-2020 06:48:17 3.6 C 42 %
618 04-03-2020 06:58:17 3.7 C 41 %
619 04-03-2020 07:08:17 3.7 C 41 %
620 04-03-2020 07:18:17 3.9 C 41 %
621 04-03-2020 07:28:17 3.9 C 41 %
622 04-03-2020 07:38:18 4 C 40 %
623 04-03-2020 07:48:17 3.9 C 41 %
624 04-03-2020 07:58:17 3.7 C 41 %
625 04-03-2020 08:08:18 3.3 C 42 %
Sensor: Nr:Datum:Temp:Feuchte:
Aussen-T/F 626 04-03-2020 08:18:17 3.4 C 42 %
627 04-03-2020 08:28:17 3.8 C 41 %
628 04-03-2020 08:38:18 3.7 C 41 %
629 04-03-2020 08:48:18 4.1 C 40 %
630 04-03-2020 08:58:18 3.7 C 41 %
631 04-03-2020 09:08:18 3.9 C 41 %
632 04-03-2020 09:18:18 4.2 C 40 %
633 04-03-2020 09:28:18 4.6 C 40 %
634 04-03-2020 09:38:18 4.7 C 39 %
635 04-03-2020 09:48:17 5.1 C 38 %
636 04-03-2020 09:58:18 5.4 C 37 %
637 04-03-2020 10:08:18 5.6 C 37 %
638 04-03-2020 10:18:18 5.8 C 37 %
639 04-03-2020 10:28:18 6 C 36 %
640 04-03-2020 10:38:17 6.6 C 36 %
641 04-03-2020 10:48:18 6.4 C 36 %
642 04-03-2020 10:58:18 6.5 C 36 %
643 04-03-2020 11:08:18 6.8 C 35 %
644 04-03-2020 11:18:18 7.7 C 34 %
645 04-03-2020 11:28:18 8.2 C 33 %
646 04-03-2020 11:38:18 8.3 C 32 %
647 04-03-2020 11:48:18 8.8 C 32 %
648 04-03-2020 11:58:18 9.5 C 31 %
649 04-03-2020 12:08:18 9.6 C 31 %
650 04-03-2020 12:18:18 10.1 C 30 %
Sensor: Nr:Datum:Temp:Feuchte:
Aussen-T/F 651 04-03-2020 12:28:18 9 C 30 %
652 04-03-2020 12:38:18 9.9 C 29 %
653 04-03-2020 12:48:17 10.9 C 28 %
654 04-03-2020 12:58:17 9.1 C 29 %
655 04-03-2020 13:08:17 9.3 C 28 %
656 04-03-2020 13:18:17 9.4 C 28 %
657 04-03-2020 13:28:17 10.7 C 27 %
658 04-03-2020 13:38:18 9.5 C 28 %
659 04-03-2020 13:48:17 9.6 C 28 %
660 04-03-2020 13:58:17 10.2 C 26 %
661 04-03-2020 14:08:18 10.6 C 26 %
662 04-03-2020 14:18:18 9.6 C 27 %
663 04-03-2020 14:28:18 9.6 C 27 %
664 04-03-2020 14:38:18 10.1 C 26 %
665 04-03-2020 14:48:18 9.5 C 28 %
666 04-03-2020 14:58:18 9 C 28 %
667 04-03-2020 15:08:18 9.4 C 28 %
668 04-03-2020 15:18:18 9.5 C 28 %
669 04-03-2020 15:28:18 9.7 C 27 %
670 04-03-2020 15:38:18 9.4 C 29 %
671 04-03-2020 15:48:17 9.5 C 28 %
672 04-03-2020 15:58:18 10.6 C 26 %
673 04-03-2020 16:08:17 10.1 C 26 %
674 04-03-2020 16:18:17 10.9 C 26 %
675 04-03-2020 16:28:17 10 C 26 %
Sensor: Nr:Datum:Temp:Feuchte:
Aussen-T/F 676 04-03-2020 16:38:17 10.9 C 26 %
677 04-03-2020 16:48:17 11 C 25 %
678 04-03-2020 16:58:17 11.5 C 25 %
679 04-03-2020 17:08:17 10.6 C 25 %
680 04-03-2020 17:18:17 8.8 C 27 %
681 04-03-2020 17:28:18 8 C 29 %
682 04-03-2020 17:38:18 7.3 C 32 %
683 04-03-2020 17:48:17 6.4 C 35 %
684 04-03-2020 17:58:17 5.7 C 36 %
685 04-03-2020 18:08:17 5.2 C 37 %
686 04-03-2020 18:18:17 4.8 C 38 %
687 04-03-2020 18:28:17 4.7 C 39 %
688 04-03-2020 18:38:17 4.5 C 39 %
689 04-03-2020 18:48:17 4.3 C 39 %
690 04-03-2020 18:58:17 4 C 39 %
691 04-03-2020 19:08:17 3.9 C 40 %
692 04-03-2020 19:18:17 4 C 40 %
693 04-03-2020 19:28:17 4.1 C 40 %
694 04-03-2020 19:38:17 4.1 C 40 %
695 04-03-2020 19:48:18 4 C 40 %
696 04-03-2020 19:58:18 3.7 C 41 %
697 04-03-2020 20:08:17 3.8 C 41 %
698 04-03-2020 20:18:17 3.7 C 41 %
699 04-03-2020 20:28:17 3.4 C 41 %
700 04-03-2020 20:38:17 3.1 C 42 %
Sensor: Nr:Datum:Temp:Feuchte:
Aussen-T/F 701 04-03-2020 20:48:18 3.1 C 42 %
702 04-03-2020 20:58:18 2.9 C 43 %
703 04-03-2020 21:08:18 3.3 C 42 %
704 04-03-2020 21:18:18 3 C 42 %
705 04-03-2020 21:28:18 3.1 C 42 %
706 04-03-2020 21:38:18 3.3 C 42 %
707 04-03-2020 21:48:18 3.1 C 42 %
708 04-03-2020 21:58:18 3.1 C 42 %
709 04-03-2020 22:08:18 2.6 C 44 %
710 04-03-2020 22:18:17 2.5 C 45 %
711 04-03-2020 22:28:17 2.4 C 45 %
712 04-03-2020 22:38:17 2.9 C 46 %
713 04-03-2020 22:48:17 2.9 C 46 %
714 04-03-2020 22:58:17 3.2 C 45 %
715 04-03-2020 23:08:17 3.3 C 43 %
716 04-03-2020 23:18:17 3.6 C 43 %
717 04-03-2020 23:28:18 3.5 C 43 %
718 04-03-2020 23:38:18 3.6 C 43 %
719 04-03-2020 23:48:18 3.7 C 45 %
720 04-03-2020 23:58:18 3.6 C 45 %
721 05-03-2020 00:08:18 3.6 C 46 %
722 05-03-2020 00:18:18 3.6 C 46 %
723 05-03-2020 00:28:18 3.8 C 47 %
724 05-03-2020 00:38:17 3.8 C 47 %
725 05-03-2020 00:48:17 3.6 C 47 %
Sensor: Nr:Datum:Temp:Feuchte:
Aussen-T/F 726 05-03-2020 00:58:17 3.5 C 47 %
727 05-03-2020 01:08:17 3.5 C 47 %
728 05-03-2020 01:18:17 3.5 C 47 %
729 05-03-2020 01:28:17 3.4 C 47 %
730 05-03-2020 01:38:17 3.4 C 47 %
731 05-03-2020 01:48:18 3.5 C 47 %
732 05-03-2020 01:58:18 3.5 C 47 %
733 05-03-2020 02:08:18 3.6 C 46 %
734 05-03-2020 02:18:18 3.7 C 46 %
735 05-03-2020 02:28:18 3.7 C 45 %
736 05-03-2020 02:38:18 3.7 C 44 %
737 05-03-2020 02:48:18 3.9 C 43 %
738 05-03-2020 02:58:18 3.9 C 43 %
739 05-03-2020 03:08:18 4 C 42 %
740 05-03-2020 03:18:17 4.1 C 42 %
741 05-03-2020 03:28:17 4 C 41 %
742 05-03-2020 03:38:17 4.1 C 41 %
743 05-03-2020 03:48:17 4 C 42 %
744 05-03-2020 03:58:17 3.8 C 43 %
745 05-03-2020 04:08:17 3.8 C 44 %
746 05-03-2020 04:18:17 3.9 C 44 %
747 05-03-2020 04:28:18 3.9 C 43 %
748 05-03-2020 04:38:18 3.9 C 43 %
749 05-03-2020 04:48:17 3.8 C 43 %
750 05-03-2020 04:58:18 3.8 C 43 %
Sensor: Nr:Datum:Temp:Feuchte:
Aussen-T/F 751 05-03-2020 05:08:18 3.9 C 44 %
752 05-03-2020 05:18:18 3.9 C 44 %
753 05-03-2020 05:28:18 3.8 C 44 %
754 05-03-2020 05:38:18 3.9 C 44 %
755 05-03-2020 05:48:17 3.7 C 44 %
756 05-03-2020 05:58:18 3.9 C 44 %
757 05-03-2020 06:08:18 4 C 43 %
758 05-03-2020 06:18:18 3.9 C 43 %
759 05-03-2020 06:28:18 4 C 42 %
760 05-03-2020 06:38:18 4 C 42 %
761 05-03-2020 06:48:17 4.1 C 42 %
762 05-03-2020 06:58:17 4.1 C 42 %
763 05-03-2020 07:08:18 4.2 C 42 %
764 05-03-2020 07:18:17 4.3 C 42 %
765 05-03-2020 07:28:18 4.4 C 42 %
766 05-03-2020 07:38:18 4.5 C 41 %
767 05-03-2020 07:48:17 4.7 C 41 %
768 05-03-2020 07:58:17 4.8 C 41 %
769 05-03-2020 08:08:18 4.7 C 41 %
770 05-03-2020 08:18:18 4.8 C 41 %
771 05-03-2020 08:28:18 4.8 C 41 %
772 05-03-2020 08:38:17 5.1 C 40 %
773 05-03-2020 08:48:17 5.3 C 40 %
774 05-03-2020 08:58:17 5.4 C 40 %
775 05-03-2020 09:08:17 5.9 C 40 %
Sensor: Nr:Datum:Temp:Feuchte:
Aussen-T/F 776 05-03-2020 09:18:17 6.1 C 38 %
777 05-03-2020 09:28:17 6.4 C 38 %
778 05-03-2020 09:38:17 6.4 C 38 %
779 05-03-2020 09:48:17 6.6 C 38 %
780 05-03-2020 09:58:17 6.6 C 38 %
781 05-03-2020 10:08:18 6.9 C 38 %
782 05-03-2020 10:18:17 6.4 C 38 %
783 05-03-2020 10:28:17 6.3 C 38 %
784 05-03-2020 10:38:18 6.2 C 38 %
785 05-03-2020 10:48:18 6.3 C 39 %
786 05-03-2020 10:58:18 6.7 C 38 %
787 05-03-2020 11:08:17 7 C 38 %
788 05-03-2020 11:18:17 7.1 C 37 %
789 05-03-2020 11:28:17 7.3 C 37 %
790 05-03-2020 11:38:18 7.7 C 37 %
791 05-03-2020 11:48:18 7.8 C 37 %
792 05-03-2020 11:58:18 7.4 C 37 %
793 05-03-2020 12:08:17 7.5 C 37 %
794 05-03-2020 12:18:17 7.5 C 37 %
795 05-03-2020 12:28:18 6.9 C 38 %
796 05-03-2020 12:38:18 7.1 C 38 %
797 05-03-2020 12:48:17 7 C 39 %
798 05-03-2020 12:58:17 6.8 C 40 %
799 05-03-2020 13:08:17 6.8 C 41 %
800 05-03-2020 13:18:17 6.9 C 41 %
Sensor: Nr:Datum:Temp:Feuchte:
Aussen-T/F 801 05-03-2020 13:28:17 6.9 C 41 %
802 05-03-2020 13:38:17 7 C 41 %
803 05-03-2020 13:48:17 6.6 C 42 %
804 05-03-2020 13:58:17 6.4 C 42 %
805 05-03-2020 14:08:17 6.4 C 43 %
806 05-03-2020 14:18:17 6.4 C 43 %
807 05-03-2020 14:28:17 6.3 C 42 %
808 05-03-2020 14:38:17 6.3 C 43 %
809 05-03-2020 14:48:18 6.3 C 44 %
810 05-03-2020 14:58:18 6.3 C 44 %
811 05-03-2020 15:08:18 6.3 C 45 %
812 05-03-2020 15:18:18 6.3 C 45 %
813 05-03-2020 15:28:18 6.3 C 45 %
814 05-03-2020 15:38:18 6.4 C 45 %
815 05-03-2020 15:48:17 6.5 C 45 %
816 05-03-2020 15:58:17 6.7 C 45 %
817 05-03-2020 16:08:17 6.7 C 44 %
818 05-03-2020 16:18:17 6.7 C 43 %
819 05-03-2020 16:28:17 6.5 C 43 %
820 05-03-2020 16:38:17 6.4 C 43 %
821 05-03-2020 16:48:18 6.3 C 44 %
822 05-03-2020 16:58:18 6.2 C 45 %
823 05-03-2020 17:08:17 6.1 C 45 %
824 05-03-2020 17:18:17 6 C 45 %
825 05-03-2020 17:28:17 6 C 45 %
Sensor: Nr:Datum:Temp:Feuchte:
Aussen-T/F 826 05-03-2020 17:38:17 5.9 C 46 %
827 05-03-2020 17:48:17 5.9 C 46 %
828 05-03-2020 17:58:17 5.9 C 46 %
829 05-03-2020 18:08:18 5.8 C 46 %
830 05-03-2020 18:18:17 5.9 C 46 %
831 05-03-2020 18:28:17 5.8 C 46 %
832 05-03-2020 18:38:17 5.7 C 46 %
833 05-03-2020 18:48:17 5.7 C 46 %
834 05-03-2020 18:58:17 5.7 C 46 %
835 05-03-2020 19:08:18 5.7 C 46 %
836 05-03-2020 19:18:17 5.6 C 46 %
837 05-03-2020 19:28:17 5.5 C 46 %
838 05-03-2020 19:38:17 5.5 C 46 %
839 05-03-2020 19:48:18 5.7 C 46 %
840 05-03-2020 19:58:18 5.7 C 46 %
841 05-03-2020 20:08:17 5.8 C 45 %
842 05-03-2020 20:18:17 5.9 C 45 %
843 05-03-2020 20:28:17 6.1 C 45 %
844 05-03-2020 20:38:18 6.1 C 45 %
845 05-03-2020 20:48:17 6 C 45 %
846 05-03-2020 20:58:17 6 C 45 %
847 05-03-2020 21:08:18 6.1 C 45 %
848 05-03-2020 21:18:17 6.1 C 45 %
849 05-03-2020 21:28:17 6.1 C 45 %
850 05-03-2020 21:38:17 6.1 C 45 %
Sensor: Nr:Datum:Temp:Feuchte:
Aussen-T/F 851 05-03-2020 21:48:17 6 C 45 %
852 05-03-2020 21:58:17 6.1 C 45 %
853 05-03-2020 22:08:17 6 C 45 %
854 05-03-2020 22:18:17 6.2 C 45 %
855 05-03-2020 22:28:17 6.1 C 45 %
856 05-03-2020 22:38:18 6 C 45 %
857 05-03-2020 22:48:17 6.1 C 45 %
858 05-03-2020 22:58:17 6 C 45 %
859 05-03-2020 23:08:17 6.2 C 45 %
860 05-03-2020 23:18:17 6.1 C 45 %
861 05-03-2020 23:28:18 6.1 C 45 %
862 05-03-2020 23:38:18 6.1 C 45 %
863 05-03-2020 23:48:18 6.1 C 45 %
864 05-03-2020 23:58:18 6.1 C 44 %
865 06-03-2020 00:08:17 6.1 C 44 %
866 06-03-2020 00:18:17 6.2 C 44 %
867 06-03-2020 00:28:18 6.2 C 44 %
868 06-03-2020 00:38:18 6.2 C 44 %
869 06-03-2020 00:48:17 6.3 C 44 %
870 06-03-2020 00:58:17 6.4 C 44 %
871 06-03-2020 01:08:18 6.6 C 44 %
872 06-03-2020 01:18:17 6.7 C 44 %
873 06-03-2020 01:28:17 7 C 43 %
874 06-03-2020 01:38:18 7.1 C 43 %
875 06-03-2020 01:48:17 7.3 C 40 %
Sensor: Nr:Datum:Temp:Feuchte:
Aussen-T/F 876 06-03-2020 01:58:18 6.9 C 40 %
877 06-03-2020 02:08:18 6.9 C 40 %
878 06-03-2020 02:18:18 6.9 C 40 %
879 06-03-2020 02:28:18 6.5 C 40 %
880 06-03-2020 02:38:17 6.4 C 41 %
881 06-03-2020 02:48:17 6.4 C 40 %
882 06-03-2020 02:58:17 6.4 C 40 %
883 06-03-2020 03:08:17 6.2 C 40 %
884 06-03-2020 03:18:18 6.2 C 40 %
885 06-03-2020 03:28:18 6.4 C 40 %
886 06-03-2020 03:38:18 6 C 40 %
887 06-03-2020 03:48:17 5.8 C 41 %
888 06-03-2020 03:58:18 5.6 C 43 %
889 06-03-2020 04:08:17 5.5 C 44 %
890 06-03-2020 04:18:17 5.4 C 45 %
891 06-03-2020 04:28:17 5.5 C 45 %
892 06-03-2020 04:38:18 5.4 C 45 %
893 06-03-2020 04:48:17 5.4 C 46 %
894 06-03-2020 04:58:18 5.5 C 45 %
895 06-03-2020 05:08:18 5.6 C 44 %
896 06-03-2020 05:18:18 5.6 C 44 %
897 06-03-2020 05:28:18 5.6 C 45 %
898 06-03-2020 05:38:18 5.8 C 44 %
899 06-03-2020 05:48:17 5.8 C 44 %
900 06-03-2020 05:58:17 5.8 C 44 %
Sensor: Nr:Datum:Temp:Feuchte:
Aussen-T/F 901 06-03-2020 06:08:17 5.8 C 45 %
902 06-03-2020 06:18:17 5.8 C 45 %
903 06-03-2020 06:28:17 5.9 C 45 %
904 06-03-2020 06:38:18 6 C 44 %
905 06-03-2020 06:48:17 6 C 44 %
906 06-03-2020 06:58:17 6.1 C 45 %
907 06-03-2020 07:08:17 6 C 45 %
908 06-03-2020 07:18:18 6 C 45 %
909 06-03-2020 07:28:18 6 C 45 %
910 06-03-2020 07:38:18 6 C 45 %
911 06-03-2020 07:48:17 5.9 C 45 %
912 06-03-2020 07:58:18 5.6 C 43 %
913 06-03-2020 08:08:17 5.3 C 42 %
914 06-03-2020 08:18:17 5 C 41 %
915 06-03-2020 08:28:17 4.9 C 42 %
916 06-03-2020 08:38:17 4.9 C 43 %
917 06-03-2020 08:48:18 4.8 C 44 %
918 06-03-2020 08:58:18 4.8 C 44 %
919 06-03-2020 09:08:17 4.9 C 44 %
920 06-03-2020 09:18:17 4.9 C 43 %
921 06-03-2020 09:28:17 4.9 C 42 %
922 06-03-2020 09:38:18 4.8 C 42 %
923 06-03-2020 09:48:18 4.9 C 42 %
924 06-03-2020 09:58:18 4.8 C 41 %
925 06-03-2020 10:08:18 4.9 C 41 %
Sensor: Nr:Datum:Temp:Feuchte:
Aussen-T/F 926 06-03-2020 10:18:18 4.7 C 42 %
927 06-03-2020 10:28:18 4.7 C 41 %
928 06-03-2020 10:38:18 4.7 C 41 %
929 06-03-2020 10:48:17 4.8 C 41 %
930 06-03-2020 10:58:18 4.9 C 41 %
931 06-03-2020 11:08:18 5 C 40 %
932 06-03-2020 11:18:18 5.2 C 40 %
933 06-03-2020 11:28:18 5.3 C 40 %
934 06-03-2020 11:38:18 5.1 C 40 %
935 06-03-2020 11:48:17 4.9 C 41 %
936 06-03-2020 11:58:17 4.7 C 41 %
937 06-03-2020 12:08:17 4.6 C 41 %
938 06-03-2020 12:18:17 4.5 C 41 %
939 06-03-2020 12:28:17 4.6 C 41 %
940 06-03-2020 12:38:18 4.4 C 41 %
941 06-03-2020 12:48:18 4.6 C 41 %
942 06-03-2020 12:58:18 4.5 C 41 %
943 06-03-2020 13:08:18 4.7 C 41 %
944 06-03-2020 13:18:18 5 C 40 %
945 06-03-2020 13:28:18 5.1 C 40 %
946 06-03-2020 13:38:17 5.3 C 40 %
947 06-03-2020 13:48:17 5.1 C 40 %
948 06-03-2020 13:58:17 5 C 40 %
949 06-03-2020 14:08:17 4.8 C 41 %
950 06-03-2020 14:18:17 4.8 C 41 %
Sensor: Nr:Datum:Temp:Feuchte:
Aussen-T/F 951 06-03-2020 14:28:17 4.8 C 41 %
952 06-03-2020 14:38:17 5 C 40 %
953 06-03-2020 14:48:17 5.3 C 40 %
954 06-03-2020 14:58:17 5.3 C 40 %
955 06-03-2020 15:08:17 5.4 C 39 %
956 06-03-2020 15:18:17 5.6 C 39 %
957 06-03-2020 15:28:17 5.8 C 39 %
958 06-03-2020 15:38:18 5.9 C 38 %
959 06-03-2020 15:48:17 5.8 C 38 %
960 06-03-2020 15:58:17 6 C 37 %
961 06-03-2020 16:08:17 6.1 C 37 %
962 06-03-2020 16:18:18 6.1 C 37 %
963 06-03-2020 16:28:18 6.1 C 37 %
964 06-03-2020 16:38:18 6.1 C 38 %
965 06-03-2020 16:48:17 6 C 38 %
966 06-03-2020 16:58:17 6.3 C 38 %
967 06-03-2020 17:08:18 6.5 C 38 %
968 06-03-2020 17:18:18 6.9 C 37 %
969 06-03-2020 17:28:18 6.8 C 37 %
970 06-03-2020 17:38:18 6.8 C 37 %
971 06-03-2020 17:48:17 6.9 C 37 %
972 06-03-2020 17:58:18 6.7 C 37 %
973 06-03-2020 18:08:18 6.8 C 37 %
974 06-03-2020 18:18:18 6.6 C 37 %
975 06-03-2020 18:28:18 5.9 C 38 %
Sensor: Nr:Datum:Temp:Feuchte:
Aussen-T/F 976 06-03-2020 18:38:18 6 C 37 %
977 06-03-2020 18:48:17 6.5 C 37 %
978 06-03-2020 18:58:18 6.4 C 37 %
979 06-03-2020 19:08:18 6.5 C 37 %
980 06-03-2020 19:18:18 6.3 C 37 %
981 06-03-2020 19:28:18 6.2 C 37 %
982 06-03-2020 19:38:18 6.3 C 37 %
983 06-03-2020 19:48:17 6.3 C 37 %
984 06-03-2020 19:58:17 6.2 C 36 %
985 06-03-2020 20:08:18 6.2 C 36 %
986 06-03-2020 20:18:18 5.9 C 37 %
987 06-03-2020 20:28:18 5.7 C 37 %
988 06-03-2020 20:38:18 5.5 C 38 %
989 06-03-2020 20:48:17 5.4 C 38 %
990 06-03-2020 20:58:17 5.2 C 38 %
991 06-03-2020 21:08:17 5.3 C 38 %
992 06-03-2020 21:18:18 5.1 C 38 %
993 06-03-2020 21:28:18 5.2 C 38 %
994 06-03-2020 21:38:18 5.2 C 37 %
995 06-03-2020 21:48:17 4.9 C 38 %
996 06-03-2020 21:58:18 4.7 C 39 %
997 06-03-2020 22:08:17 4.8 C 39 %
998 06-03-2020 22:18:17 5.1 C 38 %
999 06-03-2020 22:28:18 5 C 38 %
1000 06-03-2020 22:38:18 5.2 C 38 %
Sensor: Nr:Datum:Temp:Feuchte:
Aussen-T/F 1001 06-03-2020 22:48:17 5.3 C 38 %
1002 06-03-2020 22:58:17 5.3 C 38 %
1003 06-03-2020 23:08:18 5.2 C 38 %
1004 06-03-2020 23:18:18 5.3 C 38 %
1005 06-03-2020 23:28:18 5.2 C 37 %
1006 06-03-2020 23:38:17 5.3 C 37 %
1007 06-03-2020 23:48:17 5.3 C 37 %
1008 06-03-2020 23:58:17 5.1 C 38 %
1009 07-03-2020 00:08:17 5.1 C 37 %
1010 07-03-2020 00:18:18 5.1 C 37 %
1011 07-03-2020 00:28:18 5.1 C 37 %
1012 07-03-2020 00:38:17 5.1 C 37 %
1013 07-03-2020 00:48:17 5.1 C 37 %
1014 07-03-2020 00:58:17 5 C 37 %
1015 07-03-2020 01:08:17 5.1 C 38 %
1016 07-03-2020 01:18:17 5.1 C 38 %
1017 07-03-2020 01:28:17 5.1 C 38 %
1018 07-03-2020 01:38:18 5.3 C 37 %
1019 07-03-2020 01:48:18 5.2 C 38 %
1020 07-03-2020 01:58:18 5.2 C 38 %
1021 07-03-2020 02:08:18 5.2 C 38 %
1022 07-03-2020 02:18:17 5.3 C 38 %
1023 07-03-2020 02:28:17 5.1 C 38 %
1024 07-03-2020 02:38:17 5.1 C 38 %
1025 07-03-2020 02:48:18 5.1 C 38 %
Sensor: Nr:Datum:Temp:Feuchte:
Aussen-T/F 1026 07-03-2020 02:58:18 5.1 C 38 %
1027 07-03-2020 03:08:18 4.9 C 39 %
1028 07-03-2020 03:18:17 4.7 C 40 %
1029 07-03-2020 03:28:17 4.6 C 40 %
1030 07-03-2020 03:38:17 4.7 C 40 %
1031 07-03-2020 03:48:17 4.7 C 39 %
1032 07-03-2020 03:58:17 4.6 C 40 %
1033 07-03-2020 04:08:18 4.6 C 40 %
1034 07-03-2020 04:18:17 4.7 C 40 %
1035 07-03-2020 04:28:17 4.8 C 39 %
1036 07-03-2020 04:38:18 4.7 C 39 %
1037 07-03-2020 04:48:17 4.7 C 39 %
1038 07-03-2020 04:58:18 4.7 C 39 %
1039 07-03-2020 05:08:18 4.6 C 39 %
1040 07-03-2020 05:18:18 4.6 C 39 %
1041 07-03-2020 05:28:18 4.6 C 39 %
1042 07-03-2020 05:38:18 4.6 C 39 %
1043 07-03-2020 05:48:18 4.5 C 39 %
1044 07-03-2020 05:58:18 4.5 C 39 %
1045 07-03-2020 06:08:17 4.6 C 39 %
1046 07-03-2020 06:18:17 4.6 C 40 %
1047 07-03-2020 06:28:17 4.6 C 39 %
1048 07-03-2020 06:38:18 4.5 C 39 %
1049 07-03-2020 06:48:17 4.5 C 39 %
1050 07-03-2020 06:58:17 4.5 C 39 %
Sensor: Nr:Datum:Temp:Feuchte:
Aussen-T/F 1051 07-03-2020 07:08:18 4.5 C 39 %
1052 07-03-2020 07:18:18 4.4 C 39 %
1053 07-03-2020 07:28:18 4.4 C 39 %
1054 07-03-2020 07:38:18 4.3 C 40 %
1055 07-03-2020 07:48:17 4 C 40 %
1056 07-03-2020 07:58:17 3.7 C 42 %
1057 07-03-2020 08:08:18 3.7 C 45 %
1058 07-03-2020 08:18:17 3.7 C 44 %
1059 07-03-2020 08:28:17 3.9 C 43 %
1060 07-03-2020 08:38:17 4 C 42 %
1061 07-03-2020 08:48:17 4.4 C 41 %
1062 07-03-2020 08:58:17 4.7 C 40 %
1063 07-03-2020 09:08:17 5.1 C 38 %
1064 07-03-2020 09:18:17 5.3 C 37 %
1065 07-03-2020 09:28:17 5.6 C 37 %
1066 07-03-2020 09:38:17 5.7 C 36 %
1067 07-03-2020 09:48:17 6.3 C 36 %
1068 07-03-2020 09:58:17 6.5 C 35 %
1069 07-03-2020 10:08:17 6.1 C 35 %
1070 07-03-2020 10:18:17 5.7 C 36 %
1071 07-03-2020 10:28:17 6.5 C 36 %
1072 07-03-2020 10:38:17 6.4 C 35 %
1073 07-03-2020 10:48:18 7 C 35 %
1074 07-03-2020 10:58:18 7.3 C 35 %
1075 07-03-2020 11:08:18 7.3 C 34 %
Sensor: Nr:Datum:Temp:Feuchte:
Aussen-T/F 1076 07-03-2020 11:18:18 7.8 C 32 %
1077 07-03-2020 11:28:18 7.6 C 31 %
1078 07-03-2020 11:38:18 7.8 C 30 %
1079 07-03-2020 11:48:17 9.7 C 25 %
1080 07-03-2020 11:58:18 7.6 C 29 %
1081 07-03-2020 12:08:18 7.6 C 29 %
1082 07-03-2020 12:18:18 7.8 C 29 %
1083 07-03-2020 12:28:18 7.8 C 30 %
1084 07-03-2020 12:38:17 8.2 C 30 %
1085 07-03-2020 12:48:18 7.5 C 28 %
1086 07-03-2020 12:58:18 8 C 27 %
1087 07-03-2020 13:08:17 9.5 C 26 %
1088 07-03-2020 13:18:18 9.1 C 21 %
1089 07-03-2020 13:28:18 9.1 C 25 %
1090 07-03-2020 13:38:18 8.8 C 26 %
1091 07-03-2020 13:48:18 9.1 C 26 %
1092 07-03-2020 13:58:18 10 C 25 %
1093 07-03-2020 14:08:17 8.9 C 26 %
1094 07-03-2020 14:18:17 10.5 C 20 %
1095 07-03-2020 14:28:17 10.1 C 20 %
1096 07-03-2020 14:38:18 9.8 C 20 %
1097 07-03-2020 14:48:17 11.6 C 20 %
1098 07-03-2020 14:58:18 11.5 C 20 %
1099 07-03-2020 15:08:18 12.4 C 20 %
1100 07-03-2020 15:18:18 11.1 C 20 %
Sensor: Nr:Datum:Temp:Feuchte:
Aussen-T/F 1101 07-03-2020 15:28:18 9.8 C 20 %
1102 07-03-2020 15:38:17 12.4 C 20 %
1103 07-03-2020 15:48:18 10.8 C 20 %
1104 07-03-2020 15:58:18 9.5 C 20 %
1105 07-03-2020 16:08:17 11.7 C 20 %
1106 07-03-2020 16:18:17 10.4 C 20 %
1107 07-03-2020 16:28:17 9.6 C 20 %
1108 07-03-2020 16:38:17 9.1 C 20 %
1109 07-03-2020 16:48:18 8.9 C 20 %
1110 07-03-2020 16:58:18 8.8 C 20 %
1111 07-03-2020 17:08:18 8.8 C 20 %
1112 07-03-2020 17:18:18 8.5 C 20 %
1113 07-03-2020 17:28:18 8.5 C 20 %
1114 07-03-2020 17:38:18 8.6 C 25 %
1115 07-03-2020 17:48:18 8.4 C 25 %
1116 07-03-2020 17:58:18 7.1 C 31 %
1117 07-03-2020 18:08:17 6.7 C 31 %
1118 07-03-2020 18:19:17 6.3 C 33 %
1119 07-03-2020 18:28:17 5.7 C 34 %
1120 07-03-2020 18:38:18 5.2 C 35 %
1121 07-03-2020 18:48:18 4.9 C 36 %
1122 07-03-2020 18:58:18 5 C 35 %
1123 07-03-2020 19:08:17 4.9 C 36 %
1124 07-03-2020 19:18:17 4.7 C 36 %
1125 07-03-2020 19:28:17 4.4 C 37 %
Sensor: Nr:Datum:Temp:Feuchte:
Aussen-T/F 1126 07-03-2020 19:38:17 4.5 C 37 %
1127 07-03-2020 19:48:18 4.7 C 37 %
1128 07-03-2020 19:58:18 4.5 C 37 %
1129 07-03-2020 20:08:18 4.2 C 38 %
1130 07-03-2020 20:18:17 4.4 C 38 %
1131 07-03-2020 20:28:17 4.6 C 39 %
1132 07-03-2020 20:38:17 4.6 C 38 %
1133 07-03-2020 20:49:17 4.5 C 38 %
1134 07-03-2020 20:59:17 4.5 C 38 %
1135 07-03-2020 21:09:17 4.5 C 39 %
1136 07-03-2020 21:18:17 4.5 C 39 %
1137 07-03-2020 21:28:17 4.7 C 39 %
1138 07-03-2020 21:38:17 4.7 C 38 %
1139 07-03-2020 21:48:18 5.1 C 37 %
1140 07-03-2020 21:58:18 5.1 C 37 %
1141 07-03-2020 22:08:17 5.3 C 37 %
1142 07-03-2020 22:18:18 5.5 C 36 %
1143 07-03-2020 22:28:18 5.6 C 36 %
1144 07-03-2020 22:38:17 5.5 C 36 %
1145 07-03-2020 22:49:17 5.5 C 36 %
1146 07-03-2020 22:59:17 5.8 C 36 %
1147 07-03-2020 23:09:17 6.2 C 35 %
1148 07-03-2020 23:19:17 6.3 C 35 %
1149 07-03-2020 23:29:17 6.4 C 35 %
1150 07-03-2020 23:38:17 6.4 C 34 %
Sensor: Nr:Datum:Temp:Feuchte:
Aussen-T/F 1151 07-03-2020 23:48:18 6.4 C 34 %
1152 07-03-2020 23:58:18 6.5 C 34 %
1153 08-03-2020 00:08:18 6.5 C 35 %
1154 08-03-2020 00:18:18 6.4 C 35 %
1155 08-03-2020 00:28:18 6.8 C 35 %
1156 08-03-2020 00:38:18 6.7 C 35 %
1157 08-03-2020 00:48:18 7 C 34 %
1158 08-03-2020 00:58:18 7.1 C 35 %
1159 08-03-2020 01:08:17 7.1 C 34 %
1160 08-03-2020 01:18:17 6.8 C 35 %
1161 08-03-2020 01:28:17 6.9 C 35 %
1162 08-03-2020 01:38:17 6.7 C 35 %
1163 08-03-2020 01:49:17 6.9 C 35 %
1164 08-03-2020 01:59:17 6.7 C 35 %
1165 08-03-2020 02:09:17 6.8 C 35 %
1166 08-03-2020 02:19:17 7 C 35 %
1167 08-03-2020 02:29:17 6.9 C 35 %
1168 08-03-2020 02:38:17 7.3 C 35 %
1169 08-03-2020 02:48:17 7.2 C 35 %
1170 08-03-2020 02:58:17 7 C 35 %
1171 08-03-2020 03:08:18 7.1 C 35 %
1172 08-03-2020 03:19:17 6.7 C 35 %
1173 08-03-2020 03:29:17 6.4 C 36 %
1174 08-03-2020 03:39:17 6.5 C 36 %
1175 08-03-2020 03:48:18 6.6 C 36 %
Sensor: Nr:Datum:Temp:Feuchte:
Aussen-T/F 1176 08-03-2020 03:58:18 6.8 C 35 %
1177 08-03-2020 04:08:18 7 C 35 %
1178 08-03-2020 04:19:17 7.1 C 35 %
1179 08-03-2020 04:29:17 7 C 35 %
1180 08-03-2020 04:39:17 7 C 35 %
1181 08-03-2020 04:49:17 6.8 C 35 %
1182 08-03-2020 04:59:17 6.9 C 35 %
1183 08-03-2020 05:09:17 7 C 35 %
1184 08-03-2020 05:19:17 6.8 C 35 %
1185 08-03-2020 05:29:17 6.5 C 35 %
1186 08-03-2020 05:39:17 6.8 C 35 %
1187 08-03-2020 05:49:17 6.6 C 35 %
1188 08-03-2020 05:59:17 6.4 C 35 %
1189 08-03-2020 06:09:17 6.4 C 35 %
1190 08-03-2020 06:19:17 5.9 C 37 %
1191 08-03-2020 06:29:18 6.3 C 36 %
1192 08-03-2020 06:39:18 6.6 C 36 %
1193 08-03-2020 06:49:17 6.9 C 36 %
1194 08-03-2020 06:59:17 7.3 C 35 %
1195 08-03-2020 07:09:17 7.4 C 35 %
1196 08-03-2020 07:19:17 7.7 C 35 %
1197 08-03-2020 07:29:17 7.8 C 35 %
1198 08-03-2020 07:39:17 7.9 C 35 %
1199 08-03-2020 07:49:17 8 C 35 %
1200 08-03-2020 07:59:17 8.2 C 34 %
Sensor: Nr:Datum:Temp:Feuchte:
Aussen-T/F 1201 08-03-2020 08:09:17 8.2 C 34 %
1202 08-03-2020 08:19:17 8.4 C 34 %
1203 08-03-2020 08:29:17 8.6 C 34 %
1204 08-03-2020 08:39:17 8.5 C 35 %
1205 08-03-2020 08:49:17 8.6 C 34 %
1206 08-03-2020 08:59:17 8.6 C 34 %
1207 08-03-2020 09:09:17 8.6 C 34 %
1208 08-03-2020 09:19:17 8.8 C 34 %
1209 08-03-2020 09:29:18 9.2 C 33 %
1210 08-03-2020 09:39:17 9.6 C 33 %
1211 08-03-2020 09:49:17 10.3 C 32 %
1212 08-03-2020 09:59:17 10.2 C 32 %
1213 08-03-2020 10:09:17 9.9 C 33 %
1214 08-03-2020 10:19:17 10.1 C 32 %
1215 08-03-2020 10:29:17 10.1 C 32 %
1216 08-03-2020 10:39:17 11.4 C 30 %
1217 08-03-2020 10:49:17 11.2 C 30 %
1218 08-03-2020 10:59:18 11.9 C 30 %
1219 08-03-2020 11:09:17 11.9 C 28 %
1220 08-03-2020 11:19:16 11.9 C 29 %
1221 08-03-2020 11:29:16 12.1 C 27 %
1222 08-03-2020 11:39:17 12.5 C 26 %
1223 08-03-2020 11:49:16 12.5 C 26 %
1224 08-03-2020 11:59:16 13.4 C 25 %
1225 08-03-2020 12:09:17 12.8 C 25 %
Sensor: Nr:Datum:Temp:Feuchte:
Aussen-T/F 1226 08-03-2020 12:19:17 13.1 C 25 %
1227 08-03-2020 12:29:17 13.5 C 23 %
1228 08-03-2020 12:39:17 13.2 C 24 %
1229 08-03-2020 12:49:17 14.1 C 22 %
1230 08-03-2020 12:59:18 13.2 C 22 %
1231 08-03-2020 13:09:17 12.2 C 25 %
1232 08-03-2020 13:19:16 12.3 C 25 %
1233 08-03-2020 13:29:16 12.3 C 25 %
1234 08-03-2020 13:39:16 12.7 C 25 %
1235 08-03-2020 13:49:17 12.7 C 25 %
1236 08-03-2020 13:59:17 12.5 C 25 %
1237 08-03-2020 14:09:17 13 C 23 %
1238 08-03-2020 14:19:16 12.8 C 25 %
1239 08-03-2020 14:29:16 12.5 C 25 %
1240 08-03-2020 14:39:16 12.8 C 25 %
1241 08-03-2020 14:49:16 12.7 C 25 %
1242 08-03-2020 14:59:16 12.3 C 25 %
1243 08-03-2020 15:09:16 12.8 C 25 %
1244 08-03-2020 15:19:17 12.5 C 25 %
1245 08-03-2020 15:29:17 12.5 C 25 %
1246 08-03-2020 15:39:17 12.1 C 25 %
1247 08-03-2020 15:49:17 12 C 25 %
1248 08-03-2020 15:59:17 12.1 C 25 %
1249 08-03-2020 16:09:17 12.5 C 25 %
1250 08-03-2020 16:19:17 12.4 C 25 %
Sensor: Nr:Datum:Temp:Feuchte:
Aussen-T/F 1251 08-03-2020 16:29:17 12.1 C 25 %
1252 08-03-2020 16:39:17 12.2 C 26 %
1253 08-03-2020 16:49:17 12.2 C 26 %
1254 08-03-2020 16:59:17 12 C 26 %
1255 08-03-2020 17:09:17 12.6 C 25 %
1256 08-03-2020 17:19:17 12.4 C 26 %
1257 08-03-2020 17:29:17 12.3 C 26 %
1258 08-03-2020 17:39:17 12 C 26 %
1259 08-03-2020 17:49:16 11.5 C 28 %
1260 08-03-2020 17:59:16 11.4 C 29 %
1261 08-03-2020 18:09:17 11.1 C 30 %
1262 08-03-2020 18:19:17 10.9 C 31 %
1263 08-03-2020 18:29:18 10.7 C 31 %
1264 08-03-2020 18:39:17 10.4 C 32 %
1265 08-03-2020 18:49:16 10.2 C 32 %
1266 08-03-2020 18:59:16 9.6 C 35 %
1267 08-03-2020 19:09:17 9.9 C 35 %
1268 08-03-2020 19:19:16 9.8 C 35 %
1269 08-03-2020 19:29:16 9.6 C 36 %
1270 08-03-2020 19:39:17 9.4 C 36 %
1271 08-03-2020 19:49:16 9.5 C 36 %
1272 08-03-2020 19:59:16 9.5 C 36 %
1273 08-03-2020 20:09:16 9.4 C 36 %
1274 08-03-2020 20:19:16 9.3 C 36 %
1275 08-03-2020 20:29:16 9.3 C 37 %
Sensor: Nr:Datum:Temp:Feuchte:
Aussen-T/F 1276 08-03-2020 20:39:17 9.2 C 37 %
1277 08-03-2020 20:49:16 9.2 C 37 %
1278 08-03-2020 20:59:16 9 C 37 %
1279 08-03-2020 21:09:17 9 C 37 %
1280 08-03-2020 21:19:17 9.1 C 37 %
1281 08-03-2020 21:29:17 9.1 C 37 %
1282 08-03-2020 21:39:17 9.3 C 37 %
1283 08-03-2020 21:49:17 9.3 C 37 %
1284 08-03-2020 21:59:17 9.3 C 37 %
1285 08-03-2020 22:09:17 9.3 C 37 %
1286 08-03-2020 22:19:16 9.3 C 37 %
1287 08-03-2020 22:29:16 8.9 C 37 %
1288 08-03-2020 22:39:17 9.2 C 37 %
1289 08-03-2020 22:49:16 8.7 C 37 %
1290 08-03-2020 22:59:16 9 C 37 %
1291 08-03-2020 23:09:16 9.3 C 37 %
1292 08-03-2020 23:19:16 7.9 C 39 %
1293 08-03-2020 23:29:16 7.8 C 40 %
1294 08-03-2020 23:39:16 7.9 C 40 %
1295 08-03-2020 23:49:16 7.9 C 39 %
1296 08-03-2020 23:59:16 7.6 C 40 %
1297 09-03-2020 00:09:17 7.3 C 41 %
1298 09-03-2020 00:19:16 7 C 41 %
1299 09-03-2020 00:29:16 6.8 C 43 %
1300 09-03-2020 00:39:16 6.8 C 44 %
Sensor: Nr:Datum:Temp:Feuchte:
Aussen-T/F 1301 09-03-2020 00:49:16 6.6 C 45 %
1302 09-03-2020 00:59:16 6.8 C 43 %
1303 09-03-2020 01:09:16 6.9 C 42 %
1304 09-03-2020 01:19:16 6.9 C 43 %
1305 09-03-2020 01:29:16 6.7 C 45 %
1306 09-03-2020 01:39:16 6.8 C 43 %
1307 09-03-2020 01:49:16 6.9 C 42 %
1308 09-03-2020 01:59:16 6.7 C 43 %
1309 09-03-2020 02:09:16 6.6 C 43 %
1310 09-03-2020 02:19:16 6.4 C 44 %
1311 09-03-2020 02:29:16 6.3 C 45 %
1312 09-03-2020 02:39:16 6.2 C 45 %
1313 09-03-2020 02:49:17 6.4 C 45 %
1314 09-03-2020 02:59:17 6.4 C 44 %
1315 09-03-2020 03:09:17 6.1 C 44 %
1316 09-03-2020 03:19:17 6.5 C 43 %
1317 09-03-2020 03:29:17 6.7 C 42 %
1318 09-03-2020 03:39:17 6.4 C 42 %
1319 09-03-2020 03:49:17 6.2 C 43 %
1320 09-03-2020 03:59:17 6 C 44 %
1321 09-03-2020 04:09:17 5.7 C 45 %
1322 09-03-2020 04:19:17 5.5 C 45 %
1323 09-03-2020 04:29:17 6.1 C 44 %
1324 09-03-2020 04:39:18 6.3 C 43 %
1325 09-03-2020 04:49:17 6.2 C 43 %
Sensor: Nr:Datum:Temp:Feuchte:
Aussen-T/F 1326 09-03-2020 04:59:17 6.2 C 43 %
1327 09-03-2020 05:09:18 6.2 C 43 %
1328 09-03-2020 05:19:17 6 C 43 %
1329 09-03-2020 05:29:17 5.8 C 44 %
1330 09-03-2020 05:39:17 5.6 C 44 %
1331 09-03-2020 05:49:17 5.2 C 44 %
1332 09-03-2020 05:59:17 5.3 C 43 %
1333 09-03-2020 06:09:17 5 C 43 %
1334 09-03-2020 06:19:17 5.2 C 43 %
1335 09-03-2020 06:29:17 5.1 C 43 %
1336 09-03-2020 06:39:18 5.4 C 42 %
1337 09-03-2020 06:49:17 5.7 C 41 %
1338 09-03-2020 06:59:18 5.7 C 41 %
1339 09-03-2020 07:09:18 5 C 42 %
1340 09-03-2020 07:19:18 4.7 C 44 %
1341 09-03-2020 07:29:18 5.7 C 42 %
1342 09-03-2020 07:39:17 5.8 C 41 %
1343 09-03-2020 07:49:17 5.4 C 41 %
1344 09-03-2020 07:59:17 5.4 C 42 %
1345 09-03-2020 08:09:17 5.4 C 42 %
1346 09-03-2020 08:19:17 5 C 43 %
1347 09-03-2020 08:29:17 5.3 C 43 %
1348 09-03-2020 08:39:18 6.1 C 41 %
1349 09-03-2020 08:49:17 6.8 C 40 %
1350 09-03-2020 08:59:17 7.3 C 38 %
Sensor: Nr:Datum:Temp:Feuchte:
Aussen-T/F 1351 09-03-2020 09:09:17 7.4 C 38 %
1352 09-03-2020 09:19:17 7.7 C 37 %
1353 09-03-2020 09:29:17 8 C 37 %
1354 09-03-2020 09:39:17 8.1 C 37 %
1355 09-03-2020 09:49:17 8 C 37 %
1356 09-03-2020 09:59:17 7.8 C 37 %
1357 09-03-2020 10:09:17 8.3 C 36 %
1358 09-03-2020 10:19:17 8.2 C 36 %
1359 09-03-2020 10:29:17 8.5 C 36 %
1360 09-03-2020 10:39:17 8.6 C 36 %
1361 09-03-2020 10:49:17 8.5 C 36 %
1362 09-03-2020 10:59:17 8.1 C 36 %
1363 09-03-2020 11:09:17 8.1 C 36 %
1364 09-03-2020 11:19:17 8.5 C 36 %
1365 09-03-2020 11:29:17 9.7 C 34 %
1366 09-03-2020 11:39:17 9.1 C 34 %
1367 09-03-2020 11:49:17 10.1 C 33 %
1368 09-03-2020 11:59:17 10.6 C 29 %
1369 09-03-2020 12:09:18 10.9 C 27 %
1370 09-03-2020 12:19:18 11.2 C 25 %
1371 09-03-2020 12:29:18 10.1 C 26 %
1372 09-03-2020 12:39:18 10.3 C 26 %
1373 09-03-2020 12:49:17 11 C 25 %
1374 09-03-2020 12:59:17 10.1 C 26 %
1375 09-03-2020 13:09:17 11.6 C 26 %
Sensor: Nr:Datum:Temp:Feuchte:
Aussen-T/F 1376 09-03-2020 13:19:17 9.8 C 29 %
1377 09-03-2020 13:29:17 9.5 C 31 %
1378 09-03-2020 13:39:17 10.5 C 30 %
1379 09-03-2020 13:49:17 10.4 C 29 %
1380 09-03-2020 13:59:17 10.5 C 29 %
1381 09-03-2020 14:09:17 11.6 C 27 %
1382 09-03-2020 14:19:17 11.5 C 26 %
1383 09-03-2020 14:29:17 10.4 C 27 %
1384 09-03-2020 14:39:17 11.6 C 26 %
1385 09-03-2020 14:49:17 12.8 C 20 %
1386 09-03-2020 14:59:17 13.6 C 20 %
1387 09-03-2020 15:09:18 12.6 C 20 %
1388 09-03-2020 15:19:18 13 C 20 %
1389 09-03-2020 15:29:18 12.9 C 20 %
1390 09-03-2020 15:39:18 14.4 C 20 %
1391 09-03-2020 15:49:17 14 C 20 %
1392 09-03-2020 15:59:17 12.5 C 20 %
1393 09-03-2020 16:09:18 11.2 C 20 %
1394 09-03-2020 16:19:17 10.5 C 22 %
1395 09-03-2020 16:29:17 10.7 C 23 %
1396 09-03-2020 16:39:17 13.3 C 20 %
1397 09-03-2020 16:49:17 14.2 C 20 %
1398 09-03-2020 16:59:18 14.1 C 20 %
1399 09-03-2020 17:09:18 12.2 C 20 %
1400 09-03-2020 17:19:17 10.1 C 20 %
Sensor: Nr:Datum:Temp:Feuchte:
Aussen-T/F 1401 09-03-2020 17:29:17 9.9 C 25 %
1402 09-03-2020 17:39:18 9.8 C 25 %
1403 09-03-2020 17:49:17 9.7 C 27 %
1404 09-03-2020 17:59:18 9.7 C 26 %
1405 09-03-2020 18:09:18 9.5 C 27 %
1406 09-03-2020 18:19:17 9.2 C 28 %
1407 09-03-2020 18:29:17 8.9 C 30 %
1408 09-03-2020 18:39:17 8.7 C 30 %
1409 09-03-2020 18:49:17 8.1 C 30 %
1410 09-03-2020 18:59:17 7.7 C 32 %
1411 09-03-2020 19:09:18 7.5 C 33 %
1412 09-03-2020 19:19:17 7.4 C 33 %
1413 09-03-2020 19:29:17 7.6 C 33 %
1414 09-03-2020 19:39:17 7.4 C 34 %
1415 09-03-2020 19:49:18 7.3 C 33 %
1416 09-03-2020 19:59:18 7.2 C 34 %
1417 09-03-2020 20:09:17 6.5 C 36 %
1418 09-03-2020 20:19:17 6.9 C 35 %
1419 09-03-2020 20:29:17 6.5 C 36 %
1420 09-03-2020 20:39:18 6.5 C 36 %
1421 09-03-2020 20:49:18 6.7 C 36 %
1422 09-03-2020 20:59:18 6.8 C 35 %
1423 09-03-2020 21:09:17 5.9 C 37 %
1424 09-03-2020 21:19:17 5.6 C 38 %
1425 09-03-2020 21:29:17 5.5 C 38 %
Sensor: Nr:Datum:Temp:Feuchte:
Aussen-T/F 1426 09-03-2020 21:39:17 5.4 C 38 %
1427 09-03-2020 21:49:18 5.4 C 38 %
1428 09-03-2020 21:59:18 5.6 C 38 %
1429 09-03-2020 22:09:18 5.4 C 38 %
1430 09-03-2020 22:19:17 5.6 C 38 %
1431 09-03-2020 22:29:17 5.8 C 38 %
1432 09-03-2020 22:39:17 5.8 C 38 %
1433 09-03-2020 22:49:17 5.4 C 38 %
1434 09-03-2020 22:59:17 5.1 C 39 %
1435 09-03-2020 23:09:18 5.1 C 39 %
1436 09-03-2020 23:19:17 5.2 C 39 %
1437 09-03-2020 23:29:17 5 C 39 %
1438 09-03-2020 23:39:17 4.6 C 40 %
1439 09-03-2020 23:49:17 4.6 C 41 %
1440 09-03-2020 23:59:17 4.5 C 41 %
1441 10-03-2020 00:09:17 4.6 C 41 %
1442 10-03-2020 00:19:18 4.7 C 41 %
1443 10-03-2020 00:29:18 5.1 C 40 %
1444 10-03-2020 00:39:18 5.5 C 40 %
1445 10-03-2020 00:49:18 5.5 C 40 %
1446 10-03-2020 00:59:18 5.8 C 39 %
1447 10-03-2020 01:09:18 5.8 C 39 %
1448 10-03-2020 01:19:17 5.9 C 39 %
1449 10-03-2020 01:29:18 6 C 38 %
1450 10-03-2020 01:39:18 6.3 C 38 %
Sensor: Nr:Datum:Temp:Feuchte:
Aussen-T/F 1451 10-03-2020 01:49:17 6.7 C 37 %
1452 10-03-2020 01:59:17 6.6 C 37 %
1453 10-03-2020 02:09:18 6.7 C 37 %
1454 10-03-2020 02:19:17 6.6 C 37 %
1455 10-03-2020 02:29:18 6.7 C 37 %
1456 10-03-2020 02:39:18 6.8 C 37 %
1457 10-03-2020 02:49:17 6.9 C 37 %
1458 10-03-2020 02:59:17 7.1 C 37 %
1459 10-03-2020 03:09:18 6.6 C 38 %
1460 10-03-2020 03:19:18 6.5 C 38 %
1461 10-03-2020 03:29:18 6.3 C 39 %
1462 10-03-2020 03:39:18 6.2 C 39 %
1463 10-03-2020 03:49:17 6 C 40 %
1464 10-03-2020 03:59:17 6 C 40 %
1465 10-03-2020 04:09:17 5.8 C 40 %
1466 10-03-2020 04:19:17 5.8 C 40 %
1467 10-03-2020 04:29:17 5.6 C 41 %
1468 10-03-2020 04:39:17 5.9 C 40 %
1469 10-03-2020 04:49:17 5.6 C 41 %
1470 10-03-2020 04:59:17 5.5 C 41 %
1471 10-03-2020 05:09:17 5.5 C 41 %
1472 10-03-2020 05:19:17 5.2 C 41 %
1473 10-03-2020 05:29:18 5.2 C 41 %
1474 10-03-2020 05:39:18 5.1 C 42 %
1475 10-03-2020 05:49:18 5.1 C 42 %
Sensor: Nr:Datum:Temp:Feuchte:
Aussen-T/F 1476 10-03-2020 05:59:18 5 C 42 %
1477 10-03-2020 06:09:17 4.9 C 43 %
1478 10-03-2020 06:19:17 5 C 42 %
1479 10-03-2020 06:29:17 4.9 C 43 %
1480 10-03-2020 06:39:18 5 C 44 %
1481 10-03-2020 06:49:17 5.1 C 43 %
1482 10-03-2020 06:59:17 5 C 43 %
1483 10-03-2020 07:09:18 5.1 C 42 %
1484 10-03-2020 07:19:18 5.3 C 42 %
1485 10-03-2020 07:29:18 5.8 C 41 %
1486 10-03-2020 07:39:18 5.8 C 42 %
1487 10-03-2020 07:49:18 5.7 C 41 %
1488 10-03-2020 07:59:18 5.9 C 41 %
1489 10-03-2020 08:09:18 6 C 41 %
1490 10-03-2020 08:19:18 6 C 41 %
1491 10-03-2020 08:29:18 6.3 C 41 %
1492 10-03-2020 08:39:18 6.5 C 40 %
1493 10-03-2020 08:49:18 6.3 C 41 %
1494 10-03-2020 08:59:18 6.5 C 41 %
1495 10-03-2020 09:09:17 6.6 C 41 %
1496 10-03-2020 09:19:17 6.6 C 41 %
1497 10-03-2020 09:29:17 6.7 C 42 %
1498 10-03-2020 09:39:17 6.8 C 42 %
1499 10-03-2020 09:49:17 6.9 C 42 %
1500 10-03-2020 09:59:17 7.1 C 41 %
Sensor: Nr:Datum:Temp:Feuchte:
Aussen-T/F 1501 10-03-2020 10:09:18 7.2 C 41 %
1502 10-03-2020 10:19:18 7.3 C 41 %
1503 10-03-2020 10:29:18 7.4 C 41 %
1504 10-03-2020 10:39:18 7.5 C 41 %
1505 10-03-2020 10:49:18 7.8 C 41 %
1506 10-03-2020 10:59:18 7.9 C 41 %
1507 10-03-2020 11:09:18 8.1 C 41 %
1508 10-03-2020 11:19:18 8.2 C 40 %
1509 10-03-2020 11:29:18 8.4 C 40 %
1510 10-03-2020 11:39:18 8.5 C 41 %
1511 10-03-2020 11:49:17 8.7 C 41 %
1512 10-03-2020 11:59:17 8.9 C 41 %
1513 10-03-2020 12:09:17 8.9 C 40 %
1514 10-03-2020 12:19:17 8.9 C 41 %
1515 10-03-2020 12:29:18 9 C 41 %
1516 10-03-2020 12:39:18 9.1 C 41 %
1517 10-03-2020 12:49:17 9.1 C 41 %
1518 10-03-2020 12:59:17 9.3 C 41 %
1519 10-03-2020 13:09:18 9.4 C 40 %
1520 10-03-2020 13:19:17 9.5 C 41 %
1521 10-03-2020 13:29:18 9.5 C 41 %
1522 10-03-2020 13:39:18 9.5 C 41 %
1523 10-03-2020 13:49:17 9.7 C 41 %
1524 10-03-2020 13:59:18 9.8 C 41 %
1525 10-03-2020 14:09:18 9.9 C 41 %
Sensor: Nr:Datum:Temp:Feuchte:
Aussen-T/F 1526 10-03-2020 14:19:18 10.2 C 40 %
1527 10-03-2020 14:29:18 10.5 C 40 %
1528 10-03-2020 14:39:18 10.8 C 40 %
1529 10-03-2020 14:49:17 10.9 C 40 %
1530 10-03-2020 14:59:17 11.3 C 38 %
1531 10-03-2020 15:09:18 11.3 C 38 %
1532 10-03-2020 15:19:18 11.4 C 38 %
1533 10-03-2020 15:29:18 11.8 C 38 %
1534 10-03-2020 15:39:18 12.3 C 37 %
1535 10-03-2020 15:49:17 12.3 C 36 %
1536 10-03-2020 15:59:18 12.5 C 37 %
1537 10-03-2020 16:09:18 13 C 35 %
1538 10-03-2020 16:19:18 12.6 C 36 %
1539 10-03-2020 16:29:18 12.5 C 37 %
1540 10-03-2020 16:39:18 12.4 C 37 %
1541 10-03-2020 16:49:17 12.5 C 37 %
1542 10-03-2020 16:59:18 12.5 C 37 %
1543 10-03-2020 17:09:18 12.7 C 37 %
1544 10-03-2020 17:19:17 12.6 C 37 %
1545 10-03-2020 17:29:18 12.7 C 37 %
1546 10-03-2020 17:39:18 12.6 C 37 %
1547 10-03-2020 17:49:17 12.5 C 37 %
1548 10-03-2020 17:59:18 12.5 C 38 %
1549 10-03-2020 18:09:18 12.3 C 38 %
1550 10-03-2020 18:19:17 12.3 C 38 %
Sensor: Nr:Datum:Temp:Feuchte:
Aussen-T/F 1551 10-03-2020 18:29:18 12.3 C 38 %
1552 10-03-2020 18:39:18 12.5 C 38 %
1553 10-03-2020 18:49:17 12.4 C 38 %
1554 10-03-2020 18:59:17 12.3 C 38 %
1555 10-03-2020 19:09:18 12.5 C 38 %
1556 10-03-2020 19:19:17 12.3 C 38 %
1557 10-03-2020 19:29:17 12.4 C 38 %
1558 10-03-2020 19:39:17 12.5 C 38 %
1559 10-03-2020 19:49:17 12.5 C 38 %
1560 10-03-2020 19:59:17 12.5 C 38 %
1561 10-03-2020 20:09:17 12.5 C 38 %
1562 10-03-2020 20:19:17 12.7 C 38 %
1563 10-03-2020 20:29:18 12.8 C 38 %
1564 10-03-2020 20:39:18 12.8 C 38 %
1565 10-03-2020 20:49:17 12.9 C 38 %
1566 10-03-2020 20:59:17 13.1 C 37 %
1567 10-03-2020 21:09:18 12.8 C 38 %
1568 10-03-2020 21:19:17 13.2 C 37 %
1569 10-03-2020 21:29:18 13.2 C 37 %
1570 10-03-2020 21:39:18 13.2 C 37 %
1571 10-03-2020 21:49:17 13.2 C 37 %
1572 10-03-2020 21:59:18 13.1 C 37 %
1573 10-03-2020 22:09:18 12.8 C 39 %
1574 10-03-2020 22:19:18 12.5 C 40 %
1575 10-03-2020 22:29:18 12.5 C 40 %
Sensor: Nr:Datum:Temp:Feuchte:
Aussen-T/F 1576 10-03-2020 22:39:18 12.7 C 40 %
1577 10-03-2020 22:49:17 12.5 C 40 %
1578 10-03-2020 22:59:17 12.5 C 40 %
1579 10-03-2020 23:09:18 12.8 C 40 %
1580 10-03-2020 23:19:18 12.8 C 39 %
1581 10-03-2020 23:29:18 12.8 C 39 %
1582 10-03-2020 23:39:18 12.8 C 39 %
1583 10-03-2020 23:49:17 12.9 C 39 %
1584 10-03-2020 23:59:17 13.1 C 37 %
1585 11-03-2020 00:09:17 13.5 C 36 %
1586 11-03-2020 00:19:17 13.5 C 36 %
1587 11-03-2020 00:29:17 13.6 C 36 %
1588 11-03-2020 00:39:18 13.7 C 36 %
1589 11-03-2020 00:49:17 13.7 C 36 %
1590 11-03-2020 00:59:17 13.7 C 36 %
1591 11-03-2020 01:09:17 13.5 C 36 %
1592 11-03-2020 01:19:17 13.4 C 37 %
1593 11-03-2020 01:29:17 13.4 C 37 %
1594 11-03-2020 01:39:17 13.3 C 37 %
1595 11-03-2020 01:49:17 13 C 38 %
1596 11-03-2020 01:59:17 12.9 C 39 %
1597 11-03-2020 02:09:17 13.2 C 38 %
1598 11-03-2020 02:19:17 13.1 C 38 %
1599 11-03-2020 02:29:17 13.1 C 38 %
1600 11-03-2020 02:39:17 13.2 C 37 %
Sensor: Nr:Datum:Temp:Feuchte:
Aussen-T/F 1601 11-03-2020 02:49:17 13.4 C 37 %
1602 11-03-2020 02:59:17 13.5 C 37 %
1603 11-03-2020 03:09:17 13.1 C 37 %
1604 11-03-2020 03:19:18 13 C 38 %
1605 11-03-2020 03:29:18 13.2 C 37 %
1606 11-03-2020 03:39:18 13.4 C 37 %
1607 11-03-2020 03:49:17 13.5 C 37 %
1608 11-03-2020 03:59:18 13.4 C 37 %
1609 11-03-2020 04:09:18 13.4 C 37 %
1610 11-03-2020 04:19:18 13.4 C 37 %
1611 11-03-2020 04:29:18 13.4 C 37 %
1612 11-03-2020 04:39:17 13.4 C 37 %
1613 11-03-2020 04:49:17 13.5 C 36 %
1614 11-03-2020 04:59:17 13.4 C 37 %
1615 11-03-2020 05:09:17 13.1 C 37 %
1616 11-03-2020 05:19:17 13.1 C 37 %
1617 11-03-2020 05:29:17 13.1 C 37 %
1618 11-03-2020 05:39:17 13.1 C 37 %
1619 11-03-2020 05:49:18 13 C 37 %
1620 11-03-2020 05:59:18 12.9 C 38 %
1621 11-03-2020 06:09:18 13.1 C 37 %
1622 11-03-2020 06:19:17 13.2 C 37 %
1623 11-03-2020 06:29:17 13.2 C 36 %
1624 11-03-2020 06:39:18 13.2 C 36 %
1625 11-03-2020 06:49:17 13.6 C 36 %
Sensor: Nr:Datum:Temp:Feuchte:
Aussen-T/F 1626 11-03-2020 06:59:17 13.4 C 36 %
1627 11-03-2020 07:09:17 13.2 C 36 %
1628 11-03-2020 07:19:17 13.1 C 36 %
1629 11-03-2020 07:29:17 13.1 C 36 %
1630 11-03-2020 07:39:17 13.1 C 36 %
1631 11-03-2020 07:49:17 13.1 C 36 %
1632 11-03-2020 07:59:18 12.9 C 37 %
1633 11-03-2020 08:09:18 12.8 C 37 %
1634 11-03-2020 08:19:18 12.6 C 37 %
1635 11-03-2020 08:29:18 12.6 C 37 %
1636 11-03-2020 08:39:18 12.7 C 37 %
1637 11-03-2020 08:49:18 12.8 C 37 %
1638 11-03-2020 08:59:18 12.7 C 37 %
1639 11-03-2020 09:09:18 13 C 36 %
1640 11-03-2020 09:19:18 13.2 C 36 %
1641 11-03-2020 09:29:18 13.6 C 36 %
1642 11-03-2020 09:39:18 13.8 C 36 %
1643 11-03-2020 09:49:18 14 C 35 %
1644 11-03-2020 09:59:18 13.9 C 35 %
1645 11-03-2020 10:09:18 13.7 C 36 %
1646 11-03-2020 10:19:17 13.8 C 36 %
1647 11-03-2020 10:29:17 14 C 35 %
1648 11-03-2020 10:39:18 14.3 C 35 %
1649 11-03-2020 10:49:18 14.4 C 35 %
1650 11-03-2020 10:59:18 14.5 C 35 %
Sensor: Nr:Datum:Temp:Feuchte:
Aussen-T/F 1651 11-03-2020 11:09:17 14.9 C 35 %
1652 11-03-2020 11:19:17 14.6 C 35 %
1653 11-03-2020 11:29:17 15.8 C 33 %
1654 11-03-2020 11:39:17 15.8 C 33 %
1655 11-03-2020 11:49:17 15.6 C 33 %
1656 11-03-2020 11:59:17 15.9 C 33 %
1657 11-03-2020 12:09:18 15.9 C 33 %
1658 11-03-2020 12:19:18 16.4 C 32 %
1659 11-03-2020 12:29:18 16.5 C 32 %
1660 11-03-2020 12:39:18 16.3 C 32 %
1661 11-03-2020 12:49:18 16.5 C 32 %
1662 11-03-2020 12:59:18 16.3 C 32 %
1663 11-03-2020 13:09:17 16 C 32 %
1664 11-03-2020 13:19:17 17 C 31 %
1665 11-03-2020 13:29:17 16.8 C 31 %
1666 11-03-2020 13:39:17 17.7 C 31 %
1667 11-03-2020 13:49:17 15.8 C 32 %
1668 11-03-2020 13:59:17 16.1 C 31 %
1669 11-03-2020 14:09:17 16.3 C 31 %
1670 11-03-2020 14:19:17 16.1 C 31 %
1671 11-03-2020 14:29:17 16.6 C 31 %
1672 11-03-2020 14:39:17 15.7 C 31 %
1673 11-03-2020 14:49:17 16.2 C 31 %
1674 11-03-2020 14:59:17 15.8 C 31 %
1675 11-03-2020 15:09:17 16.5 C 31 %
Sensor: Nr:Datum:Temp:Feuchte:
Aussen-T/F 1676 11-03-2020 15:19:17 15.6 C 32 %
1677 11-03-2020 15:29:18 16.4 C 31 %
1678 11-03-2020 15:39:18 17.5 C 30 %
1679 11-03-2020 15:49:17 15.1 C 32 %
1680 11-03-2020 15:59:17 15.6 C 33 %
1681 11-03-2020 16:09:18 15 C 33 %
1682 11-03-2020 16:19:18 14.7 C 35 %
1683 11-03-2020 16:29:18 15.1 C 34 %
1684 11-03-2020 16:39:17 14.5 C 35 %
1685 11-03-2020 16:49:18 14.5 C 35 %
1686 11-03-2020 16:59:18 14.5 C 34 %
1687 11-03-2020 17:09:18 14.1 C 35 %
1688 11-03-2020 17:19:18 14 C 35 %
1689 11-03-2020 17:29:18 13.2 C 38 %
1690 11-03-2020 17:39:17 13.2 C 38 %
1691 11-03-2020 17:49:18 13.2 C 38 %
1692 11-03-2020 17:59:18 13.4 C 37 %
1693 11-03-2020 18:09:18 13.5 C 37 %
1694 11-03-2020 18:19:17 13.5 C 36 %
1695 11-03-2020 18:29:17 13.3 C 36 %
1696 11-03-2020 18:39:17 13.4 C 36 %
1697 11-03-2020 18:49:17 13.5 C 36 %
1698 11-03-2020 18:59:17 13.4 C 36 %
1699 11-03-2020 19:09:17 13.2 C 37 %
1700 11-03-2020 19:19:17 13.1 C 37 %
Sensor: Nr:Datum:Temp:Feuchte:
Aussen-T/F 1701 11-03-2020 19:29:17 13.1 C 37 %
1702 11-03-2020 19:39:18 13.4 C 36 %
1703 11-03-2020 19:49:17 13.3 C 36 %
1704 11-03-2020 19:59:17 13.2 C 36 %
1705 11-03-2020 20:09:17 13.4 C 36 %
1706 11-03-2020 20:19:17 13.6 C 36 %
1707 11-03-2020 20:29:18 13.6 C 36 %
1708 11-03-2020 20:39:18 13.6 C 36 %
1709 11-03-2020 20:49:17 13.5 C 36 %
1710 11-03-2020 20:59:17 13.3 C 36 %
1711 11-03-2020 21:09:18 13.2 C 36 %
1712 11-03-2020 21:19:17 13.4 C 36 %
1713 11-03-2020 21:29:17 13.5 C 36 %
1714 11-03-2020 21:39:18 13.7 C 36 %
1715 11-03-2020 21:49:17 14 C 35 %
1716 11-03-2020 21:59:17 14 C 35 %
1717 11-03-2020 22:09:18 14.1 C 34 %
1718 11-03-2020 22:19:18 14 C 34 %
1719 11-03-2020 22:29:18 13.9 C 35 %
1720 11-03-2020 22:39:17 13.9 C 35 %
1721 11-03-2020 22:49:18 13.8 C 35 %
1722 11-03-2020 22:59:18 13.8 C 35 %
1723 11-03-2020 23:09:18 13.8 C 34 %
1724 11-03-2020 23:19:18 13.9 C 34 %
1725 11-03-2020 23:29:18 13.8 C 34 %
Sensor: Nr:Datum:Temp:Feuchte:
Aussen-T/F 1726 11-03-2020 23:39:17 13.8 C 34 %
1727 11-03-2020 23:49:17 13.8 C 34 %
1728 11-03-2020 23:59:17 13.7 C 34 %
1729 12-03-2020 00:09:17 13.6 C 34 %
1730 12-03-2020 00:19:17 13.6 C 34 %
1731 12-03-2020 00:29:17 13.6 C 34 %
1732 12-03-2020 00:39:18 13.7 C 34 %
1733 12-03-2020 00:49:17 13.8 C 34 %
1734 12-03-2020 00:59:17 13.9 C 34 %
1735 12-03-2020 01:09:18 13.9 C 34 %
1736 12-03-2020 01:19:17 13.8 C 34 %
1737 12-03-2020 01:29:17 13.9 C 34 %
1738 12-03-2020 01:39:18 13.8 C 34 %
1739 12-03-2020 01:49:17 13.7 C 34 %
1740 12-03-2020 01:59:17 13.8 C 34 %
1741 12-03-2020 02:09:18 13.7 C 34 %
1742 12-03-2020 02:19:17 13.7 C 34 %
1743 12-03-2020 02:29:18 13.6 C 34 %
1744 12-03-2020 02:39:18 13.6 C 33 %
1745 12-03-2020 02:49:18 13.6 C 33 %
1746 12-03-2020 02:59:18 13.5 C 33 %
1747 12-03-2020 03:09:18 13.5 C 33 %
1748 12-03-2020 03:19:18 13.5 C 32 %
1749 12-03-2020 03:29:18 13.5 C 32 %
1750 12-03-2020 03:39:17 13.4 C 32 %
Sensor: Nr:Datum:Temp:Feuchte:
Aussen-T/F 1751 12-03-2020 03:49:17 13.2 C 32 %
1752 12-03-2020 03:59:17 13.1 C 32 %
1753 12-03-2020 04:09:17 13.1 C 32 %
1754 12-03-2020 04:19:17 13.1 C 32 %
1755 12-03-2020 04:29:17 13 C 32 %
1756 12-03-2020 04:39:17 13 C 32 %
1757 12-03-2020 04:49:17 13 C 32 %
1758 12-03-2020 04:59:17 13 C 32 %
1759 12-03-2020 05:09:17 12.7 C 33 %
1760 12-03-2020 05:19:17 12.7 C 33 %
1761 12-03-2020 05:29:17 12.6 C 34 %
1762 12-03-2020 05:39:18 12.5 C 34 %
1763 12-03-2020 05:49:17 12.5 C 34 %
1764 12-03-2020 05:59:17 12.3 C 34 %
1765 12-03-2020 06:09:18 12.2 C 34 %
1766 12-03-2020 06:19:18 12.1 C 34 %
1767 12-03-2020 06:29:18 12 C 34 %
1768 12-03-2020 06:39:18 12 C 35 %
1769 12-03-2020 06:49:17 12 C 35 %
1770 12-03-2020 06:59:17 11.9 C 35 %
1771 12-03-2020 07:09:18 11.9 C 35 %
1772 12-03-2020 07:19:18 12 C 35 %
1773 12-03-2020 07:29:18 12 C 35 %
1774 12-03-2020 07:39:18 12 C 35 %
1775 12-03-2020 07:49:17 11.2 C 38 %
Sensor: Nr:Datum:Temp:Feuchte:
Aussen-T/F 1776 12-03-2020 07:59:17 11 C 39 %
1777 12-03-2020 08:09:18 10.8 C 41 %
1778 12-03-2020 08:19:18 10.7 C 42 %
1779 12-03-2020 08:29:18 10.4 C 40 %
1780 12-03-2020 08:39:18 10.1 C 39 %
1781 12-03-2020 08:49:17 10.4 C 38 %
1782 12-03-2020 08:59:17 10.2 C 38 %
1783 12-03-2020 09:09:18 10.4 C 38 %
1784 12-03-2020 09:19:17 10.5 C 37 %
1785 12-03-2020 09:29:17 10.9 C 36 %
1786 12-03-2020 09:39:17 10.8 C 36 %
1787 12-03-2020 09:49:18 11 C 36 %
1788 12-03-2020 09:59:18 11.5 C 35 %
1789 12-03-2020 10:09:18 11.7 C 34 %
1790 12-03-2020 10:19:17 11.5 C 34 %
1791 12-03-2020 10:29:17 11.5 C 34 %
1792 12-03-2020 10:39:17 11.8 C 33 %
1793 12-03-2020 10:49:17 11.3 C 33 %
1794 12-03-2020 10:59:17 11.3 C 32 %
1795 12-03-2020 11:09:18 11.6 C 28 %
1796 12-03-2020 11:19:17 11.5 C 27 %
1797 12-03-2020 11:29:17 11.7 C 26 %
1798 12-03-2020 11:39:17 11.9 C 23 %
1799 12-03-2020 11:49:18 11.9 C 20 %
1800 12-03-2020 11:59:18 12.3 C 20 %
Sensor: Nr:Datum:Temp:Feuchte:
Aussen-T/F 1801 12-03-2020 12:09:18 12.2 C 20 %
1802 12-03-2020 12:19:18 12.4 C 20 %
1803 12-03-2020 12:29:18 12.8 C 20 %
1804 12-03-2020 12:39:17 12.4 C 20 %
1805 12-03-2020 12:49:17 12.1 C 20 %
1806 12-03-2020 12:59:18 12 C 20 %
1807 12-03-2020 13:09:18 12.2 C 20 %
1808 12-03-2020 13:19:17 12.3 C 20 %
1809 12-03-2020 13:29:17 12.3 C 20 %
1810 12-03-2020 13:39:17 12.7 C 20 %
1811 12-03-2020 13:49:17 12.5 C 20 %
1812 12-03-2020 13:59:17 12.4 C 20 %
1813 12-03-2020 14:09:17 12.2 C 20 %
1814 12-03-2020 14:19:17 12.2 C 20 %
1815 12-03-2020 14:29:18 12.2 C 20 %
1816 12-03-2020 14:39:18 13.4 C 20 %
1817 12-03-2020 14:49:17 13 C 20 %
1818 12-03-2020 14:59:17 11.8 C 20 %
1819 12-03-2020 15:09:17 11.9 C 20 %
1820 12-03-2020 15:19:17 11.8 C 20 %
1821 12-03-2020 15:29:18 11.9 C 20 %
1822 12-03-2020 15:39:18 11.8 C 20 %
1823 12-03-2020 15:49:17 11.7 C 20 %
1824 12-03-2020 15:59:18 11.6 C 20 %
1825 12-03-2020 16:09:18 11.5 C 20 %
Sensor: Nr:Datum:Temp:Feuchte:
Aussen-T/F 1826 12-03-2020 16:19:18 11.7 C 20 %
1827 12-03-2020 16:29:18 11.7 C 20 %
1828 12-03-2020 16:39:18 12.4 C 20 %
1829 12-03-2020 16:49:17 11.8 C 20 %
1830 12-03-2020 16:59:17 11.5 C 20 %
1831 12-03-2020 17:09:17 11.5 C 20 %
1832 12-03-2020 17:19:17 11.5 C 20 %
1833 12-03-2020 17:29:17 11.2 C 20 %
1834 12-03-2020 17:39:18 10.9 C 20 %
1835 12-03-2020 17:49:17 11 C 20 %
1836 12-03-2020 17:59:18 10.8 C 22 %
1837 12-03-2020 18:09:18 10.3 C 25 %
1838 12-03-2020 18:19:18 9.8 C 27 %
1839 12-03-2020 18:29:18 9.3 C 30 %
1840 12-03-2020 18:39:17 8.7 C 31 %
1841 12-03-2020 18:49:17 7.9 C 33 %
1842 12-03-2020 18:59:17 7.6 C 35 %
1843 12-03-2020 19:09:17 7.5 C 34 %
1844 12-03-2020 19:19:17 7 C 35 %
1845 12-03-2020 19:29:17 6.6 C 36 %
1846 12-03-2020 19:39:17 6.5 C 36 %
1847 12-03-2020 19:49:17 7.1 C 35 %
1848 12-03-2020 19:59:17 6.8 C 35 %
1849 12-03-2020 20:09:17 7.6 C 35 %
1850 12-03-2020 20:19:17 7.3 C 35 %
Sensor: Nr:Datum:Temp:Feuchte:
Aussen-T/F 1851 12-03-2020 20:29:17 6.8 C 35 %
1852 12-03-2020 20:39:17 6.8 C 36 %
1853 12-03-2020 20:49:17 6.4 C 36 %
1854 12-03-2020 20:59:17 6.7 C 36 %
1855 12-03-2020 21:09:17 6.3 C 36 %
1856 12-03-2020 21:19:17 7.2 C 35 %
1857 12-03-2020 21:29:17 7.6 C 35 %
1858 12-03-2020 21:39:18 7.4 C 35 %
1859 12-03-2020 21:49:17 7.4 C 35 %
1860 12-03-2020 21:59:17 7.6 C 35 %
1861 12-03-2020 22:09:18 7.6 C 35 %
1862 12-03-2020 22:19:18 7.1 C 35 %
1863 12-03-2020 22:29:18 7.2 C 35 %
1864 12-03-2020 22:39:18 7.5 C 35 %
1865 12-03-2020 22:49:17 7.6 C 35 %
1866 12-03-2020 22:59:17 7.3 C 35 %
1867 12-03-2020 23:09:17 7.2 C 35 %
1868 12-03-2020 23:19:17 7 C 35 %
1869 12-03-2020 23:29:18 6.2 C 35 %
1870 12-03-2020 23:39:18 6.7 C 34 %
1871 12-03-2020 23:49:17 6.5 C 34 %
1872 12-03-2020 23:59:17 6.4 C 32 %
1873 13-03-2020 00:09:17 6.5 C 32 %
1874 13-03-2020 00:19:17 6.5 C 32 %
1875 13-03-2020 00:29:17 6.1 C 32 %
Sensor: Nr:Datum:Temp:Feuchte:
Aussen-T/F 1876 13-03-2020 00:39:17 6.2 C 32 %
1877 13-03-2020 00:49:17 6 C 32 %
1878 13-03-2020 00:59:17 5.9 C 33 %
1879 13-03-2020 01:09:17 5.4 C 33 %
1880 13-03-2020 01:19:17 5.4 C 33 %
1881 13-03-2020 01:29:17 5.1 C 34 %
1882 13-03-2020 01:39:17 5.2 C 34 %
1883 13-03-2020 01:49:17 5.2 C 33 %
1884 13-03-2020 01:59:17 5.2 C 33 %
1885 13-03-2020 02:09:17 4.8 C 35 %
1886 13-03-2020 02:19:17 5 C 34 %
1887 13-03-2020 02:29:17 5.1 C 34 %
1888 13-03-2020 02:39:18 5.1 C 34 %
1889 13-03-2020 02:49:17 5.1 C 34 %
1890 13-03-2020 02:59:17 5.1 C 34 %
1891 13-03-2020 03:09:17 5 C 34 %
1892 13-03-2020 03:19:17 5.2 C 34 %
1893 13-03-2020 03:29:17 5.2 C 34 %
1894 13-03-2020 03:39:18 5.1 C 34 %
1895 13-03-2020 03:49:17 5.1 C 34 %
1896 13-03-2020 03:59:17 5.2 C 34 %
1897 13-03-2020 04:09:17 5 C 34 %
1898 13-03-2020 04:19:17 4.9 C 35 %
1899 13-03-2020 04:29:17 5.1 C 35 %
1900 13-03-2020 04:39:17 5.1 C 35 %
Sensor: Nr:Datum:Temp:Feuchte:
Aussen-T/F 1901 13-03-2020 04:49:17 5 C 34 %
1902 13-03-2020 04:59:17 5.2 C 34 %
1903 13-03-2020 05:09:17 5.2 C 34 %
1904 13-03-2020 05:19:17 5.6 C 34 %
1905 13-03-2020 05:29:17 5.4 C 34 %
1906 13-03-2020 05:39:17 5.4 C 34 %
1907 13-03-2020 05:49:18 5.4 C 34 %
1908 13-03-2020 05:59:18 5.4 C 34 %
1909 13-03-2020 06:09:18 5.6 C 34 %
1910 13-03-2020 06:19:17 5.7 C 34 %
1911 13-03-2020 06:29:17 5.4 C 34 %
1912 13-03-2020 06:39:17 5.4 C 35 %
1913 13-03-2020 06:49:17 5.3 C 34 %
1914 13-03-2020 06:59:17 5.4 C 35 %
1915 13-03-2020 07:09:17 5.3 C 35 %
1916 13-03-2020 07:19:17 5.4 C 35 %
1917 13-03-2020 07:29:17 5.6 C 35 %
1918 13-03-2020 07:39:17 5.7 C 35 %
1919 13-03-2020 07:49:18 5.7 C 35 %
1920 13-03-2020 07:59:18 5.7 C 35 %
1921 13-03-2020 08:09:17 5.8 C 35 %
1922 13-03-2020 08:19:17 6 C 35 %
1923 13-03-2020 08:29:17 5.9 C 35 %
1924 13-03-2020 08:39:18 6 C 35 %
1925 13-03-2020 08:49:17 6.2 C 35 %
Sensor: Nr:Datum:Temp:Feuchte:
Aussen-T/F 1926 13-03-2020 08:59:17 6.4 C 34 %
1927 13-03-2020 09:09:17 6.5 C 35 %
1928 13-03-2020 09:19:17 6.9 C 34 %
1929 13-03-2020 09:29:17 7.1 C 33 %
1930 13-03-2020 09:39:18 7.1 C 33 %
1931 13-03-2020 09:49:17 6.6 C 34 %
1932 13-03-2020 09:59:17 7.1 C 33 %
1933 13-03-2020 10:09:18 7.5 C 33 %
1934 13-03-2020 10:19:17 8.5 C 32 %
1935 13-03-2020 10:29:17 8.1 C 32 %
1936 13-03-2020 10:39:18 8 C 32 %
1937 13-03-2020 10:49:17 7.6 C 33 %
1938 13-03-2020 10:59:17 7.4 C 35 %
1939 13-03-2020 11:09:17 8.9 C 33 %
1940 13-03-2020 11:19:17 9.1 C 31 %
1941 13-03-2020 11:29:17 8 C 32 %
1942 13-03-2020 11:39:17 7.3 C 35 %
1943 13-03-2020 11:49:18 7.4 C 35 %
1944 13-03-2020 11:59:18 8.2 C 33 %
1945 13-03-2020 12:09:18 8.9 C 32 %
1946 13-03-2020 12:19:18 9.7 C 29 %
1947 13-03-2020 12:29:18 9 C 30 %
1948 13-03-2020 12:39:18 9.6 C 30 %
1949 13-03-2020 12:49:18 9 C 31 %
1950 13-03-2020 12:59:18 8.8 C 31 %
Sensor: Nr:Datum:Temp:Feuchte:
Aussen-T/F 1951 13-03-2020 13:09:18 8.4 C 32 %
1952 13-03-2020 13:19:18 8.6 C 33 %
1953 13-03-2020 13:29:18 9.5 C 31 %
1954 13-03-2020 13:39:18 9.9 C 30 %
1955 13-03-2020 13:49:17 9.7 C 30 %
1956 13-03-2020 13:59:17 9.6 C 30 %
1957 13-03-2020 14:09:18 9.3 C 30 %
1958 13-03-2020 14:19:18 9.4 C 30 %
1959 13-03-2020 14:29:18 8.9 C 32 %
1960 13-03-2020 14:39:18 9.5 C 31 %
1961 13-03-2020 14:49:18 10.3 C 28 %
1962 13-03-2020 14:59:18 10.1 C 28 %
1963 13-03-2020 15:09:18 9.5 C 29 %
1964 13-03-2020 15:19:17 9.3 C 29 %
1965 13-03-2020 15:29:17 10.1 C 27 %
1966 13-03-2020 15:39:18 10.4 C 26 %
1967 13-03-2020 15:49:18 10.4 C 26 %
1968 13-03-2020 15:59:18 10.1 C 27 %
1969 13-03-2020 16:09:18 10 C 27 %
1970 13-03-2020 16:19:17 9.8 C 27 %
1971 13-03-2020 16:29:17 9.1 C 29 %
1972 13-03-2020 16:39:17 9 C 30 %
1973 13-03-2020 16:49:17 10 C 27 %
1974 13-03-2020 16:59:17 9.3 C 30 %
1975 13-03-2020 17:09:17 9.1 C 30 %
Sensor: Nr:Datum:Temp:Feuchte:
Aussen-T/F 1976 13-03-2020 17:19:18 9.1 C 30 %
1977 13-03-2020 17:29:18 9.3 C 30 %
1978 13-03-2020 17:39:17 9.4 C 29 %
1979 13-03-2020 17:49:18 9.5 C 30 %
1980 13-03-2020 17:59:18 9.1 C 31 %
1981 13-03-2020 18:09:18 8.7 C 31 %
1982 13-03-2020 18:19:17 8.6 C 31 %
1983 13-03-2020 18:29:17 8.4 C 31 %
1984 13-03-2020 18:39:17 8.2 C 31 %
1985 13-03-2020 18:49:17 8.1 C 32 %
1986 13-03-2020 18:59:17 8 C 32 %
1987 13-03-2020 19:09:17 7.8 C 33 %
1988 13-03-2020 19:19:17 7.3 C 35 %
1989 13-03-2020 19:29:17 7.3 C 35 %
1990 13-03-2020 19:39:18 7.3 C 35 %
1991 13-03-2020 19:49:17 7.3 C 35 %
1992 13-03-2020 19:59:18 7 C 35 %
1993 13-03-2020 20:09:18 6.7 C 36 %
1994 13-03-2020 20:19:17 6.7 C 36 %
1995 13-03-2020 20:29:17 6.9 C 36 %
1996 13-03-2020 20:39:17 6.4 C 36 %
1997 13-03-2020 20:49:17 6.3 C 37 %
1998 13-03-2020 20:59:17 6.2 C 37 %
1999 13-03-2020 21:09:18 5.8 C 38 %
2000 13-03-2020 21:19:18 5.8 C 38 %
Sensor: Nr:Datum:Temp:Feuchte:
Aussen-T/F 2001 13-03-2020 21:29:18 5.8 C 38 %
2002 13-03-2020 21:39:18 6.2 C 37 %
2003 13-03-2020 21:49:17 5.7 C 38 %
2004 13-03-2020 21:59:17 5.8 C 38 %
2005 13-03-2020 22:09:18 5.4 C 39 %
2006 13-03-2020 22:19:17 5.6 C 39 %
2007 13-03-2020 22:29:18 5.4 C 39 %
2008 13-03-2020 22:39:18 5.5 C 40 %
2009 13-03-2020 22:49:17 5.7 C 39 %
2010 13-03-2020 22:59:17 5.8 C 39 %
2011 13-03-2020 23:09:18 5.6 C 39 %
2012 13-03-2020 23:19:17 5.6 C 39 %
2013 13-03-2020 23:29:17 5.5 C 40 %
2014 13-03-2020 23:39:17 5.4 C 40 %
2015 13-03-2020 23:49:17 5.4 C 40 %
2016 13-03-2020 23:59:17 4.8 C 41 %
2017 14-03-2020 00:09:17 4.8 C 41 %
2018 14-03-2020 00:19:18 4.6 C 41 %
2019 14-03-2020 00:29:18 4.4 C 41 %
2020 14-03-2020 00:39:18 3.7 C 42 %
2021 14-03-2020 00:49:17 3.5 C 44 %
2022 14-03-2020 00:59:17 3 C 43 %
2023 14-03-2020 01:09:18 2.6 C 45 %
2024 14-03-2020 01:19:17 2.4 C 46 %
2025 14-03-2020 01:29:18 2 C 45 %
Sensor: Nr:Datum:Temp:Feuchte:
Aussen-T/F 2026 14-03-2020 01:39:18 2 C 46 %
2027 14-03-2020 01:49:17 2.4 C 48 %
2028 14-03-2020 01:59:18 2.8 C 49 %
2029 14-03-2020 02:09:18 3.3 C 47 %
2030 14-03-2020 02:19:18 3.6 C 46 %
2031 14-03-2020 02:29:18 3.3 C 45 %
2032 14-03-2020 02:39:18 3 C 45 %
2033 14-03-2020 02:49:18 2.8 C 45 %
2034 14-03-2020 02:59:18 2.3 C 46 %
2035 14-03-2020 03:09:18 2.2 C 46 %
2036 14-03-2020 03:19:17 1.5 C 47 %
2037 14-03-2020 03:29:17 1.3 C 47 %
2038 14-03-2020 03:39:17 1.4 C 48 %
2039 14-03-2020 03:49:18 1.5 C 48 %
2040 14-03-2020 03:59:18 1.5 C 49 %
2041 14-03-2020 04:09:17 1.7 C 49 %
2042 14-03-2020 04:19:17 1.6 C 48 %
2043 14-03-2020 04:29:17 1.6 C 49 %
2044 14-03-2020 04:39:17 1.5 C 48 %
2045 14-03-2020 04:49:17 1.3 C 48 %
2046 14-03-2020 04:59:17 1.3 C 48 %
2047 14-03-2020 05:09:17 1.3 C 49 %
2048 14-03-2020 05:19:17 1.1 C 48 %
2049 14-03-2020 05:29:17 0.8 C 49 %
2050 14-03-2020 05:39:18 0.9 C 50 %
Sensor: Nr:Datum:Temp:Feuchte:
Aussen-T/F 2051 14-03-2020 05:49:17 1.3 C 49 %
2052 14-03-2020 05:59:17 0.5 C 49 %
2053 14-03-2020 06:09:18 0.3 C 49 %
2054 14-03-2020 06:19:18 0.6 C 50 %
2055 14-03-2020 06:29:18 0.4 C 49 %
2056 14-03-2020 06:39:18 0.4 C 50 %
2057 14-03-2020 06:49:17 0.8 C 50 %
2058 14-03-2020 06:59:17 0.8 C 50 %
2059 14-03-2020 07:09:17 0.7 C 50 %
2060 14-03-2020 07:19:17 0.8 C 50 %
2061 14-03-2020 07:29:17 0.6 C 49 %
2062 14-03-2020 07:39:18 0.6 C 49 %
2063 14-03-2020 07:49:17 0.8 C 49 %
2064 14-03-2020 07:59:17 0.8 C 50 %
2065 14-03-2020 08:09:17 1 C 48 %
2066 14-03-2020 08:19:17 1.4 C 49 %
2067 14-03-2020 08:29:17 1.7 C 49 %
2068 14-03-2020 08:39:18 1.9 C 49 %
2069 14-03-2020 08:49:17 2.2 C 48 %
2070 14-03-2020 08:59:17 2.5 C 48 %
2071 14-03-2020 09:09:17 2.8 C 48 %
2072 14-03-2020 09:19:17 3.4 C 46 %
2073 14-03-2020 09:29:17 3.7 C 45 %
2074 14-03-2020 09:39:18 4.1 C 43 %
2075 14-03-2020 09:49:17 4.5 C 43 %
Sensor: Nr:Datum:Temp:Feuchte:
Aussen-T/F 2076 14-03-2020 09:59:17 5 C 41 %
2077 14-03-2020 10:09:18 5.7 C 41 %
2078 14-03-2020 10:19:18 6 C 39 %
2079 14-03-2020 10:29:18 6.8 C 40 %
2080 14-03-2020 10:39:18 7.7 C 38 %
2081 14-03-2020 10:49:17 7.7 C 37 %
2082 14-03-2020 10:59:17 8.4 C 36 %
2083 14-03-2020 11:09:18 9 C 35 %
2084 14-03-2020 11:19:18 10.4 C 34 %
2085 14-03-2020 11:29:18 11 C 31 %
2086 14-03-2020 11:39:18 10.4 C 31 %
2087 14-03-2020 11:49:17 10.1 C 32 %
2088 14-03-2020 11:59:17 11.3 C 31 %
2089 14-03-2020 12:09:18 13 C 27 %
2090 14-03-2020 12:19:17 12.4 C 27 %
2091 14-03-2020 12:29:18 12 C 27 %
2092 14-03-2020 12:39:18 11.3 C 28 %
2093 14-03-2020 12:49:17 11.5 C 28 %
2094 14-03-2020 12:59:17 13.1 C 26 %
2095 14-03-2020 13:09:18 12.9 C 25 %
2096 14-03-2020 13:19:17 13 C 22 %
2097 14-03-2020 13:29:17 13.3 C 23 %
2098 14-03-2020 13:39:17 12.5 C 22 %
2099 14-03-2020 13:49:17 12.4 C 22 %
2100 14-03-2020 13:59:17 13.8 C 21 %
Sensor: Nr:Datum:Temp:Feuchte:
Aussen-T/F 2101 14-03-2020 14:09:18 12.3 C 22 %
2102 14-03-2020 14:19:17 12.5 C 21 %
2103 14-03-2020 14:29:17 14 C 20 %
2104 14-03-2020 14:39:17 13.7 C 20 %
2105 14-03-2020 14:49:18 12.3 C 20 %
2106 14-03-2020 14:59:18 11.6 C 23 %
2107 14-03-2020 15:09:18 11.4 C 22 %
2108 14-03-2020 15:19:17 12.1 C 21 %
2109 14-03-2020 15:29:17 12.1 C 20 %
2110 14-03-2020 15:39:18 11.7 C 21 %
2111 14-03-2020 15:49:17 12 C 20 %
2112 14-03-2020 15:59:17 11.8 C 21 %
2113 14-03-2020 16:09:18 11.2 C 23 %
2114 14-03-2020 16:19:17 10.6 C 25 %
2115 14-03-2020 16:29:17 10.4 C 26 %
2116 14-03-2020 16:39:18 9.9 C 26 %
2117 14-03-2020 16:49:18 10.1 C 26 %
2118 14-03-2020 16:59:18 9.8 C 27 %
2119 14-03-2020 17:09:18 10.3 C 26 %
2120 14-03-2020 17:19:17 10.3 C 26 %
2121 14-03-2020 17:29:17 10.7 C 26 %
2122 14-03-2020 17:39:17 9.6 C 27 %
2123 14-03-2020 17:49:17 9.3 C 28 %
2124 14-03-2020 17:59:17 8.6 C 30 %
2125 14-03-2020 18:09:17 8.1 C 31 %
Sensor: Nr:Datum:Temp:Feuchte:
Aussen-T/F 2126 14-03-2020 18:19:17 7.3 C 33 %
2127 14-03-2020 18:29:17 7.1 C 33 %
2128 14-03-2020 18:39:17 6.3 C 36 %
2129 14-03-2020 18:49:17 5.9 C 37 %
2130 14-03-2020 18:59:17 5.9 C 38 %
2131 14-03-2020 19:09:17 5.3 C 38 %
2132 14-03-2020 19:19:17 5.5 C 39 %
2133 14-03-2020 19:29:17 5.1 C 39 %
2134 14-03-2020 19:39:17 5.6 C 39 %
2135 14-03-2020 19:49:17 5.2 C 39 %
2136 14-03-2020 19:59:17 5.3 C 39 %
2137 14-03-2020 20:09:18 5.3 C 39 %
2138 14-03-2020 20:19:18 5.3 C 39 %
2139 14-03-2020 20:29:18 5.3 C 39 %
2140 14-03-2020 20:39:18 5.6 C 39 %
2141 14-03-2020 20:49:17 5.5 C 39 %
2142 14-03-2020 20:59:18 5.7 C 39 %
2143 14-03-2020 21:09:18 5.7 C 39 %
2144 14-03-2020 21:19:18 5.7 C 39 %
2145 14-03-2020 21:29:18 5.6 C 38 %
2146 14-03-2020 21:39:17 5.1 C 39 %
2147 14-03-2020 21:49:18 5.2 C 39 %
2148 14-03-2020 21:59:18 5 C 39 %
2149 14-03-2020 22:09:18 5 C 39 %
2150 14-03-2020 22:19:17 5 C 39 %
Sensor: Nr:Datum:Temp:Feuchte:
Aussen-T/F 2151 14-03-2020 22:29:17 5 C 39 %
2152 14-03-2020 22:39:18 5.1 C 39 %
2153 14-03-2020 22:49:18 4.8 C 40 %
2154 14-03-2020 22:59:18 5.1 C 39 %
2155 14-03-2020 23:09:17 5.5 C 39 %
2156 14-03-2020 23:19:17 5.7 C 39 %
2157 14-03-2020 23:29:17 5.6 C 40 %
2158 14-03-2020 23:39:17 5.6 C 39 %
2159 14-03-2020 23:49:18 5.8 C 40 %
2160 14-03-2020 23:59:18 5.8 C 40 %
2161 15-03-2020 00:09:18 5.9 C 39 %
2162 15-03-2020 00:19:17 5.8 C 39 %
2163 15-03-2020 00:29:17 6.1 C 37 %
2164 15-03-2020 00:39:18 6 C 38 %
2165 15-03-2020 00:49:18 5.6 C 39 %
2166 15-03-2020 00:59:18 5.3 C 39 %
2167 15-03-2020 01:09:17 5.1 C 40 %
2168 15-03-2020 01:19:18 5.1 C 39 %
2169 15-03-2020 01:29:18 5.5 C 39 %
2170 15-03-2020 01:39:17 5.2 C 40 %
2171 15-03-2020 01:49:17 5.2 C 40 %
2172 15-03-2020 01:59:17 5.2 C 40 %
2173 15-03-2020 02:09:17 5.1 C 40 %
2174 15-03-2020 02:19:17 5.1 C 40 %
2175 15-03-2020 02:29:17 4.8 C 40 %
Sensor: Nr:Datum:Temp:Feuchte:
Aussen-T/F 2176 15-03-2020 02:39:18 4.5 C 40 %
2177 15-03-2020 02:49:17 4.9 C 40 %
2178 15-03-2020 02:59:17 5 C 40 %
2179 15-03-2020 03:09:17 4.8 C 40 %
2180 15-03-2020 03:19:17 4.2 C 40 %
2181 15-03-2020 03:29:17 4 C 40 %
2182 15-03-2020 03:39:18 4 C 40 %
2183 15-03-2020 03:49:17 3.8 C 41 %
2184 15-03-2020 03:59:17 3.7 C 42 %
2185 15-03-2020 04:09:18 3.7 C 41 %
2186 15-03-2020 04:19:18 3.9 C 41 %
2187 15-03-2020 04:29:18 3.7 C 41 %
2188 15-03-2020 04:39:18 3.8 C 41 %
2189 15-03-2020 04:49:17 3.7 C 41 %
2190 15-03-2020 04:59:18 3.5 C 41 %
2191 15-03-2020 05:09:18 3.5 C 41 %
2192 15-03-2020 05:19:17 3.3 C 41 %
2193 15-03-2020 05:29:18 3.2 C 41 %
2194 15-03-2020 05:39:18 3 C 41 %
2195 15-03-2020 05:49:17 3.1 C 41 %
2196 15-03-2020 05:59:17 3.1 C 41 %
2197 15-03-2020 06:09:18 3.1 C 41 %
2198 15-03-2020 06:19:17 3.1 C 41 %
2199 15-03-2020 06:29:17 2.9 C 43 %
2200 15-03-2020 06:39:18 3.3 C 41 %
Sensor: Nr:Datum:Temp:Feuchte:
Aussen-T/F 2201 15-03-2020 06:49:18 3.6 C 41 %
2202 15-03-2020 06:59:18 3.3 C 41 %
2203 15-03-2020 07:09:18 3 C 42 %
2204 15-03-2020 07:19:18 3.1 C 42 %
2205 15-03-2020 07:29:18 3.6 C 41 %
2206 15-03-2020 07:39:18 3.6 C 41 %
2207 15-03-2020 07:49:18 3.5 C 41 %
2208 15-03-2020 07:59:18 4 C 41 %
2209 15-03-2020 08:09:18 4.8 C 40 %
2210 15-03-2020 08:19:18 5.4 C 39 %
2211 15-03-2020 08:29:18 5.7 C 39 %
2212 15-03-2020 08:39:18 5.9 C 38 %
2213 15-03-2020 08:49:17 6.4 C 38 %
2214 15-03-2020 08:59:17 6.7 C 38 %
2215 15-03-2020 09:09:18 6.8 C 37 %
2216 15-03-2020 09:19:18 6.9 C 38 %
2217 15-03-2020 09:29:18 7.1 C 37 %
2218 15-03-2020 09:39:18 7.8 C 36 %
2219 15-03-2020 09:49:18 9.2 C 33 %
2220 15-03-2020 09:59:18 9.9 C 32 %
2221 15-03-2020 10:09:18 9.9 C 31 %
2222 15-03-2020 10:19:18 9.8 C 32 %
2223 15-03-2020 10:29:18 10 C 32 %
2224 15-03-2020 10:39:18 10.8 C 31 %
2225 15-03-2020 10:49:17 11.8 C 29 %
Sensor: Nr:Datum:Temp:Feuchte:
Aussen-T/F 2226 15-03-2020 10:59:17 12.5 C 27 %
2227 15-03-2020 11:09:17 13.4 C 25 %
2228 15-03-2020 11:19:17 14.7 C 23 %
2229 15-03-2020 11:29:17 16 C 20 %
2230 15-03-2020 11:39:18 15.5 C 20 %
2231 15-03-2020 11:49:17 14.9 C 20 %
2232 15-03-2020 11:59:18 15.2 C 20 %
2233 15-03-2020 12:09:18 14.5 C 20 %
2234 15-03-2020 12:19:18 14.1 C 20 %
2235 15-03-2020 12:29:18 14.4 C 20 %
2236 15-03-2020 12:39:18 14.7 C 20 %
2237 15-03-2020 12:49:17 15.2 C 20 %
2238 15-03-2020 12:59:17 15.4 C 20 %
2239 15-03-2020 13:09:18 14.8 C 20 %
2240 15-03-2020 13:19:17 17 C 20 %
2241 15-03-2020 13:29:17 18.6 C 20 %
2242 15-03-2020 13:39:18 17.4 C 20 %
2243 15-03-2020 13:49:17 16.7 C 20 %
2244 15-03-2020 13:59:17 16.2 C 20 %
2245 15-03-2020 14:09:17 15.5 C 20 %
2246 15-03-2020 14:19:17 16.5 C 20 %
2247 15-03-2020 14:29:17 16.3 C 20 %
2248 15-03-2020 14:39:18 16.6 C 20 %
2249 15-03-2020 14:49:17 16.2 C 20 %
2250 15-03-2020 14:59:17 16 C 20 %
Sensor: Nr:Datum:Temp:Feuchte:
Aussen-T/F 2251 15-03-2020 15:09:17 17.4 C 20 %
2252 15-03-2020 15:19:17 20.3 C 20 %
2253 15-03-2020 15:29:18 20.4 C 20 %
2254 15-03-2020 15:39:18 19.4 C 20 %
2255 15-03-2020 15:49:17 20.7 C 20 %
2256 15-03-2020 15:59:17 19.9 C 20 %
2257 15-03-2020 16:09:17 21.2 C 20 %
2258 15-03-2020 16:19:17 20.2 C 20 %
2259 15-03-2020 16:29:17 20.5 C 20 %
2260 15-03-2020 16:39:17 19.7 C 20 %
2261 15-03-2020 16:49:18 18.1 C 20 %
2262 15-03-2020 16:59:18 16.9 C 20 %
2263 15-03-2020 17:09:18 16 C 20 %
2264 15-03-2020 17:19:18 15.5 C 20 %
2265 15-03-2020 17:29:18 15.5 C 20 %
2266 15-03-2020 17:39:18 14.9 C 20 %
2267 15-03-2020 17:49:18 13.8 C 20 %
2268 15-03-2020 17:59:18 12.6 C 23 %
2269 15-03-2020 18:09:18 12.1 C 25 %
2270 15-03-2020 18:19:18 11.7 C 26 %
2271 15-03-2020 18:29:18 11.1 C 27 %
2272 15-03-2020 18:39:18 10.6 C 28 %
2273 15-03-2020 18:49:17 10.4 C 28 %
2274 15-03-2020 18:59:17 10 C 28 %
2275 15-03-2020 19:09:18 9.6 C 30 %
Sensor: Nr:Datum:Temp:Feuchte:
Aussen-T/F 2276 15-03-2020 19:19:18 9.4 C 30 %
2277 15-03-2020 19:29:18 9.2 C 31 %
2278 15-03-2020 19:39:18 9.1 C 30 %
2279 15-03-2020 19:49:17 9 C 31 %
2280 15-03-2020 19:59:17 8.9 C 31 %
2281 15-03-2020 20:09:18 8.6 C 31 %
2282 15-03-2020 20:19:17 8.5 C 32 %
2283 15-03-2020 20:29:17 8.2 C 32 %
2284 15-03-2020 20:39:18 8.2 C 32 %
2285 15-03-2020 20:49:18 8 C 32 %
2286 15-03-2020 20:59:18 7.4 C 34 %
2287 15-03-2020 21:09:18 7.1 C 35 %
2288 15-03-2020 21:19:17 7 C 35 %
2289 15-03-2020 21:29:17 7.4 C 35 %
2290 15-03-2020 21:39:17 7.5 C 35 %
2291 15-03-2020 21:49:17 7.1 C 35 %
2292 15-03-2020 21:59:17 6.3 C 36 %
2293 15-03-2020 22:09:17 5.8 C 37 %
2294 15-03-2020 22:19:17 5.4 C 37 %
2295 15-03-2020 22:29:18 5 C 38 %
2296 15-03-2020 22:39:17 4.7 C 40 %
2297 15-03-2020 22:49:17 4.7 C 40 %
2298 15-03-2020 22:59:17 4.7 C 40 %
2299 15-03-2020 23:09:17 4.7 C 40 %
2300 15-03-2020 23:19:17 4.6 C 40 %
Sensor: Nr:Datum:Temp:Feuchte:
Aussen-T/F 2301 15-03-2020 23:29:17 4.5 C 40 %
2302 15-03-2020 23:39:17 4.5 C 40 %
2303 15-03-2020 23:49:17 4.3 C 40 %
2304 15-03-2020 23:59:17 4.1 C 40 %
2305 16-03-2020 00:09:17 4 C 40 %
2306 16-03-2020 00:19:17 3.8 C 41 %
2307 16-03-2020 00:29:17 3.4 C 41 %
2308 16-03-2020 00:39:17 3.4 C 42 %
2309 16-03-2020 00:49:17 3.3 C 42 %
2310 16-03-2020 00:59:17 3.3 C 42 %
2311 16-03-2020 01:09:18 2.9 C 43 %
2312 16-03-2020 01:19:17 3 C 43 %
2313 16-03-2020 01:29:17 3 C 42 %
2314 16-03-2020 01:39:17 3.2 C 42 %
2315 16-03-2020 01:49:18 2.8 C 43 %
2316 16-03-2020 01:59:18 2.6 C 44 %
2317 16-03-2020 02:09:17 2.7 C 45 %
2318 16-03-2020 02:19:17 2.7 C 44 %
2319 16-03-2020 02:29:17 2.4 C 44 %
2320 16-03-2020 02:39:17 2.6 C 45 %
2321 16-03-2020 02:49:17 2.8 C 45 %
2322 16-03-2020 02:59:17 2.8 C 44 %
2323 16-03-2020 03:09:18 2.2 C 44 %
2324 16-03-2020 03:19:17 2.3 C 44 %
2325 16-03-2020 03:29:17 2.2 C 45 %
Sensor: Nr:Datum:Temp:Feuchte:
Aussen-T/F 2326 16-03-2020 03:39:17 1.8 C 45 %
2327 16-03-2020 03:49:18 2 C 46 %
2328 16-03-2020 03:59:18 1.8 C 46 %
2329 16-03-2020 04:09:18 1.6 C 46 %
2330 16-03-2020 04:19:18 1.7 C 46 %
2331 16-03-2020 04:29:18 2 C 46 %
2332 16-03-2020 04:39:18 1.5 C 46 %
2333 16-03-2020 04:49:17 1.7 C 46 %
2334 16-03-2020 04:59:18 1.9 C 46 %
2335 16-03-2020 05:09:18 1.7 C 46 %
2336 16-03-2020 05:19:18 1.7 C 46 %
2337 16-03-2020 05:29:18 1.4 C 46 %
2338 16-03-2020 05:39:18 1.3 C 46 %
2339 16-03-2020 05:49:17 1.2 C 46 %
2340 16-03-2020 05:59:17 1.3 C 47 %
2341 16-03-2020 06:09:18 1.1 C 47 %
2342 16-03-2020 06:19:17 0.6 C 48 %
2343 16-03-2020 06:29:17 0.6 C 48 %
2344 16-03-2020 06:39:17 0.6 C 48 %
2345 16-03-2020 06:49:17 0.6 C 48 %
2346 16-03-2020 06:59:17 0.9 C 49 %
2347 16-03-2020 07:09:17 1.2 C 49 %
2348 16-03-2020 07:19:17 1.1 C 47 %
2349 16-03-2020 07:29:17 1 C 47 %
2350 16-03-2020 07:39:17 1.4 C 49 %
Sensor: Nr:Datum:Temp:Feuchte:
Aussen-T/F 2351 16-03-2020 07:49:17 1.4 C 48 %
2352 16-03-2020 07:59:17 1.7 C 48 %
2353 16-03-2020 08:09:18 2 C 47 %
2354 16-03-2020 08:19:17 2.3 C 47 %
2355 16-03-2020 08:29:18 2.4 C 46 %
2356 16-03-2020 08:39:18 2.4 C 46 %
2357 16-03-2020 08:49:17 2.6 C 46 %
2358 16-03-2020 08:59:17 2.9 C 47 %
2359 16-03-2020 09:09:18 3.4 C 46 %
2360 16-03-2020 09:19:18 3.7 C 45 %
2361 16-03-2020 09:29:18 4 C 45 %
2362 16-03-2020 09:39:18 4.6 C 44 %
2363 16-03-2020 09:49:18 5 C 43 %
2364 16-03-2020 09:59:18 5.6 C 42 %
2365 16-03-2020 10:09:18 6.6 C 41 %
2366 16-03-2020 10:19:18 7.3 C 40 %
2367 16-03-2020 10:29:18 8.3 C 39 %
2368 16-03-2020 10:39:17 9.3 C 38 %
2369 16-03-2020 10:49:18 10.4 C 37 %
2370 16-03-2020 10:59:18 12.4 C 34 %
2371 16-03-2020 11:09:17 13.3 C 32 %
2372 16-03-2020 11:19:17 14.3 C 30 %
2373 16-03-2020 11:29:17 15.4 C 27 %
2374 16-03-2020 11:39:18 15.7 C 26 %
2375 16-03-2020 11:49:17 15.6 C 25 %
Sensor: Nr:Datum:Temp:Feuchte:
Aussen-T/F 2376 16-03-2020 11:59:17 16.1 C 25 %
2377 16-03-2020 12:09:17 16.5 C 25 %
2378 16-03-2020 12:19:17 16.8 C 25 %
2379 16-03-2020 12:29:17 16.4 C 24 %
2380 16-03-2020 12:39:17 16.9 C 24 %
2381 16-03-2020 12:49:17 18.3 C 21 %
2382 16-03-2020 12:59:17 18.7 C 20 %
2383 16-03-2020 13:09:17 22.3 C 20 %
2384 16-03-2020 13:19:17 21.2 C 20 %
2385 16-03-2020 13:29:17 21.1 C 20 %
2386 16-03-2020 13:39:17 20.6 C 20 %
2387 16-03-2020 13:49:17 21.1 C 20 %
2388 16-03-2020 13:59:17 19.7 C 20 %
2389 16-03-2020 14:09:17 18.7 C 20 %
2390 16-03-2020 14:19:17 19.7 C 20 %
2391 16-03-2020 14:29:17 19.7 C 20 %
2392 16-03-2020 14:39:17 20 C 20 %
2393 16-03-2020 14:49:17 19.2 C 20 %
2394 16-03-2020 14:59:17 20.8 C 20 %
2395 16-03-2020 15:09:17 20 C 20 %
2396 16-03-2020 15:19:17 19.1 C 20 %
2397 16-03-2020 15:29:17 18.8 C 20 %
2398 16-03-2020 15:39:18 18.8 C 20 %
2399 16-03-2020 15:49:17 19 C 20 %
2400 16-03-2020 15:59:17 19 C 20 %
Sensor: Nr:Datum:Temp:Feuchte:
Aussen-T/F 2401 16-03-2020 16:09:18 18.7 C 20 %
2402 16-03-2020 16:19:18 19 C 20 %
2403 16-03-2020 16:29:18 21.4 C 20 %
2404 16-03-2020 16:39:17 20.8 C 20 %
2405 16-03-2020 16:49:17 20.2 C 20 %
2406 16-03-2020 16:59:17 19.4 C 20 %
2407 16-03-2020 17:09:17 18.4 C 20 %
2408 16-03-2020 17:19:17 17.9 C 20 %
2409 16-03-2020 17:29:18 17.7 C 20 %
2410 16-03-2020 17:39:18 17.5 C 20 %
2411 16-03-2020 17:49:17 16.8 C 21 %
2412 16-03-2020 17:59:18 16 C 23 %
2413 16-03-2020 18:09:18 15 C 26 %
2414 16-03-2020 18:19:18 14.3 C 27 %
2415 16-03-2020 18:29:18 13.7 C 29 %
2416 16-03-2020 18:39:18 13.1 C 30 %
2417 16-03-2020 18:49:18 12.7 C 31 %
2418 16-03-2020 18:59:18 12.4 C 32 %
2419 16-03-2020 19:09:18 12.1 C 32 %
2420 16-03-2020 19:19:18 12.2 C 32 %
2421 16-03-2020 19:29:18 12.2 C 32 %
2422 16-03-2020 19:39:18 11.9 C 34 %
2423 16-03-2020 19:49:17 11.5 C 34 %
2424 16-03-2020 19:59:18 11 C 35 %
2425 16-03-2020 20:09:18 10.7 C 36 %
Sensor: Nr:Datum:Temp:Feuchte:
Aussen-T/F 2426 16-03-2020 20:19:18 11.4 C 35 %
2427 16-03-2020 20:29:18 10.8 C 36 %
2428 16-03-2020 20:39:18 10.3 C 36 %
2429 16-03-2020 20:49:18 9.5 C 38 %
2430 16-03-2020 20:59:18 10.8 C 37 %
2431 16-03-2020 21:09:18 10.1 C 37 %
2432 16-03-2020 21:19:17 10.3 C 38 %
2433 16-03-2020 21:29:17 9.9 C 38 %
2434 16-03-2020 21:39:17 9.7 C 38 %
2435 16-03-2020 21:49:18 10.2 C 37 %
2436 16-03-2020 21:59:18 9.9 C 38 %
2437 16-03-2020 22:09:18 9.7 C 38 %
2438 16-03-2020 22:19:18 9.5 C 38 %
2439 16-03-2020 22:29:18 9.5 C 39 %
2440 16-03-2020 22:39:18 9.2 C 38 %
2441 16-03-2020 22:49:18 8.9 C 39 %
2442 16-03-2020 22:59:18 9.1 C 39 %
2443 16-03-2020 23:09:18 9.4 C 39 %
2444 16-03-2020 23:19:17 9.4 C 39 %
2445 16-03-2020 23:29:17 9.4 C 39 %
2446 16-03-2020 23:39:17 9.5 C 39 %
2447 16-03-2020 23:49:17 9.5 C 40 %
2448 16-03-2020 23:59:17 9.5 C 39 %
2449 17-03-2020 00:09:17 9.3 C 39 %
2450 17-03-2020 00:19:17 9.7 C 40 %
Sensor: Nr:Datum:Temp:Feuchte:
Aussen-T/F 2451 17-03-2020 00:29:17 9.5 C 39 %
2452 17-03-2020 00:39:18 9.3 C 39 %
2453 17-03-2020 00:49:18 9.1 C 40 %
2454 17-03-2020 00:59:18 9 C 40 %
2455 17-03-2020 01:09:18 9.3 C 40 %
2456 17-03-2020 01:19:17 9.2 C 40 %
2457 17-03-2020 01:29:17 8.9 C 40 %
2458 17-03-2020 01:39:17 8.7 C 41 %
2459 17-03-2020 01:49:18 8.8 C 41 %
2460 17-03-2020 01:59:18 8.8 C 41 %
2461 17-03-2020 02:09:18 8.7 C 41 %
2462 17-03-2020 02:19:17 8.7 C 41 %
2463 17-03-2020 02:29:17 8.7 C 41 %
2464 17-03-2020 02:39:17 8.9 C 41 %
2465 17-03-2020 02:49:17 8.9 C 41 %
2466 17-03-2020 02:59:17 8.8 C 41 %
2467 17-03-2020 03:09:18 8.6 C 41 %
2468 17-03-2020 03:19:18 8.6 C 41 %
2469 17-03-2020 03:29:18 8.4 C 41 %
2470 17-03-2020 03:39:17 8.3 C 41 %
2471 17-03-2020 03:49:18 8.1 C 42 %
2472 17-03-2020 03:59:18 8 C 41 %
2473 17-03-2020 04:09:18 8.9 C 42 %
2474 17-03-2020 04:19:18 9.2 C 40 %
2475 17-03-2020 04:29:18 9.3 C 40 %
Sensor: Nr:Datum:Temp:Feuchte:
Aussen-T/F 2476 17-03-2020 04:39:17 9 C 40 %
2477 17-03-2020 04:49:18 9 C 40 %
2478 17-03-2020 04:59:18 8.6 C 41 %
2479 17-03-2020 05:09:17 8.9 C 41 %
2480 17-03-2020 05:19:17 9 C 40 %
2481 17-03-2020 05:29:17 8.6 C 41 %
2482 17-03-2020 05:39:17 8.3 C 41 %
2483 17-03-2020 05:49:17 8.2 C 41 %
2484 17-03-2020 05:59:18 8.2 C 41 %
2485 17-03-2020 06:09:18 8.1 C 41 %
2486 17-03-2020 06:19:18 8.1 C 41 %
2487 17-03-2020 06:29:18 8 C 41 %
2488 17-03-2020 06:39:18 8.2 C 41 %
2489 17-03-2020 06:49:18 8.1 C 41 %
2490 17-03-2020 06:59:18 8.2 C 41 %
2491 17-03-2020 07:09:17 8.8 C 40 %
2492 17-03-2020 07:19:17 9 C 40 %
2493 17-03-2020 07:29:17 9.5 C 39 %
2494 17-03-2020 07:39:17 9.6 C 39 %
2495 17-03-2020 07:49:18 9.6 C 39 %
2496 17-03-2020 07:59:18 9.8 C 38 %
2497 17-03-2020 08:09:18 10.1 C 37 %
2498 17-03-2020 08:19:17 10 C 37 %
2499 17-03-2020 08:29:17 9.8 C 38 %
2500 17-03-2020 08:39:17 9.9 C 38 %
Sensor: Nr:Datum:Temp:Feuchte:
Aussen-T/F 2501 17-03-2020 08:49:17 9.9 C 38 %
2502 17-03-2020 08:59:17 10 C 37 %
2503 17-03-2020 09:09:17 10.2 C 37 %
2504 17-03-2020 09:19:18 10.4 C 37 %
2505 17-03-2020 09:29:18 10.4 C 37 %
2506 17-03-2020 09:39:18 10.6 C 37 %
2507 17-03-2020 09:49:17 10.6 C 37 %
2508 17-03-2020 09:59:17 10.7 C 37 %
2509 17-03-2020 10:09:17 10.7 C 37 %
2510 17-03-2020 10:19:17 10.9 C 36 %
2511 17-03-2020 10:29:17 11 C 35 %
2512 17-03-2020 10:39:17 11.7 C 35 %
2513 17-03-2020 10:49:17 12.4 C 33 %
2514 17-03-2020 10:59:17 12.9 C 33 %
2515 17-03-2020 11:09:17 13.1 C 32 %
2516 17-03-2020 11:19:17 13.3 C 31 %
2517 17-03-2020 11:29:17 13.3 C 31 %
2518 17-03-2020 11:39:17 14.7 C 30 %
2519 17-03-2020 11:49:17 14.1 C 29 %
2520 17-03-2020 11:59:17 15.4 C 28 %
2521 17-03-2020 12:09:17 14.5 C 29 %
2522 17-03-2020 12:19:18 14.6 C 27 %
2523 17-03-2020 12:29:18 15.2 C 26 %
2524 17-03-2020 12:39:18 16.5 C 26 %
2525 17-03-2020 12:49:18 16.6 C 24 %
Sensor: Nr:Datum:Temp:Feuchte:
Aussen-T/F 2526 17-03-2020 12:59:18 19.3 C 20 %
2527 17-03-2020 13:09:17 18.8 C 20 %
2528 17-03-2020 13:19:17 20.4 C 20 %
2529 17-03-2020 13:29:17 19.5 C 20 %
2530 17-03-2020 13:39:17 18.5 C 20 %
2531 17-03-2020 13:49:18 18.8 C 20 %
2532 17-03-2020 13:59:18 19.3 C 20 %
2533 17-03-2020 14:09:17 18.3 C 20 %
2534 17-03-2020 14:19:17 18.5 C 20 %
2535 17-03-2020 14:29:17 17.9 C 20 %
2536 17-03-2020 14:39:18 17.1 C 20 %
2537 17-03-2020 14:49:18 20.5 C 20 %
2538 17-03-2020 14:59:18 22.2 C 20 %
2539 17-03-2020 15:09:17 22.5 C 20 %
2540 17-03-2020 15:19:17 22.1 C 20 %
2541 17-03-2020 15:29:17 23.8 C 20 %
2542 17-03-2020 15:39:18 23.6 C 20 %
2543 17-03-2020 15:49:17 23.8 C 20 %
2544 17-03-2020 15:59:17 23.9 C 20 %
2545 17-03-2020 16:09:18 23.3 C 20 %
2546 17-03-2020 16:19:18 21.8 C 20 %
2547 17-03-2020 16:29:18 23.2 C 20 %
2548 17-03-2020 16:39:17 21.4 C 20 %
2549 17-03-2020 16:49:17 22.3 C 20 %
2550 17-03-2020 16:59:17 20.1 C 20 %
Sensor: Nr:Datum:Temp:Feuchte:
Aussen-T/F 2551 17-03-2020 17:09:17 18.7 C 20 %
2552 17-03-2020 17:19:18 17.7 C 20 %
2553 17-03-2020 17:29:18 17.3 C 20 %
2554 17-03-2020 17:39:18 16.8 C 20 %
2555 17-03-2020 17:49:17 16.1 C 22 %
2556 17-03-2020 17:59:18 15.3 C 24 %
2557 17-03-2020 18:09:18 14.1 C 27 %
2558 17-03-2020 18:19:17 13.5 C 28 %
2559 17-03-2020 18:29:17 13.2 C 29 %
2560 17-03-2020 18:39:18 12.8 C 30 %
2561 17-03-2020 18:49:18 12.4 C 31 %
2562 17-03-2020 18:59:18 12 C 31 %
2563 17-03-2020 19:09:18 11.9 C 32 %
2564 17-03-2020 19:19:17 11.8 C 32 %
2565 17-03-2020 19:29:17 11.1 C 33 %
2566 17-03-2020 19:39:17 11 C 34 %
2567 17-03-2020 19:49:17 10.4 C 35 %
2568 17-03-2020 19:59:17 10.2 C 35 %
2569 17-03-2020 20:09:17 9.9 C 36 %
2570 17-03-2020 20:19:17 10.1 C 36 %
2571 17-03-2020 20:29:17 10.7 C 35 %
2572 17-03-2020 20:39:18 10.4 C 35 %
2573 17-03-2020 20:49:18 9.6 C 37 %
2574 17-03-2020 20:59:18 9.5 C 37 %
2575 17-03-2020 21:09:18 9 C 37 %
Sensor: Nr:Datum:Temp:Feuchte:
Aussen-T/F 2576 17-03-2020 21:19:17 8.4 C 39 %
2577 17-03-2020 21:29:17 8.4 C 39 %
2578 17-03-2020 21:39:17 8.1 C 39 %
2579 17-03-2020 21:49:18 8 C 40 %
2580 17-03-2020 21:59:18 7.6 C 40 %
2581 17-03-2020 22:09:18 7.3 C 40 %
2582 17-03-2020 22:19:18 7.2 C 41 %
2583 17-03-2020 22:29:18 7 C 41 %
2584 17-03-2020 22:39:17 6.9 C 41 %
2585 17-03-2020 22:49:17 6.7 C 42 %
2586 17-03-2020 22:59:17 6.5 C 42 %
2587 17-03-2020 23:09:17 6.4 C 42 %
2588 17-03-2020 23:19:17 6.3 C 42 %
2589 17-03-2020 23:29:17 6.1 C 42 %
2590 17-03-2020 23:39:18 6.1 C 42 %
2591 17-03-2020 23:49:18 6.2 C 43 %
2592 17-03-2020 23:59:18 6.3 C 43 %
2593 18-03-2020 00:09:17 5.9 C 43 %
2594 18-03-2020 00:19:17 5.8 C 44 %
2595 18-03-2020 00:29:17 5.9 C 44 %
2596 18-03-2020 00:39:17 5.8 C 44 %
2597 18-03-2020 00:49:17 6 C 44 %
2598 18-03-2020 00:59:17 6 C 43 %
2599 18-03-2020 01:09:17 5.7 C 44 %
2600 18-03-2020 01:19:17 5.6 C 44 %
Sensor: Nr:Datum:Temp:Feuchte:
Aussen-T/F 2601 18-03-2020 01:29:17 5.3 C 44 %
2602 18-03-2020 01:39:17 5.6 C 45 %
2603 18-03-2020 01:49:17 5.3 C 45 %
2604 18-03-2020 01:59:17 5.6 C 46 %
2605 18-03-2020 02:09:17 5.1 C 44 %
2606 18-03-2020 02:19:17 4.8 C 45 %
2607 18-03-2020 02:29:17 4.8 C 45 %
2608 18-03-2020 02:39:17 4.6 C 46 %
2609 18-03-2020 02:49:18 4.3 C 46 %
2610 18-03-2020 02:59:18 4.3 C 46 %
2611 18-03-2020 03:09:18 4.2 C 46 %
2612 18-03-2020 03:19:17 4.2 C 46 %
2613 18-03-2020 03:29:17 4.1 C 46 %
2614 18-03-2020 03:39:17 4 C 46 %
2615 18-03-2020 03:49:17 3.8 C 47 %
2616 18-03-2020 03:59:17 3.8 C 47 %
2617 18-03-2020 04:09:17 3.8 C 47 %
2618 18-03-2020 04:19:18 3.8 C 47 %
2619 18-03-2020 04:29:18 3.7 C 47 %
2620 18-03-2020 04:39:18 3.7 C 47 %
2621 18-03-2020 04:49:18 3.6 C 47 %
2622 18-03-2020 04:59:18 3.6 C 47 %
2623 18-03-2020 05:09:18 3.7 C 48 %
2624 18-03-2020 05:19:18 3.8 C 48 %
2625 18-03-2020 05:29:18 3.3 C 47 %
Sensor: Nr:Datum:Temp:Feuchte:
Aussen-T/F 2626 18-03-2020 05:39:18 3.2 C 47 %
2627 18-03-2020 05:49:18 3.3 C 47 %
2628 18-03-2020 05:59:18 3.1 C 47 %
2629 18-03-2020 06:09:18 2.9 C 48 %
2630 18-03-2020 06:19:17 3.3 C 47 %
2631 18-03-2020 06:29:18 3.1 C 47 %
2632 18-03-2020 06:39:18 3.1 C 47 %
2633 18-03-2020 06:49:17 3.1 C 47 %
2634 18-03-2020 06:59:18 3.6 C 47 %
2635 18-03-2020 07:09:18 3.5 C 47 %
2636 18-03-2020 07:19:17 3.4 C 47 %
2637 18-03-2020 07:29:17 3.7 C 47 %
2638 18-03-2020 07:39:17 3.9 C 47 %
2639 18-03-2020 07:49:18 4 C 46 %
2640 18-03-2020 07:59:18 4.9 C 46 %
2641 18-03-2020 08:09:18 4.6 C 46 %
2642 18-03-2020 08:19:18 4.5 C 46 %
2643 18-03-2020 08:29:18 4.7 C 46 %
2644 18-03-2020 08:39:17 5 C 45 %
2645 18-03-2020 08:49:18 5.3 C 46 %
2646 18-03-2020 08:59:18 5.6 C 46 %
2647 18-03-2020 09:09:17 6.7 C 45 %
2648 18-03-2020 09:19:17 7.1 C 45 %
2649 18-03-2020 09:29:17 8.5 C 45 %
2650 18-03-2020 09:39:17 9.7 C 41 %
Sensor: Nr:Datum:Temp:Feuchte:
Aussen-T/F 2651 18-03-2020 09:49:18 10.5 C 40 %
2652 18-03-2020 09:59:18 11 C 38 %
2653 18-03-2020 10:09:18 11.1 C 38 %
2654 18-03-2020 10:19:18 11.6 C 38 %
2655 18-03-2020 10:29:18 11.6 C 37 %
2656 18-03-2020 10:39:18 11.7 C 38 %
2657 18-03-2020 10:49:18 12 C 36 %
2658 18-03-2020 10:59:18 12.2 C 35 %
2659 18-03-2020 11:09:18 12.7 C 35 %
2660 18-03-2020 11:19:18 12.8 C 34 %
2661 18-03-2020 11:29:18 13.3 C 34 %
2662 18-03-2020 11:39:18 13.9 C 33 %
2663 18-03-2020 11:49:17 14.7 C 32 %
2664 18-03-2020 11:59:17 15.3 C 30 %
2665 18-03-2020 12:09:18 15.8 C 30 %
2666 18-03-2020 12:19:17 16.6 C 29 %
2667 18-03-2020 12:29:18 17 C 27 %
2668 18-03-2020 12:39:18 17.8 C 26 %
2669 18-03-2020 12:49:17 19.1 C 25 %
2670 18-03-2020 12:59:17 19.8 C 20 %
2671 18-03-2020 13:09:17 21 C 20 %
2672 18-03-2020 13:19:17 21.2 C 20 %
2673 18-03-2020 13:29:17 19.5 C 20 %
2674 18-03-2020 13:39:18 17.7 C 20 %
2675 18-03-2020 13:49:17 16.6 C 22 %
Sensor: Nr:Datum:Temp:Feuchte:
Aussen-T/F 2676 18-03-2020 13:59:17 16 C 22 %
2677 18-03-2020 14:09:17 17.6 C 21 %
2678 18-03-2020 14:19:17 16.7 C 20 %
2679 18-03-2020 14:29:17 17.9 C 20 %
2680 18-03-2020 14:39:18 18.5 C 20 %
2681 18-03-2020 14:49:17 17.4 C 20 %
2682 18-03-2020 14:59:17 17.4 C 20 %
2683 18-03-2020 15:09:17 20.6 C 20 %
2684 18-03-2020 15:19:18 17.9 C 20 %
2685 18-03-2020 15:29:18 18.2 C 20 %
2686 18-03-2020 15:39:18 17.7 C 20 %
2687 18-03-2020 15:49:17 16.9 C 20 %
2688 18-03-2020 15:59:17 16.7 C 21 %
2689 18-03-2020 16:09:17 16.4 C 21 %
2690 18-03-2020 16:19:17 16.4 C 22 %
2691 18-03-2020 16:29:17 16.4 C 20 %
2692 18-03-2020 16:39:17 16.5 C 20 %
2693 18-03-2020 16:49:18 16.2 C 21 %
2694 18-03-2020 16:59:18 16.1 C 21 %
2695 18-03-2020 17:09:17 16 C 21 %
2696 18-03-2020 17:19:17 16 C 21 %
2697 18-03-2020 17:29:17 15.7 C 22 %
2698 18-03-2020 17:39:18 16 C 20 %
2699 18-03-2020 17:49:17 16.3 C 20 %
2700 18-03-2020 17:59:17 15.8 C 22 %
Sensor: Nr:Datum:Temp:Feuchte:
Aussen-T/F 2701 18-03-2020 18:09:17 15.4 C 22 %
2702 18-03-2020 18:19:17 14.7 C 26 %
2703 18-03-2020 18:29:17 13.7 C 26 %
2704 18-03-2020 18:39:17 13.3 C 28 %
2705 18-03-2020 18:49:17 12.7 C 30 %
2706 18-03-2020 18:59:17 12 C 31 %
2707 18-03-2020 19:09:17 11.7 C 32 %
2708 18-03-2020 19:19:18 11.5 C 32 %
2709 18-03-2020 19:29:18 10.5 C 34 %
2710 18-03-2020 19:39:18 10.9 C 34 %
2711 18-03-2020 19:49:18 11.1 C 34 %
2712 18-03-2020 19:59:18 10.9 C 35 %
2713 18-03-2020 20:09:18 10.6 C 35 %
2714 18-03-2020 20:19:17 10.4 C 35 %
2715 18-03-2020 20:29:17 10.4 C 35 %
2716 18-03-2020 20:39:18 10 C 36 %
2717 18-03-2020 20:49:17 9.7 C 37 %
2718 18-03-2020 20:59:17 9.7 C 37 %
2719 18-03-2020 21:09:18 9.7 C 37 %
2720 18-03-2020 21:19:17 9.6 C 37 %
2721 18-03-2020 21:29:17 9.4 C 37 %
2722 18-03-2020 21:39:17 9 C 37 %
2723 18-03-2020 21:49:17 8.7 C 38 %
2724 18-03-2020 21:59:17 8.4 C 39 %
2725 18-03-2020 22:09:17 8.2 C 39 %
Sensor: Nr:Datum:Temp:Feuchte:
Aussen-T/F 2726 18-03-2020 22:19:17 8.1 C 40 %
2727 18-03-2020 22:29:17 8 C 40 %
2728 18-03-2020 22:39:17 8 C 40 %
2729 18-03-2020 22:49:17 8.1 C 40 %
2730 18-03-2020 22:59:17 8.2 C 40 %
2731 18-03-2020 23:09:18 8.3 C 40 %
2732 18-03-2020 23:19:17 8.1 C 40 %
2733 18-03-2020 23:29:17 8 C 40 %
2734 18-03-2020 23:39:18 8 C 40 %
2735 18-03-2020 23:49:18 8.4 C 40 %
2736 18-03-2020 23:59:18 8.9 C 40 %
2737 19-03-2020 00:09:17 8.9 C 39 %
2738 19-03-2020 00:19:18 8.9 C 38 %
2739 19-03-2020 00:29:18 9 C 38 %
2740 19-03-2020 00:39:18 9 C 38 %
2741 19-03-2020 00:49:17 9.1 C 38 %
2742 19-03-2020 00:59:17 9.1 C 38 %
2743 19-03-2020 01:09:18 9 C 38 %
2744 19-03-2020 01:19:17 9.1 C 38 %
2745 19-03-2020 01:29:17 9 C 38 %
2746 19-03-2020 01:39:17 9 C 38 %
2747 19-03-2020 01:49:17 8.9 C 38 %
2748 19-03-2020 01:59:17 8.8 C 39 %
2749 19-03-2020 02:09:18 8.7 C 39 %
2750 19-03-2020 02:19:17 8.7 C 39 %
Sensor: Nr:Datum:Temp:Feuchte:
Aussen-T/F 2751 19-03-2020 02:29:17 8.6 C 39 %
2752 19-03-2020 02:39:17 8.5 C 39 %
2753 19-03-2020 02:49:18 8.5 C 39 %
2754 19-03-2020 02:59:18 8.5 C 39 %
2755 19-03-2020 03:09:18 8.5 C 39 %
2756 19-03-2020 03:19:18 8.6 C 39 %
2757 19-03-2020 03:29:18 8.5 C 39 %
2758 19-03-2020 03:39:17 8.5 C 39 %
2759 19-03-2020 03:49:18 8.4 C 39 %
2760 19-03-2020 03:59:18 8.4 C 40 %
2761 19-03-2020 04:09:18 8.4 C 40 %
2762 19-03-2020 04:19:17 8.5 C 40 %
2763 19-03-2020 04:29:17 8.5 C 39 %
2764 19-03-2020 04:39:17 8.5 C 39 %
2765 19-03-2020 04:49:18 8.5 C 39 %
2766 19-03-2020 04:59:18 8.5 C 39 %
2767 19-03-2020 05:09:18 8.6 C 39 %
2768 19-03-2020 05:19:18 8.9 C 38 %
2769 19-03-2020 05:29:18 8.7 C 39 %
2770 19-03-2020 05:39:18 8.6 C 39 %
2771 19-03-2020 05:49:17 8.5 C 39 %
2772 19-03-2020 05:59:18 8.4 C 39 %
2773 19-03-2020 06:09:18 8.4 C 39 %
2774 19-03-2020 06:19:17 8.3 C 40 %
2775 19-03-2020 06:29:17 8.2 C 39 %
Sensor: Nr:Datum:Temp:Feuchte:
Aussen-T/F 2776 19-03-2020 06:39:17 8.1 C 40 %
2777 19-03-2020 06:49:17 8.1 C 40 %
2778 19-03-2020 06:59:17 8.2 C 40 %
2779 19-03-2020 07:09:17 8.2 C 40 %
2780 19-03-2020 07:19:17 8.5 C 40 %
2781 19-03-2020 07:29:17 8.7 C 39 %
2782 19-03-2020 07:39:18 8.9 C 39 %
2783 19-03-2020 07:49:18 9.1 C 38 %
2784 19-03-2020 07:59:18 9.4 C 38 %
2785 19-03-2020 08:09:18 9.7 C 38 %
2786 19-03-2020 08:19:17 9.9 C 37 %
2787 19-03-2020 08:29:17 9.9 C 37 %
2788 19-03-2020 08:39:17 10.5 C 36 %
2789 19-03-2020 08:49:18 10.4 C 36 %
2790 19-03-2020 08:59:18 10.2 C 36 %
2791 19-03-2020 09:09:17 11.2 C 35 %
2792 19-03-2020 09:19:17 11.7 C 35 %
2793 19-03-2020 09:29:17 11.5 C 35 %
2794 19-03-2020 09:39:18 11.8 C 35 %
2795 19-03-2020 09:49:17 11.6 C 35 %
2796 19-03-2020 09:59:17 12.4 C 33 %
2797 19-03-2020 10:09:18 12.3 C 32 %
2798 19-03-2020 10:19:18 13.1 C 31 %
2799 19-03-2020 10:29:18 13.5 C 30 %
2800 19-03-2020 10:39:17 13.9 C 31 %
Sensor: Nr:Datum:Temp:Feuchte:
Aussen-T/F 2801 19-03-2020 10:49:17 14.2 C 30 %
2802 19-03-2020 10:59:17 15.4 C 29 %
2803 19-03-2020 11:09:17 15.5 C 29 %
2804 19-03-2020 11:19:17 16.4 C 26 %
2805 19-03-2020 11:29:17 17.7 C 26 %
2806 19-03-2020 11:39:17 18.5 C 24 %
2807 19-03-2020 11:49:17 15.8 C 26 %
2808 19-03-2020 11:59:17 15 C 28 %
2809 19-03-2020 12:09:17 15.2 C 28 %
2810 19-03-2020 12:19:17 15.5 C 28 %
2811 19-03-2020 12:29:17 16.8 C 26 %
2812 19-03-2020 12:39:18 18.1 C 22 %
2813 19-03-2020 12:49:17 18.6 C 20 %
2814 19-03-2020 12:59:17 17.9 C 20 %
2815 19-03-2020 13:09:18 20.4 C 20 %
2816 19-03-2020 13:19:18 25.8 C 20 %
2817 19-03-2020 13:29:18 25.6 C 20 %
2818 19-03-2020 13:39:18 19.7 C 20 %
2819 19-03-2020 13:49:17 18.8 C 20 %
2820 19-03-2020 13:59:17 18.2 C 20 %
2821 19-03-2020 14:09:17 18.7 C 20 %
2822 19-03-2020 14:19:17 18.9 C 20 %
2823 19-03-2020 14:29:17 18.8 C 20 %
2824 19-03-2020 14:39:17 18.9 C 20 %
2825 19-03-2020 14:49:17 19.3 C 20 %
Sensor: Nr:Datum:Temp:Feuchte:
Aussen-T/F 2826 19-03-2020 14:59:17 19.1 C 20 %
2827 19-03-2020 15:09:18 18.5 C 20 %
2828 19-03-2020 15:19:18 19.1 C 20 %
2829 19-03-2020 15:29:18 19.3 C 20 %
2830 19-03-2020 15:39:18 19.8 C 20 %
2831 19-03-2020 15:49:17 21.8 C 20 %
2832 19-03-2020 15:59:18 19.5 C 20 %
2833 19-03-2020 16:09:18 19.1 C 20 %
2834 19-03-2020 16:20:17 19.1 C 20 %
2835 19-03-2020 16:29:17 19.1 C 20 %
2836 19-03-2020 16:39:17 19.1 C 20 %
2837 19-03-2020 16:49:17 19.1 C 20 %
2838 19-03-2020 16:59:17 18.4 C 20 %
2839 19-03-2020 17:09:18 17.6 C 20 %
2840 19-03-2020 17:19:18 17.3 C 20 %
2841 19-03-2020 17:29:18 17 C 20 %
2842 19-03-2020 17:39:18 16.8 C 20 %
2843 19-03-2020 17:49:18 16.9 C 20 %
2844 19-03-2020 17:59:18 16.7 C 20 %
2845 19-03-2020 18:09:18 16.3 C 20 %
2846 19-03-2020 18:20:17 15.7 C 23 %
2847 19-03-2020 18:30:17 13.9 C 29 %
2848 19-03-2020 18:40:17 13.5 C 30 %
2849 19-03-2020 18:50:17 12.8 C 31 %
2850 19-03-2020 18:59:18 12.7 C 31 %
Sensor: Nr:Datum:Temp:Feuchte:
Aussen-T/F 2851 19-03-2020 19:09:18 12.3 C 31 %
2852 19-03-2020 19:20:17 12.2 C 31 %
2853 19-03-2020 19:30:17 11.9 C 32 %
2854 19-03-2020 19:40:17 11.7 C 32 %
2855 19-03-2020 19:50:17 11.7 C 33 %
2856 19-03-2020 19:59:17 11.7 C 33 %
2857 19-03-2020 20:09:17 11.7 C 33 %
2858 19-03-2020 20:29:17 11.5 C 34 %
2859 19-03-2020 20:29:17 11.6 C 34 %
2860 19-03-2020 20:39:17 12 C 33 %
2861 19-03-2020 20:49:17 11.8 C 34 %
2862 19-03-2020 20:59:17 11.5 C 35 %
2863 19-03-2020 21:09:18 12 C 33 %
2864 19-03-2020 21:20:17 11.4 C 35 %
2865 19-03-2020 21:30:17 11.3 C 35 %
2866 19-03-2020 21:40:17 10.3 C 36 %
2867 19-03-2020 21:50:17 10.7 C 36 %
2868 19-03-2020 21:59:18 10.6 C 36 %
2869 19-03-2020 22:09:18 10.1 C 37 %
2870 19-03-2020 22:19:18 9.7 C 38 %
2871 19-03-2020 22:29:18 9.8 C 38 %
2872 19-03-2020 22:39:18 9.5 C 39 %
2873 19-03-2020 22:49:18 9.4 C 39 %
2874 19-03-2020 22:59:18 9.5 C 38 %
2875 19-03-2020 23:09:18 9.5 C 38 %
Sensor: Nr:Datum:Temp:Feuchte:
Aussen-T/F 2876 19-03-2020 23:20:17 9.4 C 39 %
2877 19-03-2020 23:30:17 9.2 C 39 %
2878 19-03-2020 23:40:17 9.6 C 38 %
2879 19-03-2020 23:50:17 9.1 C 39 %
2880 19-03-2020 23:59:18 8.7 C 40 %
2881 20-03-2020 00:09:18 8.6 C 40 %
2882 20-03-2020 00:19:18 9.3 C 39 %
2883 20-03-2020 00:29:18 9.1 C 39 %
2884 20-03-2020 00:39:18 9 C 39 %
2885 20-03-2020 00:59:17 8.8 C 40 %
2886 20-03-2020 01:00:18 8.8 C 40 %
2887 20-03-2020 01:10:18 8.7 C 40 %
2888 20-03-2020 01:20:17 8.7 C 40 %
2889 20-03-2020 01:30:18 8.6 C 40 %
2890 20-03-2020 01:40:18 8.4 C 40 %
2891 20-03-2020 01:50:17 8.5 C 40 %
2892 20-03-2020 02:00:18 8.3 C 40 %
2893 20-03-2020 02:10:18 7.9 C 40 %
2894 20-03-2020 02:20:17 7.6 C 41 %
2895 20-03-2020 02:30:17 7.4 C 41 %
2896 20-03-2020 02:40:17 7.4 C 41 %
2897 20-03-2020 02:50:17 7.1 C 41 %
2898 20-03-2020 03:00:17 7.1 C 42 %
2899 20-03-2020 03:10:17 7.1 C 42 %
2900 20-03-2020 03:20:17 7.1 C 42 %
Sensor: Nr:Datum:Temp:Feuchte:
Aussen-T/F 2901 20-03-2020 03:30:18 7.2 C 42 %
2902 20-03-2020 03:40:18 7.3 C 42 %
2903 20-03-2020 03:50:17 7.5 C 42 %
2904 20-03-2020 04:00:18 7.5 C 42 %
2905 20-03-2020 04:10:18 7.7 C 42 %
2906 20-03-2020 04:20:18 7.6 C 41 %
2907 20-03-2020 04:30:18 7.4 C 42 %
2908 20-03-2020 04:40:18 7.2 C 42 %
2909 20-03-2020 04:50:17 7 C 42 %
2910 20-03-2020 05:00:18 6.9 C 43 %
2911 20-03-2020 05:10:18 6.8 C 43 %
2912 20-03-2020 05:20:17 6.5 C 43 %
2913 20-03-2020 05:30:17 6.2 C 43 %
2914 20-03-2020 05:40:17 5.9 C 44 %
2915 20-03-2020 05:50:17 5.6 C 44 %
2916 20-03-2020 06:00:17 5.4 C 45 %
2917 20-03-2020 06:10:17 5.2 C 45 %
2918 20-03-2020 06:20:17 5 C 45 %
2919 20-03-2020 06:30:17 5.1 C 46 %
2920 20-03-2020 06:40:17 5 C 46 %
2921 20-03-2020 06:50:17 5 C 46 %
2922 20-03-2020 07:00:17 5.1 C 46 %
2923 20-03-2020 07:10:17 5.3 C 46 %
2924 20-03-2020 07:20:17 5.5 C 46 %
2925 20-03-2020 07:30:17 5.6 C 46 %
Sensor: Nr:Datum:Temp:Feuchte:
Aussen-T/F 2926 20-03-2020 07:40:17 5.7 C 46 %
2927 20-03-2020 07:50:18 5.8 C 46 %
2928 20-03-2020 08:00:17 6.3 C 46 %
2929 20-03-2020 08:10:17 6.9 C 45 %
2930 20-03-2020 08:20:17 7.2 C 43 %
2931 20-03-2020 08:30:17 7.1 C 43 %
2932 20-03-2020 08:40:17 7.1 C 43 %
2933 20-03-2020 08:50:17 7.3 C 43 %
2934 20-03-2020 09:00:17 8 C 43 %
2935 20-03-2020 09:10:17 8.2 C 42 %
2936 20-03-2020 09:20:17 9.6 C 42 %
2937 20-03-2020 09:30:17 10 C 40 %
2938 20-03-2020 09:40:17 10.2 C 40 %
2939 20-03-2020 09:50:17 10.5 C 39 %
2940 20-03-2020 10:00:18 10.8 C 39 %
2941 20-03-2020 10:10:18 11.2 C 38 %
2942 20-03-2020 10:20:18 11.1 C 37 %
2943 20-03-2020 10:30:18 11 C 37 %
2944 20-03-2020 10:40:18 11.5 C 37 %
2945 20-03-2020 10:50:18 12.6 C 36 %
2946 20-03-2020 11:00:17 13.1 C 35 %
2947 20-03-2020 11:10:18 13.1 C 35 %
2948 20-03-2020 11:20:18 14.2 C 33 %
2949 20-03-2020 11:30:18 14.5 C 32 %
2950 20-03-2020 11:40:18 15.3 C 31 %
Sensor: Nr:Datum:Temp:Feuchte:
Aussen-T/F 2951 20-03-2020 11:50:18 14.6 C 32 %
2952 20-03-2020 12:00:17 15.6 C 31 %
2953 20-03-2020 12:10:17 15.4 C 30 %
2954 20-03-2020 12:20:17 15.6 C 30 %
2955 20-03-2020 12:30:18 14.4 C 31 %
2956 20-03-2020 12:40:18 14.9 C 31 %
2957 20-03-2020 12:50:18 14.9 C 31 %
2958 20-03-2020 13:00:18 14.9 C 31 %
2959 20-03-2020 13:10:18 14.9 C 31 %
2960 20-03-2020 13:20:18 14.9 C 31 %
2961 20-03-2020 13:30:18 14.9 C 31 %
2962 20-03-2020 13:40:18 14.9 C 31 %
2963 20-03-2020 13:50:17 16.4 C 26 %
2964 20-03-2020 14:00:17 16.2 C 27 %
2965 20-03-2020 14:10:17 16.6 C 26 %
2966 20-03-2020 14:20:17 16.2 C 27 %
2967 20-03-2020 14:30:18 17.4 C 26 %
2968 20-03-2020 14:40:18 17.3 C 26 %
2969 20-03-2020 14:50:18 17.9 C 25 %
2970 20-03-2020 15:00:17 17.9 C 25 %
2971 20-03-2020 15:10:17 18.1 C 25 %
2972 20-03-2020 15:20:17 17 C 25 %
2973 20-03-2020 15:30:18 17.9 C 25 %
2974 20-03-2020 15:40:18 18.5 C 25 %
2975 20-03-2020 15:50:18 17 C 25 %
Sensor: Nr:Datum:Temp:Feuchte:
Aussen-T/F 2976 20-03-2020 16:00:17 16.2 C 26 %
2977 20-03-2020 16:10:17 16.1 C 26 %
2978 20-03-2020 16:20:17 15.5 C 26 %
2979 20-03-2020 16:30:18 15.8 C 26 %
2980 20-03-2020 16:40:18 15.3 C 26 %
2981 20-03-2020 16:50:18 17 C 25 %
2982 20-03-2020 17:00:18 16.1 C 26 %
2983 20-03-2020 17:10:18 15.2 C 27 %
2984 20-03-2020 17:20:18 14.3 C 28 %
2985 20-03-2020 17:30:18 13.9 C 30 %
2986 20-03-2020 17:40:18 12.8 C 31 %
2987 20-03-2020 17:50:17 12.5 C 31 %
2988 20-03-2020 18:00:17 12.4 C 32 %
2989 20-03-2020 18:10:17 11.9 C 33 %
2990 20-03-2020 18:20:17 11.8 C 34 %
2991 20-03-2020 18:30:17 11.6 C 34 %
2992 20-03-2020 18:40:17 11.6 C 34 %
2993 20-03-2020 18:50:18 11.5 C 34 %
2994 20-03-2020 19:00:17 11.5 C 34 %
2995 20-03-2020 19:10:17 11.3 C 34 %
2996 20-03-2020 19:20:17 11.1 C 34 %
2997 20-03-2020 19:30:17 11 C 35 %
2998 20-03-2020 19:40:17 10.7 C 35 %
2999 20-03-2020 19:50:17 10.6 C 35 %
3000 20-03-2020 20:00:17 10.4 C 35 %
Sensor: Nr:Datum:Temp:Feuchte:
Aussen-T/F 3001 20-03-2020 20:10:17 10.2 C 35 %
3002 20-03-2020 20:20:17 10.3 C 35 %
3003 20-03-2020 20:30:17 10.3 C 35 %
3004 20-03-2020 20:40:17 10.2 C 35 %
3005 20-03-2020 20:50:18 10.3 C 35 %
3006 20-03-2020 21:00:18 10.1 C 35 %
3007 20-03-2020 21:10:18 9.9 C 35 %
3008 20-03-2020 21:20:17 9.5 C 35 %
3009 20-03-2020 21:30:17 9.2 C 35 %
3010 20-03-2020 21:40:17 9.1 C 35 %
3011 20-03-2020 21:50:17 8.7 C 36 %
3012 20-03-2020 22:00:17 8.5 C 36 %
3013 20-03-2020 22:10:17 8.4 C 36 %
3014 20-03-2020 22:20:18 8.3 C 36 %
3015 20-03-2020 22:30:17 8.2 C 36 %
3016 20-03-2020 22:40:18 8.1 C 36 %
3017 20-03-2020 22:50:17 8.1 C 36 %
3018 20-03-2020 23:00:18 8 C 35 %
3019 20-03-2020 23:10:18 7.9 C 36 %
3020 20-03-2020 23:20:17 7.9 C 36 %
3021 20-03-2020 23:30:18 7.9 C 35 %
3022 20-03-2020 23:40:18 7.8 C 35 %
3023 20-03-2020 23:50:18 7.7 C 35 %
3024 21-03-2020 00:00:17 7.6 C 34 %
3025 21-03-2020 00:10:17 7.6 C 34 %
Sensor: Nr:Datum:Temp:Feuchte:
Aussen-T/F 3026 21-03-2020 00:20:17 7.4 C 34 %
3027 21-03-2020 00:30:17 7.3 C 34 %
3028 21-03-2020 00:40:17 7.3 C 34 %
3029 21-03-2020 00:50:17 7.3 C 34 %
3030 21-03-2020 01:00:17 7.2 C 33 %
3031 21-03-2020 01:10:17 7.1 C 33 %
3032 21-03-2020 01:20:17 6.8 C 35 %
3033 21-03-2020 01:30:18 6.5 C 35 %
3034 21-03-2020 01:40:18 6.2 C 36 %
3035 21-03-2020 01:50:17 5.9 C 38 %
3036 21-03-2020 02:00:18 5.6 C 39 %
3037 21-03-2020 02:10:18 5.3 C 40 %
3038 21-03-2020 02:20:17 5.1 C 41 %
3039 21-03-2020 02:30:18 4.9 C 43 %
3040 21-03-2020 02:40:18 4.9 C 43 %
3041 21-03-2020 02:50:18 4.6 C 43 %
3042 21-03-2020 03:00:17 4.5 C 43 %
3043 21-03-2020 03:10:17 4.4 C 44 %
3044 21-03-2020 03:20:17 4.5 C 45 %
3045 21-03-2020 03:30:18 4.5 C 45 %
3046 21-03-2020 03:40:18 4.4 C 45 %
3047 21-03-2020 03:50:17 4.4 C 45 %
3048 21-03-2020 04:00:18 4.3 C 45 %
3049 21-03-2020 04:10:18 4.2 C 45 %
3050 21-03-2020 04:20:17 4.1 C 45 %
Sensor: Nr:Datum:Temp:Feuchte:
Aussen-T/F 3051 21-03-2020 04:30:18 4.1 C 45 %
3052 21-03-2020 04:40:18 4 C 45 %
3053 21-03-2020 04:50:18 3.9 C 46 %
3054 21-03-2020 05:00:18 3.9 C 46 %
3055 21-03-2020 05:10:18 4 C 46 %
3056 21-03-2020 05:20:18 3.9 C 47 %
3057 21-03-2020 05:30:18 3.9 C 47 %
3058 21-03-2020 05:40:18 3.9 C 47 %
3059 21-03-2020 05:50:17 4 C 46 %
3060 21-03-2020 06:00:18 4 C 47 %
3061 21-03-2020 06:10:18 3.9 C 47 %
3062 21-03-2020 06:20:17 4 C 47 %
3063 21-03-2020 06:30:18 4 C 47 %
3064 21-03-2020 06:40:18 4 C 47 %
3065 21-03-2020 06:50:17 4 C 47 %
3066 21-03-2020 07:00:17 4.1 C 47 %
3067 21-03-2020 07:10:18 4.1 C 47 %
3068 21-03-2020 07:20:18 4.1 C 47 %
3069 21-03-2020 07:30:18 4.2 C 47 %
3070 21-03-2020 07:40:18 4.3 C 47 %
3071 21-03-2020 07:50:17 4.3 C 47 %
3072 21-03-2020 08:00:18 4.4 C 47 %
3073 21-03-2020 08:10:18 4.5 C 47 %
3074 21-03-2020 08:20:17 4.5 C 46 %
3075 21-03-2020 08:30:17 4.6 C 46 %
Sensor: Nr:Datum:Temp:Feuchte:
Aussen-T/F 3076 21-03-2020 08:40:17 4.7 C 46 %
3077 21-03-2020 08:50:18 4.8 C 46 %
3078 21-03-2020 09:00:18 4.7 C 46 %
3079 21-03-2020 09:10:18 4.6 C 45 %
3080 21-03-2020 09:20:18 5.2 C 43 %
3081 21-03-2020 09:30:18 5.6 C 42 %
3082 21-03-2020 09:40:18 5.8 C 41 %
3083 21-03-2020 09:50:17 6 C 41 %
3084 21-03-2020 10:00:17 6.2 C 41 %
3085 21-03-2020 10:10:18 6.4 C 39 %
3086 21-03-2020 10:20:18 6.5 C 40 %
3087 21-03-2020 10:30:18 6.7 C 39 %
3088 21-03-2020 10:40:18 6.7 C 38 %
3089 21-03-2020 10:50:17 6.4 C 39 %
3090 21-03-2020 11:00:17 6.5 C 37 %
3091 21-03-2020 11:10:18 7.1 C 36 %
3092 21-03-2020 11:20:18 7.3 C 36 %
3093 21-03-2020 11:30:18 8.1 C 34 %
3094 21-03-2020 11:40:18 8 C 34 %
3095 21-03-2020 11:50:18 8.3 C 32 %
3096 21-03-2020 12:00:18 7.8 C 32 %
3097 21-03-2020 12:10:18 7.6 C 33 %
3098 21-03-2020 12:20:17 7.9 C 31 %
3099 21-03-2020 12:30:17 8.7 C 32 %
3100 21-03-2020 12:40:17 8.2 C 30 %
Sensor: Nr:Datum:Temp:Feuchte:
Aussen-T/F 3101 21-03-2020 12:50:17 7.8 C 31 %
3102 21-03-2020 13:00:17 7.9 C 30 %
3103 21-03-2020 13:10:17 8.7 C 30 %
3104 21-03-2020 13:20:18 8.9 C 28 %
3105 21-03-2020 13:30:18 8.5 C 28 %
3106 21-03-2020 13:40:18 8.2 C 27 %
3107 21-03-2020 13:50:17 8.4 C 27 %
3108 21-03-2020 14:00:18 8.6 C 27 %
3109 21-03-2020 14:10:18 9.1 C 26 %
3110 21-03-2020 14:20:18 8.7 C 27 %
3111 21-03-2020 14:30:18 9.1 C 25 %
3112 21-03-2020 14:40:18 11.1 C 24 %
3113 21-03-2020 14:50:17 9.8 C 23 %
3114 21-03-2020 15:00:18 11 C 20 %
3115 21-03-2020 15:10:18 10.1 C 20 %
3116 21-03-2020 15:20:17 11.2 C 20 %
3117 21-03-2020 15:30:17 11.7 C 20 %
3118 21-03-2020 15:40:17 9.4 C 20 %
3119 21-03-2020 15:50:17 8.6 C 20 %
3120 21-03-2020 16:00:18 9.4 C 20 %
3121 21-03-2020 16:10:18 9.5 C 20 %
3122 21-03-2020 16:20:17 12.1 C 20 %
3123 21-03-2020 16:30:17 12 C 20 %
3124 21-03-2020 16:40:17 13.3 C 20 %
3125 21-03-2020 16:50:17 10.9 C 20 %
Sensor: Nr:Datum:Temp:Feuchte:
Aussen-T/F 3126 21-03-2020 17:00:17 9.2 C 20 %
3127 21-03-2020 17:10:17 8.9 C 20 %
3128 21-03-2020 17:20:17 8.3 C 20 %
3129 21-03-2020 17:30:18 7.8 C 20 %
3130 21-03-2020 17:40:18 7.8 C 20 %
3131 21-03-2020 17:50:17 7.5 C 20 %
3132 21-03-2020 18:00:17 7 C 20 %
3133 21-03-2020 18:10:17 6.9 C 20 %
3134 21-03-2020 18:20:17 6.6 C 21 %
3135 21-03-2020 18:30:17 6.4 C 23 %
3136 21-03-2020 18:40:17 5.9 C 25 %
3137 21-03-2020 18:50:17 5.5 C 27 %
3138 21-03-2020 19:00:17 5.5 C 26 %
3139 21-03-2020 19:10:17 5.1 C 28 %
3140 21-03-2020 19:20:17 4.7 C 30 %
3141 21-03-2020 19:30:18 4.4 C 31 %
3142 21-03-2020 19:40:18 4.5 C 30 %
3143 21-03-2020 19:50:17 4.4 C 29 %
3144 21-03-2020 20:00:18 4.1 C 30 %
3145 21-03-2020 20:10:18 3.7 C 31 %
3146 21-03-2020 20:20:18 3.2 C 33 %
3147 21-03-2020 20:30:18 3.7 C 32 %
3148 21-03-2020 20:40:18 3.9 C 30 %
3149 21-03-2020 20:50:17 3.6 C 31 %
3150 21-03-2020 21:00:18 3.3 C 32 %
Sensor: Nr:Datum:Temp:Feuchte:
Aussen-T/F 3151 21-03-2020 21:10:18 3 C 32 %
3152 21-03-2020 21:20:18 3.4 C 32 %
3153 21-03-2020 21:30:18 3.1 C 31 %
3154 21-03-2020 21:40:18 2.9 C 32 %
3155 21-03-2020 21:50:17 2.6 C 33 %
3156 21-03-2020 22:00:17 1.9 C 36 %
3157 21-03-2020 22:10:17 2.3 C 34 %
3158 21-03-2020 22:20:17 3 C 32 %
3159 21-03-2020 22:30:18 2.7 C 32 %
3160 21-03-2020 22:40:18 2.3 C 33 %
3161 21-03-2020 22:50:18 2.7 C 32 %
3162 21-03-2020 23:00:18 2 C 34 %
3163 21-03-2020 23:10:18 2.2 C 33 %
3164 21-03-2020 23:20:18 1.6 C 35 %
3165 21-03-2020 23:30:18 1.7 C 35 %
3166 21-03-2020 23:40:18 1.8 C 35 %
3167 21-03-2020 23:50:17 1.7 C 35 %
3168 22-03-2020 00:00:18 1.4 C 35 %
3169 22-03-2020 00:10:18 1.5 C 35 %
3170 22-03-2020 00:20:17 0.9 C 37 %
3171 22-03-2020 00:30:17 0.7 C 38 %
3172 22-03-2020 00:40:17 1.2 C 36 %
3173 22-03-2020 00:50:17 0.9 C 37 %
3174 22-03-2020 01:00:18 1.5 C 35 %
3175 22-03-2020 01:10:18 1.5 C 35 %
Sensor: Nr:Datum:Temp:Feuchte:
Aussen-T/F 3176 22-03-2020 01:20:18 1.1 C 35 %
3177 22-03-2020 01:30:18 1.1 C 35 %
3178 22-03-2020 01:40:18 0.9 C 36 %
3179 22-03-2020 01:50:18 1 C 35 %
3180 22-03-2020 02:00:18 1 C 35 %
3181 22-03-2020 02:10:18 0.1 C 38 %
3182 22-03-2020 02:20:17 0.3 C 38 %
3183 22-03-2020 02:30:18 0.5 C 37 %
3184 22-03-2020 02:40:18 0.5 C 37 %
3185 22-03-2020 02:50:18 0.4 C 37 %
3186 22-03-2020 03:00:18 0.2 C 37 %
3187 22-03-2020 03:10:18 0.7 C 37 %
3188 22-03-2020 03:20:18 -0.4 C 38 %
3189 22-03-2020 03:30:18 -0.1 C 38 %
3190 22-03-2020 03:40:18 -0.4 C 39 %
3191 22-03-2020 03:50:17 -0.3 C 39 %
3192 22-03-2020 04:00:17 -0.2 C 38 %
3193 22-03-2020 04:10:17 0 C 37 %
3194 22-03-2020 04:20:17 -0.4 C 38 %
3195 22-03-2020 04:30:17 0.3 C 37 %
3196 22-03-2020 04:40:17 0.1 C 37 %
3197 22-03-2020 04:50:17 -0.2 C 38 %
3198 22-03-2020 05:00:18 0.1 C 37 %
3199 22-03-2020 05:10:18 -0.3 C 37 %
3200 22-03-2020 05:20:17 -0.4 C 37 %
Sensor: Nr:Datum:Temp:Feuchte:
Aussen-T/F 3201 22-03-2020 05:30:18 -0.5 C 38 %
3202 22-03-2020 05:40:18 -0.7 C 38 %
3203 22-03-2020 05:50:17 -1 C 39 %
3204 22-03-2020 06:00:17 -1.1 C 39 %
3205 22-03-2020 06:10:17 -0.8 C 39 %
3206 22-03-2020 06:20:17 0.1 C 37 %
3207 22-03-2020 06:30:17 -0.3 C 37 %
3208 22-03-2020 06:40:17 -0.4 C 37 %
3209 22-03-2020 06:50:18 0 C 36 %
3210 22-03-2020 07:00:18 -0.3 C 37 %
3211 22-03-2020 07:10:18 -0.2 C 37 %
3212 22-03-2020 07:20:18 -0.4 C 37 %
3213 22-03-2020 07:30:18 -0.1 C 36 %
3214 22-03-2020 07:40:18 -0.2 C 37 %
3215 22-03-2020 07:50:17 -0.1 C 36 %
3216 22-03-2020 08:00:18 -0.1 C 36 %
3217 22-03-2020 08:10:18 0.3 C 36 %
3218 22-03-2020 08:20:18 0.3 C 35 %
3219 22-03-2020 08:30:18 0.5 C 35 %
3220 22-03-2020 08:40:18 0.8 C 35 %
3221 22-03-2020 08:50:18 0.4 C 35 %
3222 22-03-2020 09:00:18 0.8 C 35 %
3223 22-03-2020 09:10:18 1.2 C 32 %
3224 22-03-2020 09:20:18 1.6 C 32 %
3225 22-03-2020 09:30:18 2.2 C 30 %
Sensor: Nr:Datum:Temp:Feuchte:
Aussen-T/F 3226 22-03-2020 09:40:18 2.5 C 27 %
3227 22-03-2020 09:50:17 2.8 C 26 %
3228 22-03-2020 10:00:18 3.3 C 25 %
3229 22-03-2020 10:10:18 3.6 C 25 %
3230 22-03-2020 10:20:18 3.9 C 20 %
3231 22-03-2020 10:30:18 4.4 C 20 %
3232 22-03-2020 10:40:18 4.6 C 20 %
3233 22-03-2020 10:50:17 5.2 C 20 %
3234 22-03-2020 11:00:18 5.5 C 20 %
3235 22-03-2020 11:10:18 6.3 C 20 %
3236 22-03-2020 11:20:17 6.5 C 20 %
3237 22-03-2020 11:30:18 6.7 C 20 %
3238 22-03-2020 11:40:18 6.7 C 20 %
3239 22-03-2020 11:50:17 6.5 C 20 %
3240 22-03-2020 12:00:18 7 C 20 %
3241 22-03-2020 12:10:18 7.4 C 20 %
3242 22-03-2020 12:20:18 7.3 C 20 %
3243 22-03-2020 12:30:17 6.9 C 20 %
3244 22-03-2020 12:40:17 8 C 20 %
3245 22-03-2020 12:50:18 8.5 C 20 %
3246 22-03-2020 13:00:18 10.1 C 20 %
3247 22-03-2020 13:10:18 11.1 C 20 %
3248 22-03-2020 13:20:17 11.9 C 20 %
3249 22-03-2020 13:30:18 11.6 C 20 %
3250 22-03-2020 13:40:18 10.9 C 20 %
Sensor: Nr:Datum:Temp:Feuchte:
Aussen-T/F 3251 22-03-2020 13:50:18 10.3 C 20 %
3252 22-03-2020 14:00:17 9.6 C 20 %
3253 22-03-2020 14:10:17 10.2 C 20 %
3254 22-03-2020 14:20:17 12.2 C 20 %
3255 22-03-2020 14:30:17 12.6 C 20 %
3256 22-03-2020 14:40:17 14.4 C 20 %
3257 22-03-2020 14:50:17 14.4 C 20 %
3258 22-03-2020 15:00:18 15 C 20 %
3259 22-03-2020 15:10:18 14.4 C 20 %
3260 22-03-2020 15:20:17 14.7 C 20 %
3261 22-03-2020 15:30:17 13.6 C 20 %
3262 22-03-2020 15:40:17 13.7 C 20 %
3263 22-03-2020 15:50:18 15.4 C 20 %
3264 22-03-2020 16:00:18 16.2 C 20 %
3265 22-03-2020 16:10:18 14.9 C 20 %
3266 22-03-2020 16:20:18 14.1 C 20 %
3267 22-03-2020 16:30:18 13.3 C 20 %
3268 22-03-2020 16:40:18 13.2 C 20 %
3269 22-03-2020 16:50:17 11.7 C 20 %
3270 22-03-2020 17:00:17 10.7 C 20 %
3271 22-03-2020 17:10:17 9.9 C 20 %
3272 22-03-2020 17:20:17 9.7 C 20 %
3273 22-03-2020 17:30:17 9.8 C 20 %
3274 22-03-2020 17:40:17 9.5 C 20 %
3275 22-03-2020 17:50:17 8.9 C 20 %
Sensor: Nr:Datum:Temp:Feuchte:
Aussen-T/F 3276 22-03-2020 18:00:18 8.6 C 20 %
3277 22-03-2020 18:10:18 8.4 C 20 %
3278 22-03-2020 18:20:17 7.9 C 20 %
3279 22-03-2020 18:30:17 7.5 C 20 %
3280 22-03-2020 18:40:17 7 C 20 %
3281 22-03-2020 18:50:17 6.5 C 20 %
3282 22-03-2020 19:00:17 5.6 C 20 %
3283 22-03-2020 19:10:17 4.9 C 21 %
3284 22-03-2020 19:20:17 5.2 C 20 %
3285 22-03-2020 19:30:17 4.3 C 26 %
3286 22-03-2020 19:40:17 3.8 C 27 %
3287 22-03-2020 19:50:18 3.7 C 28 %
3288 22-03-2020 20:00:18 3.6 C 28 %
3289 22-03-2020 20:10:18 3.6 C 27 %
3290 22-03-2020 20:20:17 3.6 C 26 %
3291 22-03-2020 20:30:17 3.2 C 26 %
3292 22-03-2020 20:40:17 3 C 26 %
3293 22-03-2020 20:50:17 2.5 C 30 %
3294 22-03-2020 21:00:17 2.9 C 26 %
3295 22-03-2020 21:10:17 2.7 C 27 %
3296 22-03-2020 21:20:17 2.3 C 30 %
3297 22-03-2020 21:30:17 2.2 C 29 %
3298 22-03-2020 21:40:17 1.8 C 30 %
3299 22-03-2020 21:50:18 1.5 C 31 %
3300 22-03-2020 22:00:18 2 C 30 %
Sensor: Nr:Datum:Temp:Feuchte:
Aussen-T/F 3301 22-03-2020 22:10:18 2.5 C 26 %
3302 22-03-2020 22:20:17 1.8 C 30 %
3303 22-03-2020 22:30:17 1.5 C 29 %
3304 22-03-2020 22:40:17 1.3 C 31 %
3305 22-03-2020 22:50:17 1.4 C 30 %
3306 22-03-2020 23:00:17 0.7 C 33 %
3307 22-03-2020 23:10:17 1.1 C 30 %
3308 22-03-2020 23:20:17 0.8 C 32 %
3309 22-03-2020 23:30:18 0.3 C 33 %
3310 22-03-2020 23:40:18 0.3 C 34 %
3311 22-03-2020 23:50:18 0.6 C 33 %
3312 23-03-2020 00:00:18 0.4 C 34 %
3313 23-03-2020 00:10:18 0 C 33 %
3314 23-03-2020 00:20:17 -0.2 C 33 %
3315 23-03-2020 00:30:17 -0.5 C 35 %
3316 23-03-2020 00:40:17 -0.7 C 36 %
3317 23-03-2020 00:50:18 -1.1 C 36 %
3318 23-03-2020 01:00:17 -0.6 C 35 %
3319 23-03-2020 01:10:17 -0.7 C 36 %
3320 23-03-2020 01:20:17 -0.9 C 35 %
3321 23-03-2020 01:30:18 -0.8 C 35 %
3322 23-03-2020 01:40:18 -1.1 C 35 %
3323 23-03-2020 01:50:18 -0.8 C 35 %
3324 23-03-2020 02:00:18 -1.1 C 35 %
3325 23-03-2020 02:10:18 -1.4 C 35 %
Sensor: Nr:Datum:Temp:Feuchte:
Aussen-T/F 3326 23-03-2020 02:20:17 -1.2 C 35 %
3327 23-03-2020 02:30:17 -1.2 C 35 %
3328 23-03-2020 02:40:17 -1.2 C 35 %
3329 23-03-2020 02:50:17 -1.3 C 35 %
3330 23-03-2020 03:00:17 -1.6 C 35 %
3331 23-03-2020 03:10:18 -1.9 C 35 %
3332 23-03-2020 03:20:18 -1.6 C 35 %
3333 23-03-2020 03:30:18 -1.7 C 35 %
3334 23-03-2020 03:40:18 -1.9 C 35 %
3335 23-03-2020 03:50:18 -1.8 C 35 %
3336 23-03-2020 04:00:18 -1.8 C 35 %
3337 23-03-2020 04:10:18 -2.1 C 35 %
3338 23-03-2020 04:20:17 -1.9 C 35 %
3339 23-03-2020 04:30:17 -2 C 35 %
3340 23-03-2020 04:40:17 -2.1 C 35 %
3341 23-03-2020 04:50:17 -2.7 C 36 %
3342 23-03-2020 05:00:18 -2.5 C 36 %
3343 23-03-2020 05:10:18 -2.4 C 36 %
3344 23-03-2020 05:20:17 -2.3 C 36 %
3345 23-03-2020 05:30:18 -2.4 C 35 %
3346 23-03-2020 05:40:18 -2.7 C 36 %
3347 23-03-2020 05:50:17 -2.7 C 36 %
3348 23-03-2020 06:00:18 -2.6 C 36 %
3349 23-03-2020 06:10:18 -2.9 C 36 %
3350 23-03-2020 06:20:17 -2.6 C 36 %
Sensor: Nr:Datum:Temp:Feuchte:
Aussen-T/F 3351 23-03-2020 06:30:18 -2.8 C 36 %
3352 23-03-2020 06:40:18 -3.2 C 36 %
3353 23-03-2020 06:50:18 -3 C 36 %
3354 23-03-2020 07:00:18 -3 C 36 %
3355 23-03-2020 07:10:18 -3.1 C 36 %
3356 23-03-2020 07:20:18 -2.5 C 35 %
3357 23-03-2020 07:30:18 -2.7 C 36 %
3358 23-03-2020 07:40:18 -2.6 C 36 %
3359 23-03-2020 07:50:18 -1.9 C 34 %
3360 23-03-2020 08:00:18 -2 C 35 %
3361 23-03-2020 08:10:18 -1.4 C 32 %
3362 23-03-2020 08:20:17 -1.1 C 31 %
3363 23-03-2020 08:30:18 -0.2 C 27 %
3364 23-03-2020 08:40:18 -0.2 C 26 %
3365 23-03-2020 08:50:18 -0.3 C 25 %
3366 23-03-2020 09:00:18 0 C 23 %
3367 23-03-2020 09:10:18 0.2 C 23 %
3368 23-03-2020 09:20:18 0.5 C 20 %
3369 23-03-2020 09:30:17 0.7 C 20 %
3370 23-03-2020 09:40:17 1.5 C 20 %
3371 23-03-2020 09:50:18 1.8 C 20 %
3372 23-03-2020 10:00:18 2.4 C 20 %
3373 23-03-2020 10:10:18 2.7 C 20 %
3374 23-03-2020 10:20:18 3 C 20 %
3375 23-03-2020 10:30:17 3.8 C 20 %
Sensor: Nr:Datum:Temp:Feuchte:
Aussen-T/F 3376 23-03-2020 10:40:17 4.1 C 20 %
3377 23-03-2020 10:50:17 4.7 C 20 %
3378 23-03-2020 11:00:17 5.5 C 20 %
3379 23-03-2020 11:10:17 5.5 C 20 %
3380 23-03-2020 11:20:17 6 C 20 %
3381 23-03-2020 11:30:18 6.7 C 20 %
3382 23-03-2020 11:40:18 6.2 C 20 %
3383 23-03-2020 11:50:17 6.3 C 20 %
3384 23-03-2020 12:00:18 7 C 20 %
3385 23-03-2020 12:10:18 7.4 C 20 %
3386 23-03-2020 12:20:18 7.8 C 20 %
3387 23-03-2020 12:30:18 7.5 C 20 %
3388 23-03-2020 12:40:18 8.1 C 20 %
3389 23-03-2020 12:50:18 8.7 C 20 %
3390 23-03-2020 13:00:17 10.4 C 20 %
3391 23-03-2020 13:10:17 10.7 C 20 %
3392 23-03-2020 13:20:17 11.9 C 20 %
3393 23-03-2020 13:30:17 11.4 C 20 %
3394 23-03-2020 13:40:17 10 C 20 %
3395 23-03-2020 13:50:17 9.8 C 20 %
3396 23-03-2020 14:00:18 9.2 C 20 %
3397 23-03-2020 14:10:18 10.5 C 20 %
3398 23-03-2020 14:20:18 12.9 C 20 %
3399 23-03-2020 14:30:18 13 C 20 %
3400 23-03-2020 14:40:18 14.2 C 20 %
Sensor: Nr:Datum:Temp:Feuchte:
Aussen-T/F 3401 23-03-2020 14:50:18 14.3 C 20 %
3402 23-03-2020 15:00:18 14.3 C 20 %
3403 23-03-2020 15:10:18 14.4 C 20 %
3404 23-03-2020 15:20:17 14.7 C 20 %
3405 23-03-2020 15:30:17 13.5 C 20 %
3406 23-03-2020 15:40:17 14.4 C 20 %
3407 23-03-2020 15:50:17 14.1 C 20 %
3408 23-03-2020 16:00:17 13.8 C 20 %
3409 23-03-2020 16:10:17 14.7 C 20 %
3410 23-03-2020 16:20:17 15.3 C 20 %
3411 23-03-2020 16:30:18 14.7 C 20 %
3412 23-03-2020 16:40:18 14.8 C 20 %
3413 23-03-2020 16:50:17 11.4 C 20 %
3414 23-03-2020 17:00:18 10.1 C 20 %
3415 23-03-2020 17:10:18 9.7 C 20 %
3416 23-03-2020 17:20:18 9.4 C 20 %
3417 23-03-2020 17:30:18 9 C 20 %
3418 23-03-2020 17:40:18 9 C 20 %
3419 23-03-2020 17:50:17 8.6 C 20 %
3420 23-03-2020 18:00:18 8.3 C 20 %
3421 23-03-2020 18:10:18 7.6 C 20 %
3422 23-03-2020 18:20:17 7.4 C 20 %
3423 23-03-2020 18:30:18 7 C 20 %
3424 23-03-2020 18:40:18 5.3 C 20 %
3425 23-03-2020 18:50:18 4.4 C 20 %
Sensor: Nr:Datum:Temp:Feuchte:
Aussen-T/F 3426 23-03-2020 19:00:18 4.2 C 20 %
3427 23-03-2020 19:10:18 4.1 C 20 %
3428 23-03-2020 19:20:17 3.7 C 20 %
3429 23-03-2020 19:30:18 3.6 C 20 %
3430 23-03-2020 19:40:18 3.4 C 20 %
3431 23-03-2020 19:50:18 2.7 C 20 %
3432 23-03-2020 20:00:17 2.9 C 20 %
3433 23-03-2020 20:10:17 2.6 C 20 %
3434 23-03-2020 20:20:17 2.5 C 20 %
3435 23-03-2020 20:30:18 2.3 C 20 %
3436 23-03-2020 20:40:18 2.4 C 20 %
3437 23-03-2020 20:50:18 2.3 C 20 %
3438 23-03-2020 21:00:18 2.1 C 20 %
3439 23-03-2020 21:10:18 0.9 C 27 %
3440 23-03-2020 21:20:17 1 C 26 %
3441 23-03-2020 21:30:18 1.1 C 28 %
3442 23-03-2020 21:40:18 0.7 C 29 %
3443 23-03-2020 21:50:18 0.2 C 30 %
3444 23-03-2020 22:00:17 -0.4 C 31 %
3445 23-03-2020 22:10:18 -0.9 C 35 %
3446 23-03-2020 22:20:18 -0.2 C 34 %
3447 23-03-2020 22:30:18 -0.9 C 35 %
3448 23-03-2020 22:40:18 -0.9 C 35 %
3449 23-03-2020 22:50:18 -1.3 C 35 %
3450 23-03-2020 23:00:18 -1.4 C 36 %
Sensor: Nr:Datum:Temp:Feuchte:
Aussen-T/F 3451 23-03-2020 23:10:18 -1.6 C 36 %
3452 23-03-2020 23:20:17 -1.7 C 36 %
3453 23-03-2020 23:30:17 -1.7 C 37 %
3454 23-03-2020 23:40:17 -1.9 C 37 %
3455 23-03-2020 23:50:18 -1.8 C 37 %
3456 24-03-2020 00:00:18 -1.9 C 36 %
3457 24-03-2020 00:10:18 -2 C 36 %
3458 24-03-2020 00:20:17 -2.2 C 36 %
3459 24-03-2020 00:30:18 -2.4 C 37 %
3460 24-03-2020 00:40:18 -2.4 C 38 %
3461 24-03-2020 00:50:18 -2.5 C 38 %
3462 24-03-2020 01:00:18 -2.3 C 37 %
3463 24-03-2020 01:10:18 -2.6 C 37 %
3464 24-03-2020 01:20:18 -2.7 C 38 %
3465 24-03-2020 01:30:18 -2.7 C 38 %
3466 24-03-2020 01:40:18 -3 C 38 %
3467 24-03-2020 01:50:18 -2.5 C 37 %
3468 24-03-2020 02:00:18 -2.6 C 38 %
3469 24-03-2020 02:10:18 -2.8 C 38 %
3470 24-03-2020 02:20:17 -3.1 C 38 %
3471 24-03-2020 02:30:17 -3.2 C 38 %
3472 24-03-2020 02:40:17 -3.3 C 38 %
3473 24-03-2020 02:50:17 -3.2 C 38 %
3474 24-03-2020 03:00:17 -3.4 C 38 %
3475 24-03-2020 03:10:17 -3.5 C 38 %
Sensor: Nr:Datum:Temp:Feuchte:
Aussen-T/F 3476 24-03-2020 03:20:17 -3.6 C 39 %
3477 24-03-2020 03:30:17 -3.6 C 38 %
3478 24-03-2020 03:40:17 -3.7 C 38 %
3479 24-03-2020 03:50:17 -3.9 C 39 %
3480 24-03-2020 04:00:18 -3.7 C 39 %
3481 24-03-2020 04:10:18 -3.9 C 38 %
3482 24-03-2020 04:20:18 -4 C 38 %
3483 24-03-2020 04:30:18 -4 C 38 %
3484 24-03-2020 04:40:18 -4 C 38 %
3485 24-03-2020 04:50:17 -3.9 C 38 %
3486 24-03-2020 05:00:17 -4.2 C 38 %
3487 24-03-2020 05:10:17 -4.3 C 39 %
3488 24-03-2020 05:20:17 -4.2 C 38 %
3489 24-03-2020 05:30:18 -4.3 C 38 %
3490 24-03-2020 05:40:18 -4.4 C 38 %
3491 24-03-2020 05:50:18 -4.6 C 39 %
3492 24-03-2020 06:00:17 -4.7 C 39 %
3493 24-03-2020 06:10:18 -4.7 C 38 %
3494 24-03-2020 06:20:17 -4.7 C 39 %
3495 24-03-2020 06:30:18 -4.7 C 38 %
3496 24-03-2020 06:40:18 -4.6 C 39 %
3497 24-03-2020 06:50:18 -4.4 C 38 %
3498 24-03-2020 07:00:18 -4.5 C 39 %
3499 24-03-2020 07:10:18 -4.4 C 39 %
3500 24-03-2020 07:20:18 -4.3 C 39 %
Sensor: Nr:Datum:Temp:Feuchte:
Aussen-T/F 3501 24-03-2020 07:30:18 -4.2 C 39 %
3502 24-03-2020 07:40:18 -4 C 39 %
3503 24-03-2020 07:50:17 -3.8 C 39 %
3504 24-03-2020 08:00:17 -3.7 C 39 %
3505 24-03-2020 08:10:17 -3.5 C 38 %
3506 24-03-2020 08:20:17 -3.3 C 38 %
3507 24-03-2020 08:30:17 -2.5 C 38 %
3508 24-03-2020 08:40:17 -2.4 C 37 %
3509 24-03-2020 08:50:17 -2 C 37 %
3510 24-03-2020 09:00:17 -1.6 C 36 %
3511 24-03-2020 09:10:17 -0.7 C 35 %
3512 24-03-2020 09:20:17 -0.2 C 34 %
3513 24-03-2020 09:30:17 0.4 C 30 %
3514 24-03-2020 09:40:17 1 C 27 %
3515 24-03-2020 09:50:18 1.7 C 23 %
3516 24-03-2020 10:00:18 3 C 20 %
3517 24-03-2020 10:10:18 3.3 C 20 %
3518 24-03-2020 10:20:17 3.9 C 20 %
3519 24-03-2020 10:30:17 4.3 C 20 %
3520 24-03-2020 10:40:17 4.7 C 20 %
3521 24-03-2020 10:50:17 5.7 C 20 %
3522 24-03-2020 11:00:18 5.7 C 20 %
3523 24-03-2020 11:10:18 6.4 C 20 %
3524 24-03-2020 11:20:17 6.9 C 20 %
3525 24-03-2020 11:30:17 7.9 C 20 %
Sensor: Nr:Datum:Temp:Feuchte:
Aussen-T/F 3526 24-03-2020 11:40:17 7.2 C 20 %
3527 24-03-2020 11:50:18 6.8 C 20 %
3528 24-03-2020 12:00:18 7.8 C 20 %
3529 24-03-2020 12:10:18 8.6 C 20 %
3530 24-03-2020 12:20:17 8.2 C 20 %
3531 24-03-2020 12:30:17 8.2 C 20 %
3532 24-03-2020 12:40:17 9 C 20 %
3533 24-03-2020 12:50:17 9.2 C 20 %
3534 24-03-2020 13:00:18 10.4 C 20 %
3535 24-03-2020 13:10:18 11.7 C 20 %
3536 24-03-2020 13:20:17 12.5 C 20 %
3537 24-03-2020 13:30:17 13 C 20 %
3538 24-03-2020 13:40:17 11.9 C 20 %
3539 24-03-2020 13:50:18 11 C 20 %
3540 24-03-2020 14:00:17 10.8 C 20 %
3541 24-03-2020 14:10:17 11.3 C 20 %
3542 24-03-2020 14:20:17 13.7 C 20 %
3543 24-03-2020 14:30:17 12.2 C 20 %
3544 24-03-2020 14:40:17 14.4 C 20 %
3545 24-03-2020 14:50:18 13.4 C 20 %
3546 24-03-2020 15:00:18 13.5 C 20 %
3547 24-03-2020 15:10:18 14.1 C 20 %
3548 24-03-2020 15:20:18 15.3 C 20 %
3549 24-03-2020 15:30:18 14.1 C 20 %
3550 24-03-2020 15:40:18 15.4 C 20 %
Sensor: Nr:Datum:Temp:Feuchte:
Aussen-T/F 3551 24-03-2020 15:50:18 14.9 C 20 %
3552 24-03-2020 16:00:18 14.8 C 20 %
3553 24-03-2020 16:10:18 14.8 C 20 %
3554 24-03-2020 16:20:18 14.1 C 20 %
3555 24-03-2020 16:30:18 13.6 C 20 %
3556 24-03-2020 16:40:18 14.3 C 20 %
3557 24-03-2020 16:50:18 11.4 C 20 %
3558 24-03-2020 17:00:18 10.8 C 20 %
3559 24-03-2020 17:10:18 10.4 C 20 %
3560 24-03-2020 17:20:18 10.1 C 20 %
3561 24-03-2020 17:30:18 9.9 C 20 %
3562 24-03-2020 17:40:18 9.6 C 20 %
3563 24-03-2020 17:50:17 9.3 C 20 %
3564 24-03-2020 18:00:17 9 C 20 %
3565 24-03-2020 18:10:17 8.6 C 20 %
3566 24-03-2020 18:20:17 8.4 C 20 %
3567 24-03-2020 18:30:17 7.6 C 20 %
3568 24-03-2020 18:40:18 6.4 C 20 %
3569 24-03-2020 18:50:17 5.4 C 20 %
3570 24-03-2020 19:00:18 4.9 C 20 %
3571 24-03-2020 19:10:18 4.6 C 20 %
3572 24-03-2020 19:20:18 4.5 C 20 %
3573 24-03-2020 19:30:18 4.1 C 20 %
3574 24-03-2020 19:40:18 3.9 C 20 %
3575 24-03-2020 19:50:17 3.6 C 20 %
Sensor: Nr:Datum:Temp:Feuchte:
Aussen-T/F 3576 24-03-2020 20:00:18 3.6 C 20 %
3577 24-03-2020 20:10:18 3.5 C 20 %
3578 24-03-2020 20:20:17 3.4 C 20 %
3579 24-03-2020 20:30:18 3.4 C 20 %
3580 24-03-2020 20:40:18 2.9 C 20 %
3581 24-03-2020 20:50:18 2.7 C 20 %
3582 24-03-2020 21:00:18 2.7 C 20 %
3583 24-03-2020 21:10:18 2.6 C 20 %
3584 24-03-2020 21:20:17 2.3 C 20 %
3585 24-03-2020 21:30:17 2.3 C 20 %
3586 24-03-2020 21:40:17 2.2 C 20 %
3587 24-03-2020 21:50:17 2.2 C 20 %
3588 24-03-2020 22:00:18 1.7 C 20 %
3589 24-03-2020 22:10:18 1.6 C 20 %
3590 24-03-2020 22:20:17 1.6 C 20 %
3591 24-03-2020 22:30:18 0.3 C 25 %
3592 24-03-2020 22:40:18 -0.2 C 30 %
3593 24-03-2020 22:50:17 -0.7 C 30 %
3594 24-03-2020 23:00:18 -1.2 C 32 %
3595 24-03-2020 23:10:18 -1.1 C 31 %
3596 24-03-2020 23:20:17 -1.4 C 31 %
3597 24-03-2020 23:30:18 -1.7 C 30 %
3598 24-03-2020 23:40:18 -0.9 C 30 %
3599 24-03-2020 23:50:18 -1.2 C 30 %
3600 25-03-2020 00:00:17 -1.6 C 30 %
Sensor: Nr:Datum:Temp:Feuchte:
Aussen-T/F 3601 25-03-2020 00:10:17 -1.6 C 31 %
3602 25-03-2020 00:20:17 -1.8 C 32 %
3603 25-03-2020 00:30:17 -1.8 C 30 %
3604 25-03-2020 00:40:18 -1.9 C 31 %
3605 25-03-2020 00:50:17 -1.8 C 32 %
3606 25-03-2020 01:00:17 -1.6 C 32 %
3607 25-03-2020 01:10:18 -1.3 C 31 %
3608 25-03-2020 01:20:17 -1.1 C 30 %
3609 25-03-2020 01:30:18 -1.1 C 29 %
3610 25-03-2020 01:40:18 -0.9 C 28 %
3611 25-03-2020 01:50:17 -1.1 C 28 %
3612 25-03-2020 02:00:17 -1.1 C 28 %
3613 25-03-2020 02:10:18 -1.3 C 27 %
3614 25-03-2020 02:20:18 -1.4 C 29 %
3615 25-03-2020 02:30:18 -1.6 C 27 %
3616 25-03-2020 02:40:18 -1.5 C 27 %
3617 25-03-2020 02:50:18 -1.4 C 27 %
3618 25-03-2020 03:00:18 -1.4 C 26 %
3619 25-03-2020 03:10:18 -1.4 C 26 %
3620 25-03-2020 03:20:17 -1.5 C 27 %
3621 25-03-2020 03:30:17 -2.3 C 30 %
3622 25-03-2020 03:40:17 -2.6 C 31 %
3623 25-03-2020 03:50:17 -2.8 C 32 %
3624 25-03-2020 04:00:17 -3.1 C 33 %
3625 25-03-2020 04:10:17 -3.2 C 34 %
Sensor: Nr:Datum:Temp:Feuchte:
Aussen-T/F 3626 25-03-2020 04:20:17 -3.3 C 34 %
3627 25-03-2020 04:30:18 -3.3 C 34 %
3628 25-03-2020 04:40:18 -3 C 33 %
3629 25-03-2020 04:50:17 -3.2 C 33 %
3630 25-03-2020 05:00:18 -3 C 32 %
3631 25-03-2020 05:10:18 -2.6 C 32 %
3632 25-03-2020 05:20:17 -2.3 C 30 %
3633 25-03-2020 05:30:17 -2.5 C 30 %
3634 25-03-2020 05:40:17 -3.4 C 33 %
3635 25-03-2020 05:50:17 -4 C 35 %
3636 25-03-2020 06:00:17 -4.4 C 36 %
3637 25-03-2020 06:10:17 -4.2 C 36 %
3638 25-03-2020 06:20:17 -4.2 C 36 %
3639 25-03-2020 06:30:17 -4.4 C 36 %
3640 25-03-2020 06:40:17 -4.3 C 36 %
3641 25-03-2020 06:50:17 -4.3 C 36 %
3642 25-03-2020 07:00:17 -4.3 C 37 %
3643 25-03-2020 07:10:17 -4.3 C 37 %
3644 25-03-2020 07:20:17 -4.1 C 37 %
3645 25-03-2020 07:30:17 -4 C 37 %
3646 25-03-2020 07:40:17 -3.8 C 37 %
3647 25-03-2020 07:50:17 -3.2 C 36 %
3648 25-03-2020 08:00:17 -2.6 C 35 %
3649 25-03-2020 08:10:17 -2 C 32 %
3650 25-03-2020 08:20:17 -2.7 C 35 %
Sensor: Nr:Datum:Temp:Feuchte:
Aussen-T/F 3651 25-03-2020 08:30:17 -2 C 34 %
3652 25-03-2020 08:40:17 -1.9 C 34 %
3653 25-03-2020 08:50:17 -1.6 C 34 %
3654 25-03-2020 09:00:17 -1.5 C 34 %
3655 25-03-2020 09:10:17 -1.3 C 35 %
3656 25-03-2020 09:20:17 -1 C 35 %
3657 25-03-2020 09:30:17 -0.2 C 32 %
3658 25-03-2020 09:40:18 0.7 C 29 %
3659 25-03-2020 09:50:17 2.1 C 20 %
3660 25-03-2020 10:00:18 2.8 C 20 %
3661 25-03-2020 10:10:18 3.2 C 20 %
3662 25-03-2020 10:20:17 3.6 C 20 %
3663 25-03-2020 10:30:17 4.1 C 20 %
3664 25-03-2020 10:40:17 4.7 C 20 %
3665 25-03-2020 10:50:17 5.1 C 20 %
3666 25-03-2020 11:00:17 5.3 C 20 %
3667 25-03-2020 11:10:17 5.7 C 20 %
3668 25-03-2020 11:20:17 7.2 C 20 %
3669 25-03-2020 11:30:18 7.7 C 20 %
3670 25-03-2020 11:40:18 7.3 C 20 %
3671 25-03-2020 11:50:17 6.8 C 20 %
3672 25-03-2020 12:00:17 7.8 C 20 %
3673 25-03-2020 12:10:17 8.3 C 20 %
3674 25-03-2020 12:20:17 8.4 C 20 %
3675 25-03-2020 12:30:17 8.4 C 20 %
Sensor: Nr:Datum:Temp:Feuchte:
Aussen-T/F 3676 25-03-2020 12:40:17 8.6 C 20 %
3677 25-03-2020 12:50:17 10.3 C 20 %
3678 25-03-2020 13:00:17 11.2 C 20 %
3679 25-03-2020 13:10:17 12.2 C 20 %
3680 25-03-2020 13:20:18 13.8 C 20 %
3681 25-03-2020 13:30:18 14.5 C 20 %
3682 25-03-2020 13:40:18 12.4 C 20 %
3683 25-03-2020 13:50:18 12 C 20 %
3684 25-03-2020 14:00:18 11.3 C 20 %
3685 25-03-2020 14:10:18 11.1 C 20 %
3686 25-03-2020 14:20:17 13.2 C 20 %
3687 25-03-2020 14:30:17 13.5 C 20 %
3688 25-03-2020 14:40:17 12.7 C 20 %
3689 25-03-2020 14:50:17 13.5 C 20 %
3690 25-03-2020 15:00:17 13.8 C 20 %
3691 25-03-2020 15:10:17 14.1 C 20 %
3692 25-03-2020 15:20:18 14.9 C 20 %
3693 25-03-2020 15:30:18 14.4 C 20 %
3694 25-03-2020 15:40:18 14.4 C 20 %
3695 25-03-2020 15:50:17 15 C 20 %
3696 25-03-2020 16:00:18 15.3 C 20 %
3697 25-03-2020 16:10:18 14.5 C 20 %
3698 25-03-2020 16:20:17 15.7 C 20 %
3699 25-03-2020 16:30:17 13.8 C 20 %
3700 25-03-2020 16:40:17 12.9 C 20 %
Sensor: Nr:Datum:Temp:Feuchte:
Aussen-T/F 3701 25-03-2020 16:50:18 12.2 C 20 %
3702 25-03-2020 17:00:18 11.9 C 20 %
3703 25-03-2020 17:10:18 11.5 C 20 %
3704 25-03-2020 17:20:17 11.1 C 20 %
3705 25-03-2020 17:30:17 11 C 20 %
3706 25-03-2020 17:40:17 10.7 C 20 %
3707 25-03-2020 17:50:17 10.5 C 20 %
3708 25-03-2020 18:00:18 10.5 C 20 %
3709 25-03-2020 18:10:18 10.1 C 20 %
3710 25-03-2020 18:20:17 9.6 C 20 %
3711 25-03-2020 18:30:18 8.8 C 20 %
3712 25-03-2020 18:40:18 7.7 C 20 %
3713 25-03-2020 18:50:18 7 C 20 %
3714 25-03-2020 19:00:18 6.3 C 20 %
3715 25-03-2020 19:10:18 6.1 C 20 %
3716 25-03-2020 19:20:17 5.4 C 20 %
3717 25-03-2020 19:30:18 5.8 C 20 %
3718 25-03-2020 19:40:18 5.1 C 20 %
3719 25-03-2020 19:50:17 4.6 C 20 %
3720 25-03-2020 20:00:17 4.5 C 20 %
3721 25-03-2020 20:10:17 4.1 C 20 %
3722 25-03-2020 20:20:17 4 C 20 %
3723 25-03-2020 20:30:18 4.7 C 20 %
3724 25-03-2020 20:40:18 4.3 C 20 %
3725 25-03-2020 20:50:17 3.8 C 20 %
Sensor: Nr:Datum:Temp:Feuchte:
Aussen-T/F 3726 25-03-2020 21:00:18 4.6 C 20 %
3727 25-03-2020 21:10:18 4.6 C 20 %
3728 25-03-2020 21:20:17 4.3 C 20 %
3729 25-03-2020 21:30:17 4.3 C 20 %
3730 25-03-2020 21:40:17 4 C 20 %
3731 25-03-2020 21:50:17 3.6 C 20 %
3732 25-03-2020 22:00:17 2.8 C 20 %
3733 25-03-2020 22:10:17 2.6 C 20 %
3734 25-03-2020 22:20:17 2.6 C 20 %
3735 25-03-2020 22:30:18 2.1 C 20 %
3736 25-03-2020 22:40:18 2.3 C 20 %
3737 25-03-2020 22:50:18 2.1 C 20 %
3738 25-03-2020 23:00:18 1.7 C 20 %
3739 25-03-2020 23:10:18 1.7 C 23 %
3740 25-03-2020 23:20:17 1.6 C 23 %
3741 25-03-2020 23:30:18 1.5 C 21 %
3742 25-03-2020 23:40:18 1.8 C 20 %
3743 25-03-2020 23:50:18 1.8 C 20 %
3744 26-03-2020 00:00:18 1.4 C 21 %
3745 26-03-2020 00:10:18 1.2 C 21 %
3746 26-03-2020 00:20:18 1.3 C 21 %
3747 26-03-2020 00:30:18 0.9 C 23 %
3748 26-03-2020 00:40:18 0.9 C 25 %
3749 26-03-2020 00:50:18 1 C 23 %
3750 26-03-2020 01:00:18 0.7 C 25 %
Sensor: Nr:Datum:Temp:Feuchte:
Aussen-T/F 3751 26-03-2020 01:10:18 0.4 C 25 %
3752 26-03-2020 01:20:17 0.5 C 25 %
3753 26-03-2020 01:30:17 0.7 C 25 %
3754 26-03-2020 01:40:17 0.7 C 23 %
3755 26-03-2020 01:50:17 0.7 C 21 %
3756 26-03-2020 02:00:17 0.6 C 23 %
3757 26-03-2020 02:10:17 0.7 C 21 %
3758 26-03-2020 02:20:17 0.7 C 21 %
3759 26-03-2020 02:30:17 0.6 C 21 %
3760 26-03-2020 02:40:18 0.4 C 21 %
3761 26-03-2020 02:50:17 0.3 C 23 %
3762 26-03-2020 03:00:17 0 C 23 %
3763 26-03-2020 03:10:18 0.1 C 23 %
3764 26-03-2020 03:20:18 0 C 23 %
3765 26-03-2020 03:30:18 -0.3 C 25 %
3766 26-03-2020 03:40:18 -0.3 C 27 %
3767 26-03-2020 03:50:17 -0.4 C 27 %
3768 26-03-2020 04:00:17 -0.1 C 26 %
3769 26-03-2020 04:10:17 -0.3 C 25 %
3770 26-03-2020 04:20:17 -0.3 C 26 %
3771 26-03-2020 04:30:18 -0.4 C 26 %
3772 26-03-2020 04:40:18 -0.4 C 26 %
3773 26-03-2020 04:50:17 -0.5 C 26 %
3774 26-03-2020 05:00:18 -0.5 C 27 %
3775 26-03-2020 05:10:18 -0.6 C 27 %
Sensor: Nr:Datum:Temp:Feuchte:
Aussen-T/F 3776 26-03-2020 05:20:17 -0.6 C 28 %
3777 26-03-2020 05:30:17 -0.7 C 28 %
3778 26-03-2020 05:40:18 -0.5 C 28 %
3779 26-03-2020 05:50:17 -0.6 C 28 %
3780 26-03-2020 06:00:18 -0.7 C 29 %
3781 26-03-2020 06:10:18 -0.8 C 28 %
3782 26-03-2020 06:20:18 -0.9 C 28 %
3783 26-03-2020 06:30:18 -1 C 28 %
3784 26-03-2020 06:40:18 -0.9 C 30 %
3785 26-03-2020 06:50:18 -1.1 C 30 %
3786 26-03-2020 07:00:18 -0.8 C 30 %
3787 26-03-2020 07:10:18 -1.1 C 30 %
3788 26-03-2020 07:20:18 -0.6 C 30 %
3789 26-03-2020 07:30:18 -0.4 C 30 %
3790 26-03-2020 07:40:18 0.2 C 27 %
3791 26-03-2020 07:50:17 0.5 C 25 %
3792 26-03-2020 08:00:18 0.3 C 28 %
3793 26-03-2020 08:10:18 0.4 C 28 %
3794 26-03-2020 08:20:18 0.7 C 26 %
3795 26-03-2020 08:30:18 1.4 C 21 %
3796 26-03-2020 08:40:18 1.7 C 21 %
3797 26-03-2020 08:50:17 2.2 C 20 %
3798 26-03-2020 09:00:18 2.3 C 20 %
3799 26-03-2020 09:10:18 2.3 C 20 %
3800 26-03-2020 09:20:18 2.7 C 20 %
Sensor: Nr:Datum:Temp:Feuchte:
Aussen-T/F 3801 26-03-2020 09:30:18 3.2 C 20 %
3802 26-03-2020 09:40:18 3.5 C 20 %
3803 26-03-2020 09:50:18 4.1 C 20 %
3804 26-03-2020 10:00:18 4.4 C 20 %
3805 26-03-2020 10:10:18 4.9 C 20 %
3806 26-03-2020 10:20:18 5 C 20 %
3807 26-03-2020 10:30:18 5.4 C 20 %
3808 26-03-2020 10:40:18 5.9 C 20 %
3809 26-03-2020 10:50:17 6 C 20 %
3810 26-03-2020 11:00:18 6.6 C 20 %
3811 26-03-2020 11:10:18 6.9 C 20 %
3812 26-03-2020 11:20:18 7.3 C 20 %
3813 26-03-2020 11:30:18 8.5 C 20 %
3814 26-03-2020 11:40:18 8.3 C 20 %
3815 26-03-2020 11:50:18 7.3 C 20 %
3816 26-03-2020 12:00:18 8 C 20 %
3817 26-03-2020 12:10:18 9.1 C 20 %
3818 26-03-2020 12:20:17 9.6 C 20 %
3819 26-03-2020 12:30:17 9.6 C 20 %
3820 26-03-2020 12:40:17 9.6 C 20 %
3821 26-03-2020 12:50:17 9.7 C 20 %
3822 26-03-2020 13:00:17 10.4 C 20 %
3823 26-03-2020 13:10:17 10.8 C 20 %
3824 26-03-2020 13:20:18 11.5 C 20 %
3825 26-03-2020 13:30:18 11.5 C 20 %
Sensor: Nr:Datum:Temp:Feuchte:
Aussen-T/F 3826 26-03-2020 13:40:18 12.1 C 20 %
3827 26-03-2020 13:50:18 13 C 20 %
3828 26-03-2020 14:00:18 12 C 20 %
3829 26-03-2020 14:10:18 12.2 C 20 %
3830 26-03-2020 14:20:18 11.9 C 20 %
3831 26-03-2020 14:30:18 14.3 C 20 %
3832 26-03-2020 14:40:18 14.2 C 20 %
3833 26-03-2020 14:50:17 14 C 20 %
3834 26-03-2020 15:00:17 15.3 C 20 %
3835 26-03-2020 15:10:18 14.2 C 20 %
3836 26-03-2020 15:20:18 14 C 20 %
3837 26-03-2020 15:30:18 15.6 C 20 %
3838 26-03-2020 15:40:18 15.6 C 20 %
3839 26-03-2020 15:50:18 16.5 C 20 %
3840 26-03-2020 16:00:18 15.6 C 20 %
3841 26-03-2020 16:10:18 15.3 C 20 %
3842 26-03-2020 16:20:18 12.5 C 20 %
3843 26-03-2020 16:30:18 12.3 C 20 %
3844 26-03-2020 16:40:18 13.9 C 20 %
3845 26-03-2020 16:50:18 12.8 C 20 %
3846 26-03-2020 17:00:18 11.4 C 20 %
3847 26-03-2020 17:10:18 11 C 20 %
3848 26-03-2020 17:20:17 10.9 C 20 %
3849 26-03-2020 17:30:17 11 C 20 %
3850 26-03-2020 17:40:17 11.1 C 20 %
Sensor: Nr:Datum:Temp:Feuchte:
Aussen-T/F 3851 26-03-2020 17:50:17 10.7 C 20 %
3852 26-03-2020 18:00:17 10.5 C 20 %
3853 26-03-2020 18:10:17 10.3 C 20 %
3854 26-03-2020 18:20:18 10.1 C 20 %
3855 26-03-2020 18:30:18 9.8 C 20 %
3856 26-03-2020 18:40:18 9.4 C 20 %
3857 26-03-2020 18:50:17 8.6 C 20 %
3858 26-03-2020 19:00:17 8 C 20 %
3859 26-03-2020 19:10:17 7.4 C 20 %
3860 26-03-2020 19:20:17 6.9 C 21 %
3861 26-03-2020 19:30:17 6.7 C 21 %
3862 26-03-2020 19:40:17 6.4 C 21 %
3863 26-03-2020 19:50:17 6.5 C 21 %
3864 26-03-2020 20:00:17 6.2 C 23 %
3865 26-03-2020 20:10:18 6 C 23 %
3866 26-03-2020 20:20:18 5.7 C 25 %
3867 26-03-2020 20:30:17 5.4 C 26 %
3868 26-03-2020 20:40:17 4.9 C 28 %
3869 26-03-2020 20:50:17 4.9 C 28 %
3870 26-03-2020 21:00:17 4.7 C 29 %
3871 26-03-2020 21:10:17 4.5 C 29 %
3872 26-03-2020 21:20:17 4.5 C 30 %
3873 26-03-2020 21:30:18 4.1 C 30 %
3874 26-03-2020 21:40:18 4.6 C 30 %
3875 26-03-2020 21:50:18 4.6 C 30 %
Sensor: Nr:Datum:Temp:Feuchte:
Aussen-T/F 3876 26-03-2020 22:00:18 4.6 C 30 %
3877 26-03-2020 22:10:18 4.6 C 30 %
3878 26-03-2020 22:20:17 4.5 C 30 %
3879 26-03-2020 22:30:17 4.5 C 30 %
3880 26-03-2020 22:40:17 4.5 C 30 %
3881 26-03-2020 22:50:17 4.4 C 30 %
3882 26-03-2020 23:00:18 4.5 C 30 %
3883 26-03-2020 23:10:18 4.2 C 30 %
3884 26-03-2020 23:20:17 4.2 C 30 %
3885 26-03-2020 23:30:18 3.9 C 31 %
3886 26-03-2020 23:40:18 4 C 30 %
3887 26-03-2020 23:50:18 3.9 C 31 %
3888 27-03-2020 00:00:18 4 C 30 %
3889 27-03-2020 00:10:18 3.9 C 31 %
3890 27-03-2020 00:20:17 4 C 30 %
3891 27-03-2020 00:30:17 4 C 30 %
3892 27-03-2020 00:40:17 3.7 C 32 %
3893 27-03-2020 00:50:18 3.6 C 32 %
3894 27-03-2020 01:00:18 2.7 C 35 %
3895 27-03-2020 01:10:18 2.5 C 36 %
3896 27-03-2020 01:20:17 3 C 35 %
3897 27-03-2020 01:30:18 3.1 C 35 %
3898 27-03-2020 01:40:18 2.7 C 36 %
3899 27-03-2020 01:50:18 3 C 35 %
3900 27-03-2020 02:00:18 2.9 C 35 %
Sensor: Nr:Datum:Temp:Feuchte:
Aussen-T/F 3901 27-03-2020 02:10:18 2.8 C 35 %
3902 27-03-2020 02:20:17 2.7 C 35 %
3903 27-03-2020 02:30:17 2.5 C 36 %
3904 27-03-2020 02:40:17 2.5 C 36 %
3905 27-03-2020 02:50:17 2.6 C 35 %
3906 27-03-2020 03:00:17 2.6 C 35 %
3907 27-03-2020 03:10:17 2.2 C 36 %
3908 27-03-2020 03:20:17 2.5 C 35 %
3909 27-03-2020 03:30:17 2.4 C 35 %
3910 27-03-2020 03:40:17 2.6 C 35 %
3911 27-03-2020 03:50:17 2.4 C 36 %
3912 27-03-2020 04:00:18 2.4 C 35 %
3913 27-03-2020 04:10:18 2.4 C 35 %
3914 27-03-2020 04:20:18 1.4 C 38 %
3915 27-03-2020 04:30:18 1.3 C 38 %
3916 27-03-2020 04:40:18 1.6 C 38 %
3917 27-03-2020 04:50:17 1.8 C 37 %
3918 27-03-2020 05:00:18 1.5 C 38 %
3919 27-03-2020 05:10:18 0.7 C 40 %
3920 27-03-2020 05:20:18 0.4 C 40 %
3921 27-03-2020 05:30:18 0 C 41 %
3922 27-03-2020 05:40:18 0 C 42 %
3923 27-03-2020 05:50:18 -0.1 C 42 %
3924 27-03-2020 06:00:18 -0.5 C 42 %
3925 27-03-2020 06:10:18 -0.6 C 43 %
Sensor: Nr:Datum:Temp:Feuchte:
Aussen-T/F 3926 27-03-2020 06:20:18 -0.4 C 43 %
3927 27-03-2020 06:30:18 -0.4 C 43 %
3928 27-03-2020 06:40:18 -0.3 C 43 %
3929 27-03-2020 06:50:17 -0.3 C 43 %
3930 27-03-2020 07:00:18 -0.2 C 43 %
3931 27-03-2020 07:10:18 -0.1 C 43 %
3932 27-03-2020 07:20:18 0.1 C 43 %
3933 27-03-2020 07:30:18 0.3 C 43 %
3934 27-03-2020 07:40:18 0.8 C 43 %
3935 27-03-2020 07:50:17 1.2 C 41 %
3936 27-03-2020 08:00:17 1.1 C 41 %
3937 27-03-2020 08:10:18 1.9 C 40 %
3938 27-03-2020 08:20:18 1.7 C 40 %
3939 27-03-2020 08:30:18 1.6 C 41 %
3940 27-03-2020 08:40:18 1.9 C 41 %
3941 27-03-2020 08:50:17 2.6 C 39 %
3942 27-03-2020 09:00:18 3 C 38 %
3943 27-03-2020 09:10:18 3.3 C 37 %
3944 27-03-2020 09:20:17 3.6 C 37 %
3945 27-03-2020 09:30:18 4.1 C 36 %
3946 27-03-2020 09:40:18 4.5 C 35 %
3947 27-03-2020 09:50:18 5.3 C 35 %
3948 27-03-2020 10:00:18 5.8 C 34 %
3949 27-03-2020 10:10:18 6.5 C 32 %
3950 27-03-2020 10:20:17 7.6 C 30 %
Sensor: Nr:Datum:Temp:Feuchte:
Aussen-T/F 3951 27-03-2020 10:30:17 8.1 C 28 %
3952 27-03-2020 10:40:17 9.1 C 25 %
3953 27-03-2020 10:50:17 9.3 C 25 %
3954 27-03-2020 11:00:17 10.2 C 20 %
3955 27-03-2020 11:10:17 11 C 20 %
3956 27-03-2020 11:20:17 12.4 C 20 %
3957 27-03-2020 11:30:17 14.5 C 20 %
3958 27-03-2020 11:40:17 14.2 C 20 %
3959 27-03-2020 11:50:17 12.5 C 20 %
3960 27-03-2020 12:00:17 13.4 C 20 %
3961 27-03-2020 12:10:17 13.7 C 20 %
3962 27-03-2020 12:20:17 14.4 C 20 %
3963 27-03-2020 12:30:17 14.1 C 20 %
3964 27-03-2020 12:40:18 14.2 C 20 %
3965 27-03-2020 12:50:18 14.6 C 20 %
3966 27-03-2020 13:00:18 16.6 C 20 %
3967 27-03-2020 13:10:18 15.8 C 20 %
3968 27-03-2020 13:20:17 17.6 C 20 %
3969 27-03-2020 13:30:18 18.8 C 20 %
3970 27-03-2020 13:40:18 16.8 C 20 %
3971 27-03-2020 13:50:18 17.3 C 20 %
3972 27-03-2020 14:00:18 16.9 C 20 %
3973 27-03-2020 14:10:18 17.6 C 20 %
3974 27-03-2020 14:20:18 17.7 C 20 %
3975 27-03-2020 14:30:17 20.4 C 20 %
Sensor: Nr:Datum:Temp:Feuchte:
Aussen-T/F 3976 27-03-2020 14:40:17 18.1 C 20 %
3977 27-03-2020 14:50:17 18.4 C 20 %
3978 27-03-2020 15:00:17 18.5 C 20 %
3979 27-03-2020 15:10:17 18.7 C 20 %
3980 27-03-2020 15:20:17 18.9 C 20 %
3981 27-03-2020 15:30:18 19.4 C 20 %
3982 27-03-2020 15:40:18 18.3 C 20 %
3983 27-03-2020 15:50:17 19.5 C 20 %
3984 27-03-2020 16:00:17 18.5 C 20 %
3985 27-03-2020 16:10:17 18.2 C 20 %
3986 27-03-2020 16:20:17 19.2 C 20 %
3987 27-03-2020 16:30:17 18.3 C 20 %
3988 27-03-2020 16:40:17 18 C 20 %
3989 27-03-2020 16:50:17 17 C 20 %
3990 27-03-2020 17:00:18 16.4 C 20 %
3991 27-03-2020 17:10:18 16.3 C 20 %
3992 27-03-2020 17:20:18 16.1 C 20 %
3993 27-03-2020 17:30:18 16 C 20 %
3994 27-03-2020 17:40:18 15.8 C 20 %
3995 27-03-2020 17:50:18 15.7 C 20 %
3996 27-03-2020 18:00:17 15.4 C 20 %
3997 27-03-2020 18:10:17 15 C 20 %
3998 27-03-2020 18:20:17 14.1 C 20 %
3999 27-03-2020 18:30:18 13.5 C 20 %
4000 27-03-2020 18:40:18 12.9 C 20 %
Sensor: Nr:Datum:Temp:Feuchte:
Aussen-T/F 4001 27-03-2020 18:50:18 12.3 C 20 %
4002 27-03-2020 19:00:18 11.8 C 20 %
4003 27-03-2020 19:10:18 11.5 C 20 %
4004 27-03-2020 19:20:17 11.4 C 20 %
4005 27-03-2020 19:30:17 10.7 C 20 %
4006 27-03-2020 19:40:17 10.7 C 21 %
4007 27-03-2020 19:50:17 10.4 C 23 %
4008 27-03-2020 20:00:18 10.4 C 22 %
4009 27-03-2020 20:10:18 9.2 C 26 %
4010 27-03-2020 20:20:17 8.9 C 28 %
4011 27-03-2020 20:30:17 8.4 C 30 %
4012 27-03-2020 20:40:17 8.1 C 30 %
4013 27-03-2020 20:50:18 7.8 C 31 %
4014 27-03-2020 21:00:17 7.4 C 31 %
4015 27-03-2020 21:10:17 7.3 C 32 %
4016 27-03-2020 21:20:17 7.1 C 32 %
4017 27-03-2020 21:30:17 7 C 32 %
4018 27-03-2020 21:40:17 6.6 C 33 %
4019 27-03-2020 21:50:17 6.6 C 34 %
4020 27-03-2020 22:00:17 6.4 C 34 %
4021 27-03-2020 22:10:17 6.3 C 34 %
4022 27-03-2020 22:20:17 6 C 35 %
4023 27-03-2020 22:30:18 5.8 C 35 %
4024 27-03-2020 22:40:18 5.6 C 35 %
4025 27-03-2020 22:50:18 5.5 C 36 %
Sensor: Nr:Datum:Temp:Feuchte:
Aussen-T/F 4026 27-03-2020 23:00:18 5.6 C 36 %
4027 27-03-2020 23:10:18 5.6 C 36 %
4028 27-03-2020 23:20:17 5.3 C 36 %
4029 27-03-2020 23:30:17 5.2 C 36 %
4030 27-03-2020 23:40:17 5.1 C 36 %
4031 27-03-2020 23:50:17 4.8 C 37 %
4032 28-03-2020 00:00:17 4.8 C 38 %
4033 28-03-2020 00:10:17 4.8 C 39 %
4034 28-03-2020 00:20:17 5 C 37 %
4035 28-03-2020 00:30:18 4.9 C 38 %
4036 28-03-2020 00:40:18 4.7 C 38 %
4037 28-03-2020 00:50:17 4.7 C 38 %
4038 28-03-2020 01:00:17 4.6 C 38 %
4039 28-03-2020 01:10:17 4.4 C 39 %
4040 28-03-2020 01:20:17 4.3 C 39 %
4041 28-03-2020 01:30:17 4.1 C 39 %
4042 28-03-2020 01:40:18 3.9 C 40 %
4043 28-03-2020 01:50:17 3.7 C 41 %
4044 28-03-2020 02:00:18 3.6 C 41 %
4045 28-03-2020 02:10:18 3.3 C 41 %
4046 28-03-2020 02:20:18 3.1 C 41 %
4047 28-03-2020 02:30:17 3.7 C 42 %
4048 28-03-2020 02:40:17 3.7 C 41 %
4049 28-03-2020 02:50:18 3.4 C 41 %
4050 28-03-2020 03:00:18 3.1 C 41 %
Sensor: Nr:Datum:Temp:Feuchte:
Aussen-T/F 4051 28-03-2020 03:10:18 2.9 C 42 %
4052 28-03-2020 03:20:17 2.8 C 43 %
4053 28-03-2020 03:30:18 2.6 C 43 %
4054 28-03-2020 03:40:18 2.1 C 43 %
4055 28-03-2020 03:50:17 2.1 C 44 %
4056 28-03-2020 04:00:18 2.2 C 44 %
4057 28-03-2020 04:10:18 2.1 C 44 %
4058 28-03-2020 04:20:18 1.9 C 45 %
4059 28-03-2020 04:30:18 1.7 C 45 %
4060 28-03-2020 04:40:18 1.8 C 46 %
4061 28-03-2020 04:50:17 1.8 C 46 %
4062 28-03-2020 05:00:18 1.7 C 45 %
4063 28-03-2020 05:10:18 1.6 C 45 %
4064 28-03-2020 05:20:17 1.5 C 45 %
4065 28-03-2020 05:30:18 1.3 C 46 %
4066 28-03-2020 05:40:18 1.2 C 46 %
4067 28-03-2020 05:50:18 1.2 C 46 %
4068 28-03-2020 06:00:18 1.2 C 46 %
4069 28-03-2020 06:10:18 1.3 C 46 %
4070 28-03-2020 06:20:17 1.1 C 46 %
4071 28-03-2020 06:30:17 1.1 C 46 %
4072 28-03-2020 06:40:17 1 C 46 %
4073 28-03-2020 06:50:17 1.2 C 47 %
4074 28-03-2020 07:00:17 1.5 C 47 %
4075 28-03-2020 07:10:17 1.7 C 47 %
Sensor: Nr:Datum:Temp:Feuchte:
Aussen-T/F 4076 28-03-2020 07:20:17 1.9 C 47 %
4077 28-03-2020 07:30:18 1.9 C 46 %
4078 28-03-2020 07:40:18 1.9 C 46 %
4079 28-03-2020 07:50:17 2 C 45 %
4080 28-03-2020 08:00:17 2.2 C 45 %
4081 28-03-2020 08:10:18 2.5 C 45 %
4082 28-03-2020 08:20:18 2.8 C 46 %
4083 28-03-2020 08:30:17 3.2 C 45 %
4084 28-03-2020 08:40:17 3.7 C 44 %
4085 28-03-2020 08:50:18 4 C 43 %
4086 28-03-2020 09:00:18 4.6 C 43 %
4087 28-03-2020 09:10:18 5.1 C 41 %
4088 28-03-2020 09:20:17 5.7 C 41 %
4089 28-03-2020 09:30:18 6.3 C 40 %
4090 28-03-2020 09:40:18 6.9 C 40 %
4091 28-03-2020 09:50:18 7.8 C 38 %
4092 28-03-2020 10:00:18 8.4 C 37 %
4093 28-03-2020 10:10:18 9.5 C 35 %
4094 28-03-2020 10:20:17 10.2 C 32 %
4095 28-03-2020 10:30:17 10.9 C 31 %
4096 28-03-2020 10:40:17 11.6 C 30 %
4097 28-03-2020 10:50:18 12.2 C 29 %
4098 28-03-2020 11:00:18 13.4 C 26 %
4099 28-03-2020 11:10:18 13.6 C 25 %
4100 28-03-2020 11:20:17 15.8 C 20 %
Sensor: Nr:Datum:Temp:Feuchte:
Aussen-T/F 4101 28-03-2020 11:30:17 16.7 C 20 %
4102 28-03-2020 11:40:17 16.4 C 20 %
4103 28-03-2020 11:50:18 15.9 C 20 %
4104 28-03-2020 12:00:17 16.6 C 20 %
4105 28-03-2020 12:10:17 17 C 20 %
4106 28-03-2020 12:20:17 17.7 C 20 %
4107 28-03-2020 12:30:17 17.8 C 20 %
4108 28-03-2020 12:40:17 18.1 C 20 %
4109 28-03-2020 12:50:18 18 C 20 %
4110 28-03-2020 13:00:18 18.6 C 20 %
4111 28-03-2020 13:10:18 19.6 C 20 %
4112 28-03-2020 13:20:18 21.7 C 20 %
4113 28-03-2020 13:30:17 21.1 C 20 %
4114 28-03-2020 13:40:17 20.7 C 20 %
4115 28-03-2020 13:50:18 20.6 C 20 %
4116 28-03-2020 14:00:17 21.1 C 20 %
4117 28-03-2020 14:10:17 21.3 C 20 %
4118 28-03-2020 14:20:17 21.9 C 20 %
4119 28-03-2020 14:30:17 23.7 C 20 %
4120 28-03-2020 14:40:17 24.3 C 20 %
4121 28-03-2020 14:50:17 23.2 C 20 %
4122 28-03-2020 15:00:18 22.4 C 20 %
4123 28-03-2020 15:10:18 19.9 C 20 %
4124 28-03-2020 15:20:18 18.6 C 20 %
4125 28-03-2020 15:30:18 19.6 C 20 %
Sensor: Nr:Datum:Temp:Feuchte:
Aussen-T/F 4126 28-03-2020 15:40:18 22.1 C 20 %
4127 28-03-2020 15:50:18 20.5 C 20 %
4128 28-03-2020 16:00:18 21.1 C 20 %
4129 28-03-2020 16:10:18 21.1 C 20 %
4130 28-03-2020 16:20:18 19.9 C 20 %
4131 28-03-2020 16:30:18 19.6 C 20 %
4132 28-03-2020 16:40:18 19.6 C 20 %
4133 28-03-2020 16:50:18 18.5 C 20 %
4134 28-03-2020 17:00:18 17.9 C 20 %
4135 28-03-2020 17:10:18 17 C 20 %
4136 28-03-2020 17:20:18 16.6 C 20 %
4137 28-03-2020 17:30:18 16.2 C 20 %
4138 28-03-2020 17:40:18 16.2 C 20 %
4139 28-03-2020 17:50:17 15.4 C 20 %
4140 28-03-2020 18:00:18 14.9 C 20 %
4141 28-03-2020 18:10:18 14.6 C 20 %
4142 28-03-2020 18:20:17 14 C 20 %
4143 28-03-2020 18:30:17 13.5 C 20 %
4144 28-03-2020 18:40:17 13.1 C 20 %
4145 28-03-2020 18:50:18 12.6 C 20 %
4146 28-03-2020 19:00:18 12.3 C 20 %
4147 28-03-2020 19:10:18 11.7 C 20 %
4148 28-03-2020 19:20:18 11.7 C 20 %
4149 28-03-2020 19:30:18 11.4 C 20 %
4150 28-03-2020 19:40:18 11.2 C 20 %
Sensor: Nr:Datum:Temp:Feuchte:
Aussen-T/F 4151 28-03-2020 19:50:17 10.8 C 20 %
4152 28-03-2020 20:00:18 10.3 C 20 %
4153 28-03-2020 20:10:18 10.7 C 20 %
4154 28-03-2020 20:20:17 10.5 C 20 %
4155 28-03-2020 20:30:18 10 C 20 %
4156 28-03-2020 20:40:18 9.2 C 20 %
4157 28-03-2020 20:50:17 8.7 C 20 %
4158 28-03-2020 21:00:17 8.8 C 20 %
4159 28-03-2020 21:10:17 9.2 C 20 %
4160 28-03-2020 21:20:17 8.7 C 23 %
4161 28-03-2020 21:30:17 8.1 C 25 %
4162 28-03-2020 21:40:17 8.4 C 23 %
4163 28-03-2020 21:50:17 7.6 C 25 %
4164 28-03-2020 22:00:17 8.3 C 25 %
4165 28-03-2020 22:10:17 8.5 C 21 %
4166 28-03-2020 22:20:17 8.4 C 25 %
4167 28-03-2020 22:30:17 8.3 C 26 %
4168 28-03-2020 22:40:17 7.9 C 26 %
4169 28-03-2020 22:50:17 7.4 C 28 %
4170 28-03-2020 23:00:17 7.3 C 30 %
4171 28-03-2020 23:10:17 7.2 C 30 %
4172 28-03-2020 23:20:18 7.1 C 30 %
4173 28-03-2020 23:30:18 7.1 C 31 %
4174 28-03-2020 23:40:18 6.8 C 32 %
4175 28-03-2020 23:50:17 6.7 C 33 %
Sensor: Nr:Datum:Temp:Feuchte:
G-T/H 1 29-02-2020 00:08:18 8.5 C 75 %
2 29-02-2020 00:18:18 8.5 C 75 %
3 29-02-2020 00:28:18 8.6 C 75 %
4 29-02-2020 00:38:18 8.6 C 75 %
5 29-02-2020 00:48:17 8.6 C 75 %
6 29-02-2020 00:58:17 8.6 C 75 %
7 29-02-2020 01:08:18 8.6 C 75 %
8 29-02-2020 01:18:18 8.6 C 75 %
9 29-02-2020 01:28:18 8.6 C 75 %
10 29-02-2020 01:38:18 8.6 C 75 %
11 29-02-2020 01:48:17 8.6 C 75 %
12 29-02-2020 01:58:17 8.6 C 75 %
13 29-02-2020 02:08:18 8.6 C 75 %
14 29-02-2020 02:18:18 8.6 C 75 %
15 29-02-2020 02:28:18 8.6 C 75 %
16 29-02-2020 02:38:18 8.6 C 75 %
17 29-02-2020 02:48:17 8.6 C 75 %
18 29-02-2020 02:58:17 8.6 C 75 %
19 29-02-2020 03:08:18 8.6 C 75 %
20 29-02-2020 03:18:18 8.6 C 75 %
21 29-02-2020 03:28:18 8.6 C 75 %
22 29-02-2020 03:38:18 8.6 C 75 %
23 29-02-2020 03:48:17 8.7 C 75 %
24 29-02-2020 03:58:17 8.7 C 75 %
25 29-02-2020 04:08:18 8.7 C 75 %
Sensor: Nr:Datum:Temp:Feuchte:
G-T/H 26 29-02-2020 04:18:17 8.7 C 75 %
27 29-02-2020 04:28:18 8.7 C 75 %
28 29-02-2020 04:38:18 8.7 C 75 %
29 29-02-2020 04:48:17 8.7 C 75 %
30 29-02-2020 04:58:17 8.7 C 75 %
31 29-02-2020 05:08:18 8.7 C 75 %
32 29-02-2020 05:18:17 8.7 C 75 %
33 29-02-2020 05:28:17 8.7 C 75 %
34 29-02-2020 05:38:17 8.7 C 75 %
35 29-02-2020 05:48:18 8.8 C 75 %
36 29-02-2020 05:58:18 8.7 C 75 %
37 29-02-2020 06:08:17 8.7 C 75 %
38 29-02-2020 06:18:17 8.8 C 75 %
39 29-02-2020 06:28:17 8.8 C 75 %
40 29-02-2020 06:38:17 8.8 C 76 %
41 29-02-2020 06:48:17 8.8 C 76 %
42 29-02-2020 06:58:17 8.8 C 76 %
43 29-02-2020 07:08:17 8.8 C 76 %
44 29-02-2020 07:18:17 8.8 C 76 %
45 29-02-2020 07:28:17 8.8 C 76 %
46 29-02-2020 07:38:17 8.8 C 76 %
47 29-02-2020 07:48:17 8.8 C 76 %
48 29-02-2020 07:58:17 8.9 C 76 %
49 29-02-2020 08:08:17 8.9 C 76 %
50 29-02-2020 08:18:17 8.9 C 76 %
Sensor: Nr:Datum:Temp:Feuchte:
G-T/H 51 29-02-2020 08:28:17 8.9 C 76 %
52 29-02-2020 08:38:17 8.9 C 76 %
53 29-02-2020 08:48:17 8.9 C 76 %
54 29-02-2020 08:58:17 8.9 C 76 %
55 29-02-2020 09:08:17 8.9 C 76 %
56 29-02-2020 09:18:17 8.9 C 76 %
57 29-02-2020 09:28:17 8.9 C 76 %
58 29-02-2020 09:38:17 8.9 C 76 %
59 29-02-2020 09:48:17 9 C 75 %
60 29-02-2020 09:58:17 8.9 C 76 %
61 29-02-2020 10:08:17 9 C 75 %
62 29-02-2020 10:18:17 9 C 75 %
63 29-02-2020 10:28:17 9 C 75 %
64 29-02-2020 10:38:18 9 C 75 %
65 29-02-2020 10:48:17 9 C 75 %
66 29-02-2020 10:58:17 9 C 75 %
67 29-02-2020 11:08:18 9 C 75 %
68 29-02-2020 11:18:17 9 C 75 %
69 29-02-2020 11:28:17 9.1 C 75 %
70 29-02-2020 11:38:17 9.1 C 75 %
71 29-02-2020 11:48:17 9.1 C 75 %
72 29-02-2020 11:58:17 9.3 C 75 %
73 29-02-2020 12:08:17 9.3 C 75 %
74 29-02-2020 12:18:18 9.3 C 75 %
75 29-02-2020 12:28:18 9.3 C 75 %
Sensor: Nr:Datum:Temp:Feuchte:
G-T/H 76 29-02-2020 12:38:17 9.4 C 75 %
77 29-02-2020 12:48:17 9.4 C 75 %
78 29-02-2020 12:58:17 9.4 C 75 %
79 29-02-2020 13:08:17 9.4 C 75 %
80 29-02-2020 13:18:17 9.4 C 75 %
81 29-02-2020 13:28:17 9.4 C 75 %
82 29-02-2020 13:38:18 9.5 C 75 %
83 29-02-2020 13:48:18 9.5 C 75 %
84 29-02-2020 13:58:18 9.5 C 75 %
85 29-02-2020 14:08:18 9.5 C 75 %
86 29-02-2020 14:18:17 9.5 C 75 %
87 29-02-2020 14:28:17 9.6 C 75 %
88 29-02-2020 14:38:17 9.6 C 75 %
89 29-02-2020 14:48:17 9.6 C 75 %
90 29-02-2020 14:58:17 9.6 C 75 %
91 29-02-2020 15:08:17 9.6 C 75 %
92 29-02-2020 15:18:17 9.6 C 75 %
93 29-02-2020 15:28:17 9.6 C 75 %
94 29-02-2020 15:38:18 9.7 C 75 %
95 29-02-2020 15:48:17 9.7 C 76 %
96 29-02-2020 15:58:17 9.7 C 76 %
97 29-02-2020 16:08:18 9.7 C 76 %
98 29-02-2020 16:18:17 9.7 C 76 %
99 29-02-2020 16:28:18 9.8 C 76 %
100 29-02-2020 16:38:18 9.8 C 76 %
Sensor: Nr:Datum:Temp:Feuchte:
G-T/H 101 29-02-2020 16:48:17 9.8 C 76 %
102 29-02-2020 16:58:17 9.8 C 76 %
103 29-02-2020 17:08:18 9.8 C 76 %
104 29-02-2020 17:18:17 9.8 C 76 %
105 29-02-2020 17:28:18 9.9 C 76 %
106 29-02-2020 17:38:18 9.9 C 76 %
107 29-02-2020 17:48:18 9.8 C 76 %
108 29-02-2020 17:58:18 9.9 C 76 %
109 29-02-2020 18:08:18 9.9 C 76 %
110 29-02-2020 18:18:18 9.9 C 76 %
111 29-02-2020 18:28:18 9.9 C 76 %
112 29-02-2020 18:38:18 10 C 75 %
113 29-02-2020 18:48:17 9.9 C 76 %
114 29-02-2020 18:58:17 9.9 C 76 %
115 29-02-2020 19:08:17 9.9 C 76 %
116 29-02-2020 19:18:18 9.9 C 76 %
117 29-02-2020 19:28:18 9.9 C 76 %
118 29-02-2020 19:38:18 9.9 C 76 %
119 29-02-2020 19:48:18 9.9 C 76 %
120 29-02-2020 19:58:18 10 C 74 %
121 29-02-2020 20:08:18 9.9 C 76 %
122 29-02-2020 20:18:18 10 C 74 %
123 29-02-2020 20:28:18 10 C 74 %
124 29-02-2020 20:38:18 10 C 74 %
125 29-02-2020 20:48:18 10 C 74 %
Sensor: Nr:Datum:Temp:Feuchte:
G-T/H 126 29-02-2020 20:58:18 10 C 74 %
127 29-02-2020 21:08:18 10 C 74 %
128 29-02-2020 21:18:17 10 C 74 %
129 29-02-2020 21:28:17 10 C 74 %
130 29-02-2020 21:38:17 10 C 74 %
131 29-02-2020 21:48:17 10 C 74 %
132 29-02-2020 21:58:17 10 C 74 %
133 29-02-2020 22:08:17 10 C 74 %
134 29-02-2020 22:18:18 10 C 74 %
135 29-02-2020 22:28:18 10 C 74 %
136 29-02-2020 22:38:18 10 C 74 %
137 29-02-2020 22:48:17 10 C 74 %
138 29-02-2020 22:58:18 10 C 74 %
139 29-02-2020 23:08:18 10 C 74 %
140 29-02-2020 23:18:18 10 C 74 %
141 29-02-2020 23:28:18 10 C 74 %
142 29-02-2020 23:38:18 9.9 C 75 %
143 29-02-2020 23:48:18 10 C 74 %
144 29-02-2020 23:58:18 9.9 C 75 %
145 01-03-2020 00:08:18 9.9 C 75 %
146 01-03-2020 00:18:18 9.9 C 75 %
147 01-03-2020 00:28:18 9.9 C 75 %
148 01-03-2020 00:38:18 9.9 C 75 %
149 01-03-2020 00:48:17 9.9 C 75 %
150 01-03-2020 00:58:18 9.9 C 75 %
Sensor: Nr:Datum:Temp:Feuchte:
G-T/H 151 01-03-2020 01:08:17 9.9 C 75 %
152 01-03-2020 01:18:18 9.9 C 75 %
153 01-03-2020 01:28:18 9.8 C 75 %
154 01-03-2020 01:38:18 9.8 C 74 %
155 01-03-2020 01:48:17 9.8 C 74 %
156 01-03-2020 01:58:17 9.8 C 74 %
157 01-03-2020 02:08:17 9.8 C 74 %
158 01-03-2020 02:18:17 9.8 C 74 %
159 01-03-2020 02:28:17 9.8 C 74 %
160 01-03-2020 02:38:17 9.8 C 74 %
161 01-03-2020 02:48:17 9.8 C 74 %
162 01-03-2020 02:58:17 9.8 C 74 %
163 01-03-2020 03:08:18 9.8 C 74 %
164 01-03-2020 03:18:17 9.8 C 74 %
165 01-03-2020 03:28:17 9.8 C 74 %
166 01-03-2020 03:38:18 9.8 C 74 %
167 01-03-2020 03:48:17 9.8 C 74 %
168 01-03-2020 03:58:17 9.7 C 74 %
169 01-03-2020 04:08:17 9.7 C 74 %
170 01-03-2020 04:18:17 9.7 C 74 %
171 01-03-2020 04:28:17 9.7 C 74 %
172 01-03-2020 04:38:18 9.7 C 74 %
173 01-03-2020 04:48:17 9.7 C 74 %
174 01-03-2020 04:58:17 9.7 C 74 %
175 01-03-2020 05:08:17 9.7 C 74 %
Sensor: Nr:Datum:Temp:Feuchte:
G-T/H 176 01-03-2020 05:18:18 9.7 C 74 %
177 01-03-2020 05:28:18 9.7 C 74 %
178 01-03-2020 05:38:18 9.7 C 74 %
179 01-03-2020 05:48:17 9.7 C 74 %
180 01-03-2020 05:58:18 9.7 C 74 %
181 01-03-2020 06:08:18 9.7 C 74 %
182 01-03-2020 06:18:17 9.7 C 74 %
183 01-03-2020 06:28:17 9.7 C 74 %
184 01-03-2020 06:38:17 9.7 C 74 %
185 01-03-2020 06:48:17 9.7 C 74 %
186 01-03-2020 06:58:17 9.7 C 74 %
187 01-03-2020 07:08:17 9.7 C 74 %
188 01-03-2020 07:18:17 9.7 C 74 %
189 01-03-2020 07:28:18 9.6 C 74 %
190 01-03-2020 07:38:18 9.7 C 74 %
191 01-03-2020 07:48:18 9.7 C 74 %
192 01-03-2020 07:58:18 9.7 C 74 %
193 01-03-2020 08:08:18 9.7 C 74 %
194 01-03-2020 08:18:17 9.7 C 74 %
195 01-03-2020 08:28:17 9.7 C 74 %
196 01-03-2020 08:38:17 9.6 C 74 %
197 01-03-2020 08:48:17 9.6 C 74 %
198 01-03-2020 08:58:17 9.6 C 74 %
199 01-03-2020 09:08:17 9.6 C 74 %
200 01-03-2020 09:18:17 9.6 C 74 %
Sensor: Nr:Datum:Temp:Feuchte:
G-T/H 201 01-03-2020 09:28:17 9.6 C 74 %
202 01-03-2020 09:38:17 9.6 C 74 %
203 01-03-2020 09:48:18 9.6 C 74 %
204 01-03-2020 09:58:18 9.6 C 74 %
205 01-03-2020 10:08:17 9.6 C 74 %
206 01-03-2020 10:18:17 9.6 C 74 %
207 01-03-2020 10:28:17 9.6 C 74 %
208 01-03-2020 10:38:17 9.6 C 74 %
209 01-03-2020 10:48:17 9.6 C 74 %
210 01-03-2020 10:58:17 9.6 C 74 %
211 01-03-2020 11:08:17 9.6 C 74 %
212 01-03-2020 11:18:17 9.6 C 74 %
213 01-03-2020 11:28:18 9.6 C 74 %
214 01-03-2020 11:38:18 9.6 C 75 %
215 01-03-2020 11:48:17 9.6 C 75 %
216 01-03-2020 11:58:17 9.6 C 75 %
217 01-03-2020 12:08:17 9.6 C 75 %
218 01-03-2020 12:18:17 9.6 C 75 %
219 01-03-2020 12:28:17 9.6 C 75 %
220 01-03-2020 12:38:18 9.6 C 75 %
221 01-03-2020 12:48:18 9.6 C 75 %
222 01-03-2020 12:58:18 9.6 C 75 %
223 01-03-2020 13:08:18 9.6 C 75 %
224 01-03-2020 13:18:17 9.6 C 75 %
225 01-03-2020 13:28:17 9.6 C 75 %
Sensor: Nr:Datum:Temp:Feuchte:
G-T/H 226 01-03-2020 13:38:17 9.7 C 75 %
227 01-03-2020 13:48:17 9.7 C 75 %
228 01-03-2020 13:58:17 9.7 C 75 %
229 01-03-2020 14:08:18 9.7 C 75 %
230 01-03-2020 14:18:18 9.7 C 75 %
231 01-03-2020 14:28:18 9.7 C 75 %
232 01-03-2020 14:38:18 9.7 C 75 %
233 01-03-2020 14:48:17 9.7 C 75 %
234 01-03-2020 14:58:18 9.7 C 75 %
235 01-03-2020 15:08:18 9.8 C 75 %
236 01-03-2020 15:18:17 9.8 C 75 %
237 01-03-2020 15:28:17 9.8 C 75 %
238 01-03-2020 15:38:18 9.8 C 75 %
239 01-03-2020 15:48:18 9.8 C 75 %
240 01-03-2020 15:58:18 9.8 C 75 %
241 01-03-2020 16:08:18 9.9 C 75 %
242 01-03-2020 16:18:18 9.9 C 75 %
243 01-03-2020 16:28:18 9.8 C 75 %
244 01-03-2020 16:38:18 9.9 C 75 %
245 01-03-2020 16:48:18 9.9 C 75 %
246 01-03-2020 16:58:18 9.9 C 75 %
247 01-03-2020 17:08:18 9.9 C 75 %
248 01-03-2020 17:18:17 9.9 C 75 %
249 01-03-2020 17:28:17 9.9 C 75 %
250 01-03-2020 17:38:17 9.9 C 75 %
Sensor: Nr:Datum:Temp:Feuchte:
G-T/H 251 01-03-2020 17:48:17 9.9 C 75 %
252 01-03-2020 17:58:17 9.9 C 75 %
253 01-03-2020 18:08:18 10 C 74 %
254 01-03-2020 18:18:18 10 C 74 %
255 01-03-2020 18:28:18 10 C 74 %
256 01-03-2020 18:38:18 10 C 74 %
257 01-03-2020 18:48:18 10 C 74 %
258 01-03-2020 18:58:18 10 C 74 %
259 01-03-2020 19:08:18 10 C 74 %
260 01-03-2020 19:18:17 10 C 74 %
261 01-03-2020 19:28:17 10 C 74 %
262 01-03-2020 19:38:17 10 C 74 %
263 01-03-2020 19:48:17 10 C 74 %
264 01-03-2020 19:58:17 10 C 74 %
265 01-03-2020 20:08:17 10 C 74 %
266 01-03-2020 20:18:17 10 C 74 %
267 01-03-2020 20:28:17 10.1 C 74 %
268 01-03-2020 20:38:17 10 C 74 %
269 01-03-2020 20:48:17 10 C 75 %
270 01-03-2020 20:58:17 10 C 74 %
271 01-03-2020 21:08:17 10 C 74 %
272 01-03-2020 21:18:17 10.1 C 74 %
273 01-03-2020 21:28:17 10.1 C 74 %
274 01-03-2020 21:38:17 10.1 C 74 %
275 01-03-2020 21:48:17 10.1 C 74 %
Sensor: Nr:Datum:Temp:Feuchte:
G-T/H 276 01-03-2020 21:58:17 10.1 C 74 %
277 01-03-2020 22:08:17 10 C 74 %
278 01-03-2020 22:18:17 10.1 C 74 %
279 01-03-2020 22:28:17 10 C 74 %
280 01-03-2020 22:38:18 10.1 C 74 %
281 01-03-2020 22:48:17 10.1 C 74 %
282 01-03-2020 22:58:17 10.1 C 74 %
283 01-03-2020 23:08:18 10.1 C 74 %
284 01-03-2020 23:18:18 10.1 C 74 %
285 01-03-2020 23:28:18 10 C 74 %
286 01-03-2020 23:38:18 10.1 C 74 %
287 01-03-2020 23:48:18 10.1 C 74 %
288 01-03-2020 23:58:18 10 C 74 %
289 02-03-2020 00:08:18 10 C 74 %
290 02-03-2020 00:18:17 10 C 74 %
291 02-03-2020 00:28:17 10 C 73 %
292 02-03-2020 00:38:17 10 C 73 %
293 02-03-2020 00:48:17 10 C 73 %
294 02-03-2020 00:58:18 10 C 73 %
295 02-03-2020 01:08:18 9.9 C 74 %
296 02-03-2020 01:18:17 9.9 C 74 %
297 02-03-2020 01:28:17 9.9 C 73 %
298 02-03-2020 01:38:17 9.9 C 73 %
299 02-03-2020 01:48:18 9.9 C 73 %
300 02-03-2020 01:58:18 9.9 C 73 %
Sensor: Nr:Datum:Temp:Feuchte:
G-T/H 301 02-03-2020 02:08:18 9.9 C 73 %
302 02-03-2020 02:18:17 9.8 C 73 %
303 02-03-2020 02:28:17 9.8 C 73 %
304 02-03-2020 02:38:17 9.8 C 73 %
305 02-03-2020 02:48:17 9.8 C 72 %
306 02-03-2020 02:58:18 9.8 C 72 %
307 02-03-2020 03:08:18 9.8 C 72 %
308 02-03-2020 03:18:18 9.7 C 72 %
309 02-03-2020 03:28:18 9.7 C 72 %
310 02-03-2020 03:38:18 9.8 C 72 %
311 02-03-2020 03:48:18 9.7 C 72 %
312 02-03-2020 03:58:18 9.7 C 72 %
313 02-03-2020 04:08:18 9.7 C 72 %
314 02-03-2020 04:18:17 9.7 C 72 %
315 02-03-2020 04:28:17 9.7 C 72 %
316 02-03-2020 04:38:18 9.7 C 72 %
317 02-03-2020 04:48:18 9.7 C 72 %
318 02-03-2020 04:58:18 9.7 C 72 %
319 02-03-2020 05:08:18 9.7 C 72 %
320 02-03-2020 05:18:17 9.7 C 72 %
321 02-03-2020 05:28:17 9.7 C 72 %
322 02-03-2020 05:38:18 9.6 C 72 %
323 02-03-2020 05:48:18 9.6 C 72 %
324 02-03-2020 05:58:18 9.6 C 72 %
325 02-03-2020 06:08:18 9.6 C 72 %
Sensor: Nr:Datum:Temp:Feuchte:
G-T/H 326 02-03-2020 06:18:18 9.6 C 72 %
327 02-03-2020 06:28:18 9.6 C 72 %
328 02-03-2020 06:38:18 9.6 C 72 %
329 02-03-2020 06:48:17 9.6 C 72 %
330 02-03-2020 06:58:17 9.5 C 72 %
331 02-03-2020 07:08:18 9.5 C 72 %
332 02-03-2020 07:18:18 9.5 C 72 %
333 02-03-2020 07:28:18 9.5 C 72 %
334 02-03-2020 07:38:18 9.5 C 72 %
335 02-03-2020 07:48:18 9.5 C 72 %
336 02-03-2020 07:58:18 9.5 C 72 %
337 02-03-2020 08:08:18 9.4 C 72 %
338 02-03-2020 08:18:17 9.5 C 72 %
339 02-03-2020 08:28:17 9.5 C 73 %
340 02-03-2020 08:38:18 9.5 C 73 %
341 02-03-2020 08:48:18 9.4 C 73 %
342 02-03-2020 08:58:18 9.4 C 73 %
343 02-03-2020 09:08:17 9.4 C 73 %
344 02-03-2020 09:18:17 9.4 C 73 %
345 02-03-2020 09:28:17 9.4 C 73 %
346 02-03-2020 09:38:17 9.4 C 73 %
347 02-03-2020 09:48:17 9.3 C 73 %
348 02-03-2020 09:58:17 9.3 C 73 %
349 02-03-2020 10:08:17 9.3 C 73 %
350 02-03-2020 10:18:17 9.3 C 73 %
Sensor: Nr:Datum:Temp:Feuchte:
G-T/H 351 02-03-2020 10:28:17 9.4 C 73 %
352 02-03-2020 10:38:18 9.3 C 73 %
353 02-03-2020 10:48:17 9.3 C 73 %
354 02-03-2020 10:58:17 9.3 C 73 %
355 02-03-2020 11:08:17 9.4 C 73 %
356 02-03-2020 11:18:17 9.3 C 73 %
357 02-03-2020 11:28:17 9.4 C 73 %
358 02-03-2020 11:38:17 9.4 C 73 %
359 02-03-2020 11:48:17 9.4 C 73 %
360 02-03-2020 11:58:17 9.4 C 73 %
361 02-03-2020 12:08:17 9.4 C 73 %
362 02-03-2020 12:18:17 9.4 C 73 %
363 02-03-2020 12:28:17 9.4 C 74 %
364 02-03-2020 12:38:18 9.4 C 74 %
365 02-03-2020 12:48:18 9.4 C 74 %
366 02-03-2020 12:58:18 9.5 C 74 %
367 02-03-2020 13:08:18 9.5 C 74 %
368 02-03-2020 13:18:18 9.5 C 74 %
369 02-03-2020 13:28:18 9.5 C 74 %
370 02-03-2020 13:38:17 9.5 C 74 %
371 02-03-2020 13:48:17 9.5 C 74 %
372 02-03-2020 13:58:17 9.5 C 74 %
373 02-03-2020 14:08:17 9.5 C 74 %
374 02-03-2020 14:18:17 9.5 C 74 %
375 02-03-2020 14:28:17 9.6 C 74 %
Sensor: Nr:Datum:Temp:Feuchte:
G-T/H 376 02-03-2020 14:38:17 9.6 C 74 %
377 02-03-2020 14:48:17 9.6 C 74 %
378 02-03-2020 14:58:17 9.6 C 74 %
379 02-03-2020 15:08:18 9.6 C 74 %
380 02-03-2020 15:18:18 9.6 C 74 %
381 02-03-2020 15:28:18 9.6 C 74 %
382 02-03-2020 15:38:18 9.7 C 74 %
383 02-03-2020 15:48:17 9.7 C 74 %
384 02-03-2020 15:58:18 9.7 C 74 %
385 02-03-2020 16:08:18 9.7 C 74 %
386 02-03-2020 16:18:18 9.7 C 74 %
387 02-03-2020 16:28:18 9.7 C 74 %
388 02-03-2020 16:38:18 9.7 C 74 %
389 02-03-2020 16:48:17 9.7 C 75 %
390 02-03-2020 16:58:17 9.7 C 75 %
391 02-03-2020 17:08:17 9.7 C 75 %
392 02-03-2020 17:18:17 9.8 C 75 %
393 02-03-2020 17:28:17 9.8 C 75 %
394 02-03-2020 17:38:18 9.8 C 75 %
395 02-03-2020 17:48:17 9.8 C 75 %
396 02-03-2020 17:58:18 9.8 C 75 %
397 02-03-2020 18:08:18 9.8 C 75 %
398 02-03-2020 18:18:18 9.8 C 75 %
399 02-03-2020 18:28:18 9.8 C 75 %
400 02-03-2020 18:38:18 9.8 C 75 %
Sensor: Nr:Datum:Temp:Feuchte:
G-T/H 401 02-03-2020 18:48:17 9.8 C 75 %
402 02-03-2020 18:58:18 9.8 C 75 %
403 02-03-2020 19:08:18 9.9 C 75 %
404 02-03-2020 19:18:18 9.8 C 75 %
405 02-03-2020 19:28:18 9.9 C 75 %
406 02-03-2020 19:38:18 9.9 C 75 %
407 02-03-2020 19:48:17 9.9 C 75 %
408 02-03-2020 19:58:18 9.8 C 75 %
409 02-03-2020 20:08:18 9.9 C 75 %
410 02-03-2020 20:18:17 9.9 C 75 %
411 02-03-2020 20:28:18 9.9 C 75 %
412 02-03-2020 20:38:18 9.9 C 75 %
413 02-03-2020 20:48:17 9.9 C 75 %
414 02-03-2020 20:58:17 9.9 C 75 %
415 02-03-2020 21:08:18 9.9 C 75 %
416 02-03-2020 21:18:18 9.9 C 75 %
417 02-03-2020 21:28:18 9.9 C 75 %
418 02-03-2020 21:38:18 9.9 C 75 %
419 02-03-2020 21:48:18 9.9 C 75 %
420 02-03-2020 21:58:18 9.9 C 75 %
421 02-03-2020 22:08:18 9.9 C 75 %
422 02-03-2020 22:18:17 9.9 C 75 %
423 02-03-2020 22:28:17 9.9 C 75 %
424 02-03-2020 22:38:17 9.9 C 75 %
425 02-03-2020 22:48:17 9.9 C 75 %
Sensor: Nr:Datum:Temp:Feuchte:
G-T/H 426 02-03-2020 22:58:17 9.9 C 75 %
427 02-03-2020 23:08:17 9.9 C 75 %
428 02-03-2020 23:18:17 9.9 C 75 %
429 02-03-2020 23:28:17 9.9 C 75 %
430 02-03-2020 23:38:17 9.9 C 75 %
431 02-03-2020 23:48:17 9.9 C 75 %
432 02-03-2020 23:58:17 9.9 C 75 %
433 03-03-2020 00:08:18 9.9 C 75 %
434 03-03-2020 00:18:18 9.9 C 75 %
435 03-03-2020 00:28:18 9.9 C 75 %
436 03-03-2020 00:38:18 9.9 C 75 %
437 03-03-2020 00:48:17 9.9 C 75 %
438 03-03-2020 00:58:17 9.9 C 75 %
439 03-03-2020 01:08:17 9.9 C 75 %
440 03-03-2020 01:18:17 9.9 C 75 %
441 03-03-2020 01:28:17 9.9 C 75 %
442 03-03-2020 01:38:18 9.9 C 75 %
443 03-03-2020 01:48:17 9.9 C 75 %
444 03-03-2020 01:58:17 9.9 C 75 %
445 03-03-2020 02:08:17 9.9 C 75 %
446 03-03-2020 02:18:17 9.9 C 75 %
447 03-03-2020 02:28:17 9.9 C 75 %
448 03-03-2020 02:38:18 9.9 C 75 %
449 03-03-2020 02:48:18 9.9 C 75 %
450 03-03-2020 02:58:18 9.9 C 75 %
Sensor: Nr:Datum:Temp:Feuchte:
G-T/H 451 03-03-2020 03:08:17 9.9 C 75 %
452 03-03-2020 03:18:17 9.9 C 75 %
453 03-03-2020 03:28:17 9.9 C 74 %
454 03-03-2020 03:38:18 9.9 C 74 %
455 03-03-2020 03:48:18 9.8 C 74 %
456 03-03-2020 03:58:18 9.9 C 74 %
457 03-03-2020 04:08:17 9.8 C 74 %
458 03-03-2020 04:18:17 9.8 C 74 %
459 03-03-2020 04:28:17 9.8 C 74 %
460 03-03-2020 04:38:18 9.8 C 74 %
461 03-03-2020 04:48:17 9.8 C 74 %
462 03-03-2020 04:58:18 9.8 C 74 %
463 03-03-2020 05:08:18 9.8 C 74 %
464 03-03-2020 05:18:18 9.8 C 74 %
465 03-03-2020 05:28:18 9.8 C 74 %
466 03-03-2020 05:38:17 9.7 C 74 %
467 03-03-2020 05:48:18 9.8 C 74 %
468 03-03-2020 05:58:18 9.7 C 74 %
469 03-03-2020 06:08:17 9.7 C 74 %
470 03-03-2020 06:18:18 9.7 C 74 %
471 03-03-2020 06:28:18 9.7 C 74 %
472 03-03-2020 06:38:17 9.7 C 74 %
473 03-03-2020 06:48:18 9.7 C 74 %
474 03-03-2020 06:58:18 9.6 C 74 %
475 03-03-2020 07:08:18 9.7 C 73 %
Sensor: Nr:Datum:Temp:Feuchte:
G-T/H 476 03-03-2020 07:18:18 9.7 C 73 %
477 03-03-2020 07:28:18 9.6 C 73 %
478 03-03-2020 07:38:18 9.6 C 73 %
479 03-03-2020 07:48:17 9.6 C 73 %
480 03-03-2020 07:58:17 9.6 C 73 %
481 03-03-2020 08:08:18 9.6 C 73 %
482 03-03-2020 08:18:18 9.6 C 73 %
483 03-03-2020 08:28:18 9.6 C 73 %
484 03-03-2020 08:38:17 9.6 C 73 %
485 03-03-2020 08:48:17 9.6 C 73 %
486 03-03-2020 08:58:18 9.5 C 73 %
487 03-03-2020 09:08:18 9.5 C 73 %
488 03-03-2020 09:18:17 9.5 C 73 %
489 03-03-2020 09:28:17 9.5 C 73 %
490 03-03-2020 09:38:17 9.5 C 73 %
491 03-03-2020 09:48:18 9.5 C 73 %
492 03-03-2020 09:58:18 9